<?xml version="1.0" encoding="UTF-8" standalone="no" ?>
<gpx xmlns="http://www.topografix.com/GPX/1/1" xmlns:xsi="http://www.w3.org/2001/XMLSchema-instance" xsi:schemaLocation="http://www.topografix.com/GPX/1/1 http://www.topografix.com/GPX/1/1/gpx.xsd" version="1.1" creator="VisuGPX - https://www.visugpx.com">
  <metadata>
    <name>Saint Privat d'Allier - Saugues</name>
    <desc><![CDATA[Chemin de Compostelle 2018-1 : Saint Privat- Saugues]]></desc>
  </metadata>
  <trk>
    <name><![CDATA[28 avr. 2018 à 08:35:01]]></name>
    <cmt><![CDATA[28 avr. 2018 à 08:35:01]]></cmt>
    <trkseg>
      <trkpt lat="44.98968" lon="3.67913">
        <ele>876</ele>
        <time>2018-04-28T06:35:01Z</time>
      </trkpt>
      <trkpt lat="44.98968" lon="3.67913">
        <ele>876</ele>
        <time>2018-04-28T06:35:02Z</time>
      </trkpt>
      <trkpt lat="44.98973" lon="3.67903">
        <ele>875</ele>
        <time>2018-04-28T06:35:19Z</time>
      </trkpt>
      <trkpt lat="44.98978" lon="3.67901">
        <ele>875</ele>
        <time>2018-04-28T06:35:24Z</time>
      </trkpt>
      <trkpt lat="44.98986" lon="3.67892">
        <ele>874</ele>
        <time>2018-04-28T06:35:32Z</time>
      </trkpt>
      <trkpt lat="44.99001" lon="3.67863">
        <ele>872</ele>
        <time>2018-04-28T06:35:51Z</time>
      </trkpt>
      <trkpt lat="44.99004" lon="3.67857">
        <ele>872</ele>
        <time>2018-04-28T06:35:56Z</time>
      </trkpt>
      <trkpt lat="44.99009" lon="3.67856">
        <ele>872</ele>
        <time>2018-04-28T06:36:16Z</time>
      </trkpt>
      <trkpt lat="44.99009" lon="3.67846">
        <ele>872</ele>
        <time>2018-04-28T06:37:02Z</time>
      </trkpt>
      <trkpt lat="44.99006" lon="3.67832">
        <ele>871</ele>
        <time>2018-04-28T06:37:11Z</time>
      </trkpt>
      <trkpt lat="44.98995" lon="3.67799">
        <ele>872</ele>
        <time>2018-04-28T06:37:31Z</time>
      </trkpt>
      <trkpt lat="44.98992" lon="3.67785">
        <ele>872</ele>
        <time>2018-04-28T06:37:38Z</time>
      </trkpt>
      <trkpt lat="44.98992" lon="3.67778">
        <ele>872</ele>
        <time>2018-04-28T06:37:42Z</time>
      </trkpt>
      <trkpt lat="44.98989" lon="3.67757">
        <ele>872</ele>
        <time>2018-04-28T06:37:59Z</time>
      </trkpt>
      <trkpt lat="44.9898" lon="3.6775">
        <ele>873</ele>
        <time>2018-04-28T06:38:04Z</time>
      </trkpt>
      <trkpt lat="44.98982" lon="3.6773">
        <ele>873</ele>
        <time>2018-04-28T06:38:17Z</time>
      </trkpt>
      <trkpt lat="44.98981" lon="3.67717">
        <ele>874</ele>
        <time>2018-04-28T06:38:25Z</time>
      </trkpt>
      <trkpt lat="44.98976" lon="3.67705">
        <ele>874</ele>
        <time>2018-04-28T06:38:33Z</time>
      </trkpt>
      <trkpt lat="44.98977" lon="3.67691">
        <ele>875</ele>
        <time>2018-04-28T06:38:40Z</time>
      </trkpt>
      <trkpt lat="44.9898" lon="3.67678">
        <ele>875</ele>
        <time>2018-04-28T06:38:46Z</time>
      </trkpt>
      <trkpt lat="44.98975" lon="3.67666">
        <ele>875</ele>
        <time>2018-04-28T06:38:53Z</time>
      </trkpt>
      <trkpt lat="44.98975" lon="3.67613">
        <ele>877</ele>
        <time>2018-04-28T06:39:24Z</time>
      </trkpt>
      <trkpt lat="44.98968" lon="3.67559">
        <ele>877</ele>
        <time>2018-04-28T06:39:54Z</time>
      </trkpt>
      <trkpt lat="44.98962" lon="3.67535">
        <ele>878</ele>
        <time>2018-04-28T06:40:08Z</time>
      </trkpt>
      <trkpt lat="44.9896" lon="3.67522">
        <ele>878</ele>
        <time>2018-04-28T06:40:15Z</time>
      </trkpt>
      <trkpt lat="44.98961" lon="3.67507">
        <ele>879</ele>
        <time>2018-04-28T06:40:24Z</time>
      </trkpt>
      <trkpt lat="44.98957" lon="3.67494">
        <ele>879</ele>
        <time>2018-04-28T06:40:32Z</time>
      </trkpt>
      <trkpt lat="44.98952" lon="3.67483">
        <ele>879</ele>
        <time>2018-04-28T06:40:40Z</time>
      </trkpt>
      <trkpt lat="44.9895" lon="3.67478">
        <ele>880</ele>
        <time>2018-04-28T06:40:44Z</time>
      </trkpt>
      <trkpt lat="44.98945" lon="3.67473">
        <ele>880</ele>
        <time>2018-04-28T06:40:49Z</time>
      </trkpt>
      <trkpt lat="44.98941" lon="3.67472">
        <ele>881</ele>
        <time>2018-04-28T06:41:00Z</time>
      </trkpt>
      <trkpt lat="44.98919" lon="3.67436">
        <ele>882</ele>
        <time>2018-04-28T06:41:49Z</time>
      </trkpt>
      <trkpt lat="44.98913" lon="3.67426">
        <ele>882</ele>
        <time>2018-04-28T06:41:57Z</time>
      </trkpt>
      <trkpt lat="44.98899" lon="3.67405">
        <ele>884</ele>
        <time>2018-04-28T06:42:13Z</time>
      </trkpt>
      <trkpt lat="44.98897" lon="3.67399">
        <ele>885</ele>
        <time>2018-04-28T06:42:17Z</time>
      </trkpt>
      <trkpt lat="44.98895" lon="3.67393">
        <ele>885</ele>
        <time>2018-04-28T06:42:21Z</time>
      </trkpt>
      <trkpt lat="44.98893" lon="3.67385">
        <ele>885</ele>
        <time>2018-04-28T06:42:26Z</time>
      </trkpt>
      <trkpt lat="44.98887" lon="3.67365">
        <ele>886</ele>
        <time>2018-04-28T06:42:40Z</time>
      </trkpt>
      <trkpt lat="44.98887" lon="3.67358">
        <ele>886</ele>
        <time>2018-04-28T06:42:44Z</time>
      </trkpt>
      <trkpt lat="44.98884" lon="3.67342">
        <ele>887</ele>
        <time>2018-04-28T06:42:56Z</time>
      </trkpt>
      <trkpt lat="44.98883" lon="3.6732">
        <ele>887</ele>
        <time>2018-04-28T06:43:09Z</time>
      </trkpt>
      <trkpt lat="44.98882" lon="3.67307">
        <ele>886</ele>
        <time>2018-04-28T06:43:17Z</time>
      </trkpt>
      <trkpt lat="44.98883" lon="3.67276">
        <ele>885</ele>
        <time>2018-04-28T06:43:37Z</time>
      </trkpt>
      <trkpt lat="44.98886" lon="3.67262">
        <ele>884</ele>
        <time>2018-04-28T06:43:46Z</time>
      </trkpt>
      <trkpt lat="44.98888" lon="3.67257">
        <ele>884</ele>
        <time>2018-04-28T06:43:50Z</time>
      </trkpt>
      <trkpt lat="44.98888" lon="3.67249">
        <ele>883</ele>
        <time>2018-04-28T06:44:01Z</time>
      </trkpt>
      <trkpt lat="44.98888" lon="3.6724">
        <ele>881</ele>
        <time>2018-04-28T06:44:13Z</time>
      </trkpt>
      <trkpt lat="44.98887" lon="3.67226">
        <ele>880</ele>
        <time>2018-04-28T06:44:25Z</time>
      </trkpt>
      <trkpt lat="44.98889" lon="3.67199">
        <ele>875</ele>
        <time>2018-04-28T06:44:55Z</time>
      </trkpt>
      <trkpt lat="44.98892" lon="3.67187">
        <ele>874</ele>
        <time>2018-04-28T06:45:07Z</time>
      </trkpt>
      <trkpt lat="44.98898" lon="3.67172">
        <ele>872</ele>
        <time>2018-04-28T06:45:24Z</time>
      </trkpt>
      <trkpt lat="44.98897" lon="3.67163">
        <ele>870</ele>
        <time>2018-04-28T06:45:50Z</time>
      </trkpt>
      <trkpt lat="44.98905" lon="3.6714">
        <ele>868</ele>
        <time>2018-04-28T06:46:14Z</time>
      </trkpt>
      <trkpt lat="44.98909" lon="3.67133">
        <ele>867</ele>
        <time>2018-04-28T06:46:26Z</time>
      </trkpt>
      <trkpt lat="44.98912" lon="3.67128">
        <ele>866</ele>
        <time>2018-04-28T06:46:32Z</time>
      </trkpt>
      <trkpt lat="44.98914" lon="3.67121">
        <ele>865</ele>
        <time>2018-04-28T06:46:38Z</time>
      </trkpt>
      <trkpt lat="44.98921" lon="3.67108">
        <ele>863</ele>
        <time>2018-04-28T06:47:02Z</time>
      </trkpt>
      <trkpt lat="44.98933" lon="3.67081">
        <ele>859</ele>
        <time>2018-04-28T06:47:33Z</time>
      </trkpt>
      <trkpt lat="44.98939" lon="3.67059">
        <ele>857</ele>
        <time>2018-04-28T06:47:56Z</time>
      </trkpt>
      <trkpt lat="44.98939" lon="3.67049">
        <ele>856</ele>
        <time>2018-04-28T06:48:08Z</time>
      </trkpt>
      <trkpt lat="44.98933" lon="3.67053">
        <ele>855</ele>
        <time>2018-04-28T06:48:26Z</time>
      </trkpt>
      <trkpt lat="44.98929" lon="3.67058">
        <ele>856</ele>
        <time>2018-04-28T06:48:31Z</time>
      </trkpt>
      <trkpt lat="44.98925" lon="3.67062">
        <ele>856</ele>
        <time>2018-04-28T06:48:36Z</time>
      </trkpt>
      <trkpt lat="44.98909" lon="3.67059">
        <ele>859</ele>
        <time>2018-04-28T06:48:54Z</time>
      </trkpt>
      <trkpt lat="44.98903" lon="3.67061">
        <ele>860</ele>
        <time>2018-04-28T06:49:02Z</time>
      </trkpt>
      <trkpt lat="44.98886" lon="3.6706">
        <ele>864</ele>
        <time>2018-04-28T06:49:28Z</time>
      </trkpt>
      <trkpt lat="44.98882" lon="3.67057">
        <ele>864</ele>
        <time>2018-04-28T06:49:32Z</time>
      </trkpt>
      <trkpt lat="44.98855" lon="3.67028">
        <ele>868</ele>
        <time>2018-04-28T06:50:06Z</time>
      </trkpt>
      <trkpt lat="44.98847" lon="3.67019">
        <ele>870</ele>
        <time>2018-04-28T06:50:16Z</time>
      </trkpt>
      <trkpt lat="44.98846" lon="3.67013">
        <ele>870</ele>
        <time>2018-04-28T06:50:20Z</time>
      </trkpt>
      <trkpt lat="44.98848" lon="3.67006">
        <ele>871</ele>
        <time>2018-04-28T06:50:25Z</time>
      </trkpt>
      <trkpt lat="44.98844" lon="3.66996">
        <ele>871</ele>
        <time>2018-04-28T06:50:44Z</time>
      </trkpt>
      <trkpt lat="44.98816" lon="3.66972">
        <ele>875</ele>
        <time>2018-04-28T06:51:17Z</time>
      </trkpt>
      <trkpt lat="44.98808" lon="3.66957">
        <ele>878</ele>
        <time>2018-04-28T06:51:33Z</time>
      </trkpt>
      <trkpt lat="44.9881" lon="3.66942">
        <ele>880</ele>
        <time>2018-04-28T06:51:47Z</time>
      </trkpt>
      <trkpt lat="44.98826" lon="3.66931">
        <ele>883</ele>
        <time>2018-04-28T06:52:05Z</time>
      </trkpt>
      <trkpt lat="44.98835" lon="3.66929">
        <ele>884</ele>
        <time>2018-04-28T06:52:15Z</time>
      </trkpt>
      <trkpt lat="44.98841" lon="3.66911">
        <ele>886</ele>
        <time>2018-04-28T06:52:30Z</time>
      </trkpt>
      <trkpt lat="44.9884" lon="3.66892">
        <ele>887</ele>
        <time>2018-04-28T06:52:43Z</time>
      </trkpt>
      <trkpt lat="44.9884" lon="3.66885">
        <ele>888</ele>
        <time>2018-04-28T06:52:48Z</time>
      </trkpt>
      <trkpt lat="44.9884" lon="3.66878">
        <ele>888</ele>
        <time>2018-04-28T06:52:53Z</time>
      </trkpt>
      <trkpt lat="44.98843" lon="3.66841">
        <ele>890</ele>
        <time>2018-04-28T06:53:24Z</time>
      </trkpt>
      <trkpt lat="44.98844" lon="3.6683">
        <ele>891</ele>
        <time>2018-04-28T06:53:33Z</time>
      </trkpt>
      <trkpt lat="44.98842" lon="3.66824">
        <ele>891</ele>
        <time>2018-04-28T06:53:38Z</time>
      </trkpt>
      <trkpt lat="44.9882" lon="3.66799">
        <ele>895</ele>
        <time>2018-04-28T06:54:09Z</time>
      </trkpt>
      <trkpt lat="44.98803" lon="3.66777">
        <ele>898</ele>
        <time>2018-04-28T06:54:45Z</time>
      </trkpt>
      <trkpt lat="44.988" lon="3.66771">
        <ele>899</ele>
        <time>2018-04-28T06:54:51Z</time>
      </trkpt>
      <trkpt lat="44.98796" lon="3.66768">
        <ele>899</ele>
        <time>2018-04-28T06:54:56Z</time>
      </trkpt>
      <trkpt lat="44.98794" lon="3.66761">
        <ele>899</ele>
        <time>2018-04-28T06:55:01Z</time>
      </trkpt>
      <trkpt lat="44.98796" lon="3.66747">
        <ele>900</ele>
        <time>2018-04-28T06:55:09Z</time>
      </trkpt>
      <trkpt lat="44.98791" lon="3.66741">
        <ele>901</ele>
        <time>2018-04-28T06:55:16Z</time>
      </trkpt>
      <trkpt lat="44.9879" lon="3.66735">
        <ele>901</ele>
        <time>2018-04-28T06:55:21Z</time>
      </trkpt>
      <trkpt lat="44.98786" lon="3.66724">
        <ele>903</ele>
        <time>2018-04-28T06:55:32Z</time>
      </trkpt>
      <trkpt lat="44.98781" lon="3.66722">
        <ele>903</ele>
        <time>2018-04-28T06:55:38Z</time>
      </trkpt>
      <trkpt lat="44.98779" lon="3.66705">
        <ele>906</ele>
        <time>2018-04-28T06:56:06Z</time>
      </trkpt>
      <trkpt lat="44.98784" lon="3.66676">
        <ele>909</ele>
        <time>2018-04-28T06:56:45Z</time>
      </trkpt>
      <trkpt lat="44.9879" lon="3.66644">
        <ele>914</ele>
        <time>2018-04-28T06:57:13Z</time>
      </trkpt>
      <trkpt lat="44.98788" lon="3.66632">
        <ele>914</ele>
        <time>2018-04-28T06:57:22Z</time>
      </trkpt>
      <trkpt lat="44.98774" lon="3.66609">
        <ele>917</ele>
        <time>2018-04-28T06:57:45Z</time>
      </trkpt>
      <trkpt lat="44.98769" lon="3.66598">
        <ele>917</ele>
        <time>2018-04-28T06:57:54Z</time>
      </trkpt>
      <trkpt lat="44.98769" lon="3.66569">
        <ele>918</ele>
        <time>2018-04-28T06:58:12Z</time>
      </trkpt>
      <trkpt lat="44.98768" lon="3.66562">
        <ele>918</ele>
        <time>2018-04-28T06:58:17Z</time>
      </trkpt>
      <trkpt lat="44.98748" lon="3.66513">
        <ele>920</ele>
        <time>2018-04-28T06:58:51Z</time>
      </trkpt>
      <trkpt lat="44.98748" lon="3.66506">
        <ele>920</ele>
        <time>2018-04-28T06:59:10Z</time>
      </trkpt>
      <trkpt lat="44.98746" lon="3.66501">
        <ele>921</ele>
        <time>2018-04-28T06:59:14Z</time>
      </trkpt>
      <trkpt lat="44.98744" lon="3.66494">
        <ele>921</ele>
        <time>2018-04-28T06:59:19Z</time>
      </trkpt>
      <trkpt lat="44.98737" lon="3.6648">
        <ele>921</ele>
        <time>2018-04-28T06:59:31Z</time>
      </trkpt>
      <trkpt lat="44.98733" lon="3.66476">
        <ele>921</ele>
        <time>2018-04-28T06:59:35Z</time>
      </trkpt>
      <trkpt lat="44.98716" lon="3.66465">
        <ele>920</ele>
        <time>2018-04-28T06:59:51Z</time>
      </trkpt>
      <trkpt lat="44.98707" lon="3.66461">
        <ele>920</ele>
        <time>2018-04-28T07:00:00Z</time>
      </trkpt>
      <trkpt lat="44.987" lon="3.66451">
        <ele>919</ele>
        <time>2018-04-28T07:00:09Z</time>
      </trkpt>
      <trkpt lat="44.98695" lon="3.66446">
        <ele>919</ele>
        <time>2018-04-28T07:00:14Z</time>
      </trkpt>
      <trkpt lat="44.98691" lon="3.66443">
        <ele>919</ele>
        <time>2018-04-28T07:00:18Z</time>
      </trkpt>
      <trkpt lat="44.98682" lon="3.66435">
        <ele>919</ele>
        <time>2018-04-28T07:00:31Z</time>
      </trkpt>
      <trkpt lat="44.98677" lon="3.66434">
        <ele>920</ele>
        <time>2018-04-28T07:00:35Z</time>
      </trkpt>
      <trkpt lat="44.98672" lon="3.66435">
        <ele>920</ele>
        <time>2018-04-28T07:00:40Z</time>
      </trkpt>
      <trkpt lat="44.98657" lon="3.6643">
        <ele>921</ele>
        <time>2018-04-28T07:00:52Z</time>
      </trkpt>
      <trkpt lat="44.98644" lon="3.66419">
        <ele>922</ele>
        <time>2018-04-28T07:01:07Z</time>
      </trkpt>
      <trkpt lat="44.98635" lon="3.66417">
        <ele>922</ele>
        <time>2018-04-28T07:01:16Z</time>
      </trkpt>
      <trkpt lat="44.98628" lon="3.66409">
        <ele>923</ele>
        <time>2018-04-28T07:01:24Z</time>
      </trkpt>
      <trkpt lat="44.98608" lon="3.66399">
        <ele>924</ele>
        <time>2018-04-28T07:01:44Z</time>
      </trkpt>
      <trkpt lat="44.98597" lon="3.66397">
        <ele>926</ele>
        <time>2018-04-28T07:01:55Z</time>
      </trkpt>
      <trkpt lat="44.98586" lon="3.66389">
        <ele>928</ele>
        <time>2018-04-28T07:02:10Z</time>
      </trkpt>
      <trkpt lat="44.9858" lon="3.6638">
        <ele>930</ele>
        <time>2018-04-28T07:02:34Z</time>
      </trkpt>
      <trkpt lat="44.98575" lon="3.66368">
        <ele>932</ele>
        <time>2018-04-28T07:02:49Z</time>
      </trkpt>
      <trkpt lat="44.98574" lon="3.6635">
        <ele>935</ele>
        <time>2018-04-28T07:03:13Z</time>
      </trkpt>
      <trkpt lat="44.98572" lon="3.66323">
        <ele>937</ele>
        <time>2018-04-28T07:03:34Z</time>
      </trkpt>
      <trkpt lat="44.98569" lon="3.6631">
        <ele>938</ele>
        <time>2018-04-28T07:03:43Z</time>
      </trkpt>
      <trkpt lat="44.98565" lon="3.66297">
        <ele>938</ele>
        <time>2018-04-28T07:03:51Z</time>
      </trkpt>
      <trkpt lat="44.98565" lon="3.66291">
        <ele>938</ele>
        <time>2018-04-28T07:03:55Z</time>
      </trkpt>
      <trkpt lat="44.98563" lon="3.66269">
        <ele>936</ele>
        <time>2018-04-28T07:04:08Z</time>
      </trkpt>
      <trkpt lat="44.98566" lon="3.66234">
        <ele>936</ele>
        <time>2018-04-28T07:04:28Z</time>
      </trkpt>
      <trkpt lat="44.98569" lon="3.6622">
        <ele>934</ele>
        <time>2018-04-28T07:04:36Z</time>
      </trkpt>
      <trkpt lat="44.98569" lon="3.66213">
        <ele>933</ele>
        <time>2018-04-28T07:04:41Z</time>
      </trkpt>
      <trkpt lat="44.9857" lon="3.66206">
        <ele>933</ele>
        <time>2018-04-28T07:04:46Z</time>
      </trkpt>
      <trkpt lat="44.98579" lon="3.66197">
        <ele>931</ele>
        <time>2018-04-28T07:05:08Z</time>
      </trkpt>
      <trkpt lat="44.98582" lon="3.66187">
        <ele>931</ele>
        <time>2018-04-28T07:05:20Z</time>
      </trkpt>
      <trkpt lat="44.98595" lon="3.66164">
        <ele>930</ele>
        <time>2018-04-28T07:05:38Z</time>
      </trkpt>
      <trkpt lat="44.98611" lon="3.6611">
        <ele>929</ele>
        <time>2018-04-28T07:06:12Z</time>
      </trkpt>
      <trkpt lat="44.98613" lon="3.66104">
        <ele>928</ele>
        <time>2018-04-28T07:06:17Z</time>
      </trkpt>
      <trkpt lat="44.98614" lon="3.66069">
        <ele>928</ele>
        <time>2018-04-28T07:06:39Z</time>
      </trkpt>
      <trkpt lat="44.98615" lon="3.66055">
        <ele>929</ele>
        <time>2018-04-28T07:06:48Z</time>
      </trkpt>
      <trkpt lat="44.98609" lon="3.66029">
        <ele>930</ele>
        <time>2018-04-28T07:07:06Z</time>
      </trkpt>
      <trkpt lat="44.98609" lon="3.66013">
        <ele>930</ele>
        <time>2018-04-28T07:07:13Z</time>
      </trkpt>
      <trkpt lat="44.98612" lon="3.66">
        <ele>930</ele>
        <time>2018-04-28T07:07:20Z</time>
      </trkpt>
      <trkpt lat="44.98613" lon="3.65985">
        <ele>931</ele>
        <time>2018-04-28T07:07:27Z</time>
      </trkpt>
      <trkpt lat="44.98625" lon="3.65938">
        <ele>932</ele>
        <time>2018-04-28T07:08:03Z</time>
      </trkpt>
      <trkpt lat="44.98626" lon="3.65924">
        <ele>933</ele>
        <time>2018-04-28T07:08:11Z</time>
      </trkpt>
      <trkpt lat="44.98622" lon="3.65897">
        <ele>933</ele>
        <time>2018-04-28T07:08:29Z</time>
      </trkpt>
      <trkpt lat="44.98621" lon="3.65868">
        <ele>936</ele>
        <time>2018-04-28T07:08:52Z</time>
      </trkpt>
      <trkpt lat="44.98612" lon="3.65861">
        <ele>936</ele>
        <time>2018-04-28T07:09:01Z</time>
      </trkpt>
      <trkpt lat="44.98603" lon="3.65859">
        <ele>937</ele>
        <time>2018-04-28T07:09:08Z</time>
      </trkpt>
      <trkpt lat="44.98595" lon="3.65851">
        <ele>937</ele>
        <time>2018-04-28T07:09:16Z</time>
      </trkpt>
      <trkpt lat="44.98589" lon="3.6584">
        <ele>937</ele>
        <time>2018-04-28T07:09:24Z</time>
      </trkpt>
      <trkpt lat="44.98542" lon="3.65818">
        <ele>938</ele>
        <time>2018-04-28T07:10:01Z</time>
      </trkpt>
      <trkpt lat="44.98525" lon="3.65806">
        <ele>938</ele>
        <time>2018-04-28T07:10:17Z</time>
      </trkpt>
      <trkpt lat="44.98516" lon="3.65805">
        <ele>938</ele>
        <time>2018-04-28T07:10:23Z</time>
      </trkpt>
      <trkpt lat="44.98505" lon="3.65784">
        <ele>939</ele>
        <time>2018-04-28T07:10:39Z</time>
      </trkpt>
      <trkpt lat="44.98502" lon="3.6577">
        <ele>939</ele>
        <time>2018-04-28T07:10:47Z</time>
      </trkpt>
      <trkpt lat="44.98496" lon="3.65749">
        <ele>942</ele>
        <time>2018-04-28T07:11:09Z</time>
      </trkpt>
      <trkpt lat="44.98495" lon="3.65728">
        <ele>943</ele>
        <time>2018-04-28T07:11:25Z</time>
      </trkpt>
      <trkpt lat="44.98498" lon="3.65716">
        <ele>944</ele>
        <time>2018-04-28T07:11:34Z</time>
      </trkpt>
      <trkpt lat="44.98498" lon="3.657">
        <ele>945</ele>
        <time>2018-04-28T07:11:45Z</time>
      </trkpt>
      <trkpt lat="44.98502" lon="3.65687">
        <ele>945</ele>
        <time>2018-04-28T07:11:54Z</time>
      </trkpt>
      <trkpt lat="44.98508" lon="3.65676">
        <ele>945</ele>
        <time>2018-04-28T07:12:04Z</time>
      </trkpt>
      <trkpt lat="44.9851" lon="3.65663">
        <ele>945</ele>
        <time>2018-04-28T07:12:11Z</time>
      </trkpt>
      <trkpt lat="44.98501" lon="3.65595">
        <ele>944</ele>
        <time>2018-04-28T07:12:49Z</time>
      </trkpt>
      <trkpt lat="44.98499" lon="3.65569">
        <ele>944</ele>
        <time>2018-04-28T07:13:03Z</time>
      </trkpt>
      <trkpt lat="44.98502" lon="3.65542">
        <ele>944</ele>
        <time>2018-04-28T07:13:18Z</time>
      </trkpt>
      <trkpt lat="44.98508" lon="3.65487">
        <ele>941</ele>
        <time>2018-04-28T07:13:49Z</time>
      </trkpt>
      <trkpt lat="44.98519" lon="3.65429">
        <ele>941</ele>
        <time>2018-04-28T07:14:22Z</time>
      </trkpt>
      <trkpt lat="44.98521" lon="3.65415">
        <ele>942</ele>
        <time>2018-04-28T07:14:30Z</time>
      </trkpt>
      <trkpt lat="44.98526" lon="3.65403">
        <ele>941</ele>
        <time>2018-04-28T07:14:37Z</time>
      </trkpt>
      <trkpt lat="44.98535" lon="3.65386">
        <ele>942</ele>
        <time>2018-04-28T07:14:49Z</time>
      </trkpt>
      <trkpt lat="44.98545" lon="3.65371">
        <ele>942</ele>
        <time>2018-04-28T07:15:01Z</time>
      </trkpt>
      <trkpt lat="44.98548" lon="3.65366">
        <ele>942</ele>
        <time>2018-04-28T07:15:06Z</time>
      </trkpt>
      <trkpt lat="44.98549" lon="3.65358">
        <ele>942</ele>
        <time>2018-04-28T07:15:14Z</time>
      </trkpt>
      <trkpt lat="44.98551" lon="3.65351">
        <ele>941</ele>
        <time>2018-04-28T07:15:19Z</time>
      </trkpt>
      <trkpt lat="44.98553" lon="3.65345">
        <ele>941</ele>
        <time>2018-04-28T07:15:23Z</time>
      </trkpt>
      <trkpt lat="44.98556" lon="3.65339">
        <ele>940</ele>
        <time>2018-04-28T07:15:28Z</time>
      </trkpt>
      <trkpt lat="44.98562" lon="3.65334">
        <ele>939</ele>
        <time>2018-04-28T07:15:35Z</time>
      </trkpt>
      <trkpt lat="44.98565" lon="3.65329">
        <ele>939</ele>
        <time>2018-04-28T07:15:39Z</time>
      </trkpt>
      <trkpt lat="44.98569" lon="3.65323">
        <ele>939</ele>
        <time>2018-04-28T07:15:43Z</time>
      </trkpt>
      <trkpt lat="44.9857" lon="3.65316">
        <ele>938</ele>
        <time>2018-04-28T07:15:47Z</time>
      </trkpt>
      <trkpt lat="44.98584" lon="3.65295">
        <ele>937</ele>
        <time>2018-04-28T07:16:05Z</time>
      </trkpt>
      <trkpt lat="44.98591" lon="3.65287">
        <ele>936</ele>
        <time>2018-04-28T07:16:16Z</time>
      </trkpt>
      <trkpt lat="44.98594" lon="3.65281">
        <ele>935</ele>
        <time>2018-04-28T07:16:20Z</time>
      </trkpt>
      <trkpt lat="44.98602" lon="3.65273">
        <ele>934</ele>
        <time>2018-04-28T07:16:29Z</time>
      </trkpt>
      <trkpt lat="44.98605" lon="3.65268">
        <ele>934</ele>
        <time>2018-04-28T07:16:33Z</time>
      </trkpt>
      <trkpt lat="44.98607" lon="3.65262">
        <ele>933</ele>
        <time>2018-04-28T07:16:37Z</time>
      </trkpt>
      <trkpt lat="44.98617" lon="3.65247">
        <ele>932</ele>
        <time>2018-04-28T07:16:50Z</time>
      </trkpt>
      <trkpt lat="44.98625" lon="3.65228">
        <ele>930</ele>
        <time>2018-04-28T07:17:04Z</time>
      </trkpt>
      <trkpt lat="44.98629" lon="3.65224">
        <ele>929</ele>
        <time>2018-04-28T07:17:12Z</time>
      </trkpt>
      <trkpt lat="44.98633" lon="3.6522">
        <ele>929</ele>
        <time>2018-04-28T07:17:18Z</time>
      </trkpt>
      <trkpt lat="44.98632" lon="3.65214">
        <ele>929</ele>
        <time>2018-04-28T07:17:23Z</time>
      </trkpt>
      <trkpt lat="44.98615" lon="3.65201">
        <ele>928</ele>
        <time>2018-04-28T07:17:41Z</time>
      </trkpt>
      <trkpt lat="44.98601" lon="3.65154">
        <ele>930</ele>
        <time>2018-04-28T07:18:14Z</time>
      </trkpt>
      <trkpt lat="44.98594" lon="3.65129">
        <ele>931</ele>
        <time>2018-04-28T07:18:32Z</time>
      </trkpt>
      <trkpt lat="44.98596" lon="3.65099">
        <ele>933</ele>
        <time>2018-04-28T07:18:49Z</time>
      </trkpt>
      <trkpt lat="44.98594" lon="3.65086">
        <ele>933</ele>
        <time>2018-04-28T07:18:55Z</time>
      </trkpt>
      <trkpt lat="44.98597" lon="3.65064">
        <ele>935</ele>
        <time>2018-04-28T07:19:14Z</time>
      </trkpt>
      <trkpt lat="44.98604" lon="3.65016">
        <ele>935</ele>
        <time>2018-04-28T07:19:43Z</time>
      </trkpt>
      <trkpt lat="44.9861" lon="3.64993">
        <ele>936</ele>
        <time>2018-04-28T07:19:59Z</time>
      </trkpt>
      <trkpt lat="44.98614" lon="3.64983">
        <ele>938</ele>
        <time>2018-04-28T07:20:16Z</time>
      </trkpt>
      <trkpt lat="44.98615" lon="3.64977">
        <ele>938</ele>
        <time>2018-04-28T07:20:20Z</time>
      </trkpt>
      <trkpt lat="44.98615" lon="3.64969">
        <ele>938</ele>
        <time>2018-04-28T07:20:25Z</time>
      </trkpt>
      <trkpt lat="44.98621" lon="3.64921">
        <ele>941</ele>
        <time>2018-04-28T07:21:00Z</time>
      </trkpt>
      <trkpt lat="44.98619" lon="3.64884">
        <ele>944</ele>
        <time>2018-04-28T07:21:36Z</time>
      </trkpt>
      <trkpt lat="44.98616" lon="3.64856">
        <ele>946</ele>
        <time>2018-04-28T07:21:58Z</time>
      </trkpt>
      <trkpt lat="44.98617" lon="3.64846">
        <ele>947</ele>
        <time>2018-04-28T07:22:07Z</time>
      </trkpt>
      <trkpt lat="44.98618" lon="3.6484">
        <ele>949</ele>
        <time>2018-04-28T07:22:19Z</time>
      </trkpt>
      <trkpt lat="44.98619" lon="3.64831">
        <ele>948</ele>
        <time>2018-04-28T07:22:31Z</time>
      </trkpt>
      <trkpt lat="44.98617" lon="3.64796">
        <ele>946</ele>
        <time>2018-04-28T07:22:55Z</time>
      </trkpt>
      <trkpt lat="44.98614" lon="3.64787">
        <ele>945</ele>
        <time>2018-04-28T07:23:02Z</time>
      </trkpt>
      <trkpt lat="44.9861" lon="3.64782">
        <ele>944</ele>
        <time>2018-04-28T07:23:07Z</time>
      </trkpt>
      <trkpt lat="44.98601" lon="3.64762">
        <ele>946</ele>
        <time>2018-04-28T07:23:24Z</time>
      </trkpt>
      <trkpt lat="44.98597" lon="3.64757">
        <ele>947</ele>
        <time>2018-04-28T07:23:29Z</time>
      </trkpt>
      <trkpt lat="44.98585" lon="3.6476">
        <ele>947</ele>
        <time>2018-04-28T07:23:38Z</time>
      </trkpt>
      <trkpt lat="44.98581" lon="3.64759">
        <ele>948</ele>
        <time>2018-04-28T07:23:42Z</time>
      </trkpt>
      <trkpt lat="44.98577" lon="3.64754">
        <ele>948</ele>
        <time>2018-04-28T07:23:47Z</time>
      </trkpt>
      <trkpt lat="44.98576" lon="3.64747">
        <ele>949</ele>
        <time>2018-04-28T07:24:01Z</time>
      </trkpt>
      <trkpt lat="44.98573" lon="3.64741">
        <ele>950</ele>
        <time>2018-04-28T07:24:07Z</time>
      </trkpt>
      <trkpt lat="44.9856" lon="3.64732">
        <ele>952</ele>
        <time>2018-04-28T07:24:24Z</time>
      </trkpt>
      <trkpt lat="44.98555" lon="3.64722">
        <ele>952</ele>
        <time>2018-04-28T07:24:33Z</time>
      </trkpt>
      <trkpt lat="44.9855" lon="3.64718">
        <ele>952</ele>
        <time>2018-04-28T07:24:41Z</time>
      </trkpt>
      <trkpt lat="44.9855" lon="3.64721">
        <ele>952</ele>
        <time>2018-04-28T07:25:41Z</time>
      </trkpt>
      <trkpt lat="44.98555" lon="3.64728">
        <ele>953</ele>
        <time>2018-04-28T07:25:51Z</time>
      </trkpt>
      <trkpt lat="44.98561" lon="3.64733">
        <ele>953</ele>
        <time>2018-04-28T07:26:01Z</time>
      </trkpt>
      <trkpt lat="44.98566" lon="3.64732">
        <ele>953</ele>
        <time>2018-04-28T07:26:07Z</time>
      </trkpt>
      <trkpt lat="44.98566" lon="3.64725">
        <ele>954</ele>
        <time>2018-04-28T07:26:25Z</time>
      </trkpt>
      <trkpt lat="44.98568" lon="3.64721">
        <ele>955</ele>
        <time>2018-04-28T07:29:38Z</time>
      </trkpt>
      <trkpt lat="44.98575" lon="3.64732">
        <ele>952</ele>
        <time>2018-04-28T07:29:56Z</time>
      </trkpt>
      <trkpt lat="44.9857" lon="3.64734">
        <ele>950</ele>
        <time>2018-04-28T07:30:15Z</time>
      </trkpt>
      <trkpt lat="44.98571" lon="3.64738">
        <ele>949</ele>
        <time>2018-04-28T07:32:08Z</time>
      </trkpt>
      <trkpt lat="44.98581" lon="3.64745">
        <ele>946</ele>
        <time>2018-04-28T07:32:20Z</time>
      </trkpt>
      <trkpt lat="44.98588" lon="3.64758">
        <ele>944</ele>
        <time>2018-04-28T07:32:34Z</time>
      </trkpt>
      <trkpt lat="44.98597" lon="3.64753">
        <ele>943</ele>
        <time>2018-04-28T07:33:00Z</time>
      </trkpt>
      <trkpt lat="44.9861" lon="3.64776">
        <ele>941</ele>
        <time>2018-04-28T07:33:16Z</time>
      </trkpt>
      <trkpt lat="44.98613" lon="3.64782">
        <ele>941</ele>
        <time>2018-04-28T07:33:20Z</time>
      </trkpt>
      <trkpt lat="44.98614" lon="3.64789">
        <ele>940</ele>
        <time>2018-04-28T07:33:25Z</time>
      </trkpt>
      <trkpt lat="44.98603" lon="3.64792">
        <ele>940</ele>
        <time>2018-04-28T07:33:33Z</time>
      </trkpt>
      <trkpt lat="44.98598" lon="3.64793">
        <ele>939</ele>
        <time>2018-04-28T07:33:37Z</time>
      </trkpt>
      <trkpt lat="44.98593" lon="3.64789">
        <ele>939</ele>
        <time>2018-04-28T07:33:41Z</time>
      </trkpt>
      <trkpt lat="44.98589" lon="3.64789">
        <ele>938</ele>
        <time>2018-04-28T07:33:45Z</time>
      </trkpt>
      <trkpt lat="44.98577" lon="3.64784">
        <ele>938</ele>
        <time>2018-04-28T07:33:58Z</time>
      </trkpt>
      <trkpt lat="44.98572" lon="3.64784">
        <ele>938</ele>
        <time>2018-04-28T07:34:02Z</time>
      </trkpt>
      <trkpt lat="44.98562" lon="3.64779">
        <ele>938</ele>
        <time>2018-04-28T07:34:23Z</time>
      </trkpt>
      <trkpt lat="44.98553" lon="3.6477">
        <ele>938</ele>
        <time>2018-04-28T07:34:33Z</time>
      </trkpt>
      <trkpt lat="44.98542" lon="3.64756">
        <ele>937</ele>
        <time>2018-04-28T07:34:46Z</time>
      </trkpt>
      <trkpt lat="44.98526" lon="3.64746">
        <ele>935</ele>
        <time>2018-04-28T07:35:12Z</time>
      </trkpt>
      <trkpt lat="44.98518" lon="3.64741">
        <ele>933</ele>
        <time>2018-04-28T07:35:23Z</time>
      </trkpt>
      <trkpt lat="44.98514" lon="3.64733">
        <ele>932</ele>
        <time>2018-04-28T07:35:42Z</time>
      </trkpt>
      <trkpt lat="44.9851" lon="3.64729">
        <ele>930</ele>
        <time>2018-04-28T07:35:54Z</time>
      </trkpt>
      <trkpt lat="44.98507" lon="3.64735">
        <ele>929</ele>
        <time>2018-04-28T07:35:59Z</time>
      </trkpt>
      <trkpt lat="44.985" lon="3.64742">
        <ele>927</ele>
        <time>2018-04-28T07:36:10Z</time>
      </trkpt>
      <trkpt lat="44.98481" lon="3.64748">
        <ele>923</ele>
        <time>2018-04-28T07:36:36Z</time>
      </trkpt>
      <trkpt lat="44.98476" lon="3.64748">
        <ele>922</ele>
        <time>2018-04-28T07:36:40Z</time>
      </trkpt>
      <trkpt lat="44.98466" lon="3.64753">
        <ele>920</ele>
        <time>2018-04-28T07:36:47Z</time>
      </trkpt>
      <trkpt lat="44.98456" lon="3.64747">
        <ele>919</ele>
        <time>2018-04-28T07:36:59Z</time>
      </trkpt>
      <trkpt lat="44.98465" lon="3.64709">
        <ele>914</ele>
        <time>2018-04-28T07:37:30Z</time>
      </trkpt>
      <trkpt lat="44.98467" lon="3.64702">
        <ele>913</ele>
        <time>2018-04-28T07:37:35Z</time>
      </trkpt>
      <trkpt lat="44.9846" lon="3.64709">
        <ele>911</ele>
        <time>2018-04-28T07:37:48Z</time>
      </trkpt>
      <trkpt lat="44.98453" lon="3.64713">
        <ele>910</ele>
        <time>2018-04-28T07:37:55Z</time>
      </trkpt>
      <trkpt lat="44.98439" lon="3.64708">
        <ele>907</ele>
        <time>2018-04-28T07:38:11Z</time>
      </trkpt>
      <trkpt lat="44.98434" lon="3.64707">
        <ele>906</ele>
        <time>2018-04-28T07:38:16Z</time>
      </trkpt>
      <trkpt lat="44.98409" lon="3.64721">
        <ele>904</ele>
        <time>2018-04-28T07:38:39Z</time>
      </trkpt>
      <trkpt lat="44.9839" lon="3.64749">
        <ele>904</ele>
        <time>2018-04-28T07:39:01Z</time>
      </trkpt>
      <trkpt lat="44.9839" lon="3.64758">
        <ele>904</ele>
        <time>2018-04-28T07:39:08Z</time>
      </trkpt>
      <trkpt lat="44.98393" lon="3.64763">
        <ele>903</ele>
        <time>2018-04-28T07:39:12Z</time>
      </trkpt>
      <trkpt lat="44.98396" lon="3.64772">
        <ele>901</ele>
        <time>2018-04-28T07:39:20Z</time>
      </trkpt>
      <trkpt lat="44.98403" lon="3.6478">
        <ele>900</ele>
        <time>2018-04-28T07:39:28Z</time>
      </trkpt>
      <trkpt lat="44.98407" lon="3.64786">
        <ele>899</ele>
        <time>2018-04-28T07:39:33Z</time>
      </trkpt>
      <trkpt lat="44.984" lon="3.64792">
        <ele>899</ele>
        <time>2018-04-28T07:40:28Z</time>
      </trkpt>
      <trkpt lat="44.98395" lon="3.64799">
        <ele>897</ele>
        <time>2018-04-28T07:40:46Z</time>
      </trkpt>
      <trkpt lat="44.98393" lon="3.64793">
        <ele>898</ele>
        <time>2018-04-28T07:41:10Z</time>
      </trkpt>
      <trkpt lat="44.98388" lon="3.64796">
        <ele>895</ele>
        <time>2018-04-28T07:41:52Z</time>
      </trkpt>
      <trkpt lat="44.98384" lon="3.64798">
        <ele>894</ele>
        <time>2018-04-28T07:42:28Z</time>
      </trkpt>
      <trkpt lat="44.98381" lon="3.64804">
        <ele>890</ele>
        <time>2018-04-28T07:43:03Z</time>
      </trkpt>
      <trkpt lat="44.98376" lon="3.64806">
        <ele>890</ele>
        <time>2018-04-28T07:43:06Z</time>
      </trkpt>
      <trkpt lat="44.98373" lon="3.64812">
        <ele>888</ele>
        <time>2018-04-28T07:43:11Z</time>
      </trkpt>
      <trkpt lat="44.98367" lon="3.64817">
        <ele>887</ele>
        <time>2018-04-28T07:43:19Z</time>
      </trkpt>
      <trkpt lat="44.98361" lon="3.64812">
        <ele>885</ele>
        <time>2018-04-28T07:43:37Z</time>
      </trkpt>
      <trkpt lat="44.98356" lon="3.64817">
        <ele>884</ele>
        <time>2018-04-28T07:43:49Z</time>
      </trkpt>
      <trkpt lat="44.98346" lon="3.64821">
        <ele>881</ele>
        <time>2018-04-28T07:44:12Z</time>
      </trkpt>
      <trkpt lat="44.98343" lon="3.64827">
        <ele>879</ele>
        <time>2018-04-28T07:44:20Z</time>
      </trkpt>
      <trkpt lat="44.98339" lon="3.64833">
        <ele>877</ele>
        <time>2018-04-28T07:44:38Z</time>
      </trkpt>
      <trkpt lat="44.98333" lon="3.64835">
        <ele>875</ele>
        <time>2018-04-28T07:44:50Z</time>
      </trkpt>
      <trkpt lat="44.98328" lon="3.64834">
        <ele>874</ele>
        <time>2018-04-28T07:45:02Z</time>
      </trkpt>
      <trkpt lat="44.98315" lon="3.64842">
        <ele>869</ele>
        <time>2018-04-28T07:45:24Z</time>
      </trkpt>
      <trkpt lat="44.98307" lon="3.64845">
        <ele>866</ele>
        <time>2018-04-28T07:45:43Z</time>
      </trkpt>
      <trkpt lat="44.98301" lon="3.64845">
        <ele>864</ele>
        <time>2018-04-28T07:45:51Z</time>
      </trkpt>
      <trkpt lat="44.98296" lon="3.64849">
        <ele>863</ele>
        <time>2018-04-28T07:46:03Z</time>
      </trkpt>
      <trkpt lat="44.9829" lon="3.64853">
        <ele>860</ele>
        <time>2018-04-28T07:46:15Z</time>
      </trkpt>
      <trkpt lat="44.98286" lon="3.64848">
        <ele>859</ele>
        <time>2018-04-28T07:46:20Z</time>
      </trkpt>
      <trkpt lat="44.98274" lon="3.64847">
        <ele>856</ele>
        <time>2018-04-28T07:46:45Z</time>
      </trkpt>
      <trkpt lat="44.9827" lon="3.64851">
        <ele>855</ele>
        <time>2018-04-28T07:47:05Z</time>
      </trkpt>
      <trkpt lat="44.98261" lon="3.64851">
        <ele>850</ele>
        <time>2018-04-28T07:47:34Z</time>
      </trkpt>
      <trkpt lat="44.9825" lon="3.64857">
        <ele>848</ele>
        <time>2018-04-28T07:47:44Z</time>
      </trkpt>
      <trkpt lat="44.98245" lon="3.64858">
        <ele>847</ele>
        <time>2018-04-28T07:47:48Z</time>
      </trkpt>
      <trkpt lat="44.98232" lon="3.64854">
        <ele>845</ele>
        <time>2018-04-28T07:48:01Z</time>
      </trkpt>
      <trkpt lat="44.98223" lon="3.64851">
        <ele>844</ele>
        <time>2018-04-28T07:48:10Z</time>
      </trkpt>
      <trkpt lat="44.98201" lon="3.64851">
        <ele>841</ele>
        <time>2018-04-28T07:48:37Z</time>
      </trkpt>
      <trkpt lat="44.98181" lon="3.64843">
        <ele>838</ele>
        <time>2018-04-28T07:48:59Z</time>
      </trkpt>
      <trkpt lat="44.98177" lon="3.64839">
        <ele>838</ele>
        <time>2018-04-28T07:49:03Z</time>
      </trkpt>
      <trkpt lat="44.98173" lon="3.64833">
        <ele>839</ele>
        <time>2018-04-28T07:49:12Z</time>
      </trkpt>
      <trkpt lat="44.98164" lon="3.64829">
        <ele>840</ele>
        <time>2018-04-28T07:49:35Z</time>
      </trkpt>
      <trkpt lat="44.9816" lon="3.64831">
        <ele>839</ele>
        <time>2018-04-28T07:49:39Z</time>
      </trkpt>
      <trkpt lat="44.98154" lon="3.6483">
        <ele>836</ele>
        <time>2018-04-28T07:49:48Z</time>
      </trkpt>
      <trkpt lat="44.98142" lon="3.64819">
        <ele>833</ele>
        <time>2018-04-28T07:50:02Z</time>
      </trkpt>
      <trkpt lat="44.98134" lon="3.64814">
        <ele>831</ele>
        <time>2018-04-28T07:50:10Z</time>
      </trkpt>
      <trkpt lat="44.98129" lon="3.64809">
        <ele>831</ele>
        <time>2018-04-28T07:50:15Z</time>
      </trkpt>
      <trkpt lat="44.98119" lon="3.64809">
        <ele>828</ele>
        <time>2018-04-28T07:50:36Z</time>
      </trkpt>
      <trkpt lat="44.98115" lon="3.64806">
        <ele>827</ele>
        <time>2018-04-28T07:50:41Z</time>
      </trkpt>
      <trkpt lat="44.98115" lon="3.64798">
        <ele>827</ele>
        <time>2018-04-28T07:50:45Z</time>
      </trkpt>
      <trkpt lat="44.98114" lon="3.64791">
        <ele>827</ele>
        <time>2018-04-28T07:50:50Z</time>
      </trkpt>
      <trkpt lat="44.98111" lon="3.64786">
        <ele>828</ele>
        <time>2018-04-28T07:50:55Z</time>
      </trkpt>
      <trkpt lat="44.98105" lon="3.64782">
        <ele>828</ele>
        <time>2018-04-28T07:51:02Z</time>
      </trkpt>
      <trkpt lat="44.98101" lon="3.64775">
        <ele>827</ele>
        <time>2018-04-28T07:51:09Z</time>
      </trkpt>
      <trkpt lat="44.98098" lon="3.6477">
        <ele>827</ele>
        <time>2018-04-28T07:51:13Z</time>
      </trkpt>
      <trkpt lat="44.98086" lon="3.64771">
        <ele>826</ele>
        <time>2018-04-28T07:51:26Z</time>
      </trkpt>
      <trkpt lat="44.98082" lon="3.6477">
        <ele>826</ele>
        <time>2018-04-28T07:51:54Z</time>
      </trkpt>
      <trkpt lat="44.98077" lon="3.64772">
        <ele>824</ele>
        <time>2018-04-28T07:52:12Z</time>
      </trkpt>
      <trkpt lat="44.98071" lon="3.64771">
        <ele>823</ele>
        <time>2018-04-28T07:52:24Z</time>
      </trkpt>
      <trkpt lat="44.9807" lon="3.64777">
        <ele>822</ele>
        <time>2018-04-28T07:52:36Z</time>
      </trkpt>
      <trkpt lat="44.98064" lon="3.64781">
        <ele>820</ele>
        <time>2018-04-28T07:53:00Z</time>
      </trkpt>
      <trkpt lat="44.98056" lon="3.64787">
        <ele>818</ele>
        <time>2018-04-28T07:53:11Z</time>
      </trkpt>
      <trkpt lat="44.98053" lon="3.64793">
        <ele>818</ele>
        <time>2018-04-28T07:53:20Z</time>
      </trkpt>
      <trkpt lat="44.98052" lon="3.64801">
        <ele>816</ele>
        <time>2018-04-28T07:54:01Z</time>
      </trkpt>
      <trkpt lat="44.98048" lon="3.64807">
        <ele>815</ele>
        <time>2018-04-28T07:54:07Z</time>
      </trkpt>
      <trkpt lat="44.9804" lon="3.64814">
        <ele>813</ele>
        <time>2018-04-28T07:54:17Z</time>
      </trkpt>
      <trkpt lat="44.98035" lon="3.6482">
        <ele>811</ele>
        <time>2018-04-28T07:54:31Z</time>
      </trkpt>
      <trkpt lat="44.98028" lon="3.64827">
        <ele>809</ele>
        <time>2018-04-28T07:54:46Z</time>
      </trkpt>
      <trkpt lat="44.98012" lon="3.6485">
        <ele>803</ele>
        <time>2018-04-28T07:55:19Z</time>
      </trkpt>
      <trkpt lat="44.98008" lon="3.64854">
        <ele>802</ele>
        <time>2018-04-28T07:55:25Z</time>
      </trkpt>
      <trkpt lat="44.97998" lon="3.64855">
        <ele>801</ele>
        <time>2018-04-28T07:55:34Z</time>
      </trkpt>
      <trkpt lat="44.97992" lon="3.64858">
        <ele>801</ele>
        <time>2018-04-28T07:55:39Z</time>
      </trkpt>
      <trkpt lat="44.9798" lon="3.64866">
        <ele>800</ele>
        <time>2018-04-28T07:55:52Z</time>
      </trkpt>
      <trkpt lat="44.97972" lon="3.64873">
        <ele>798</ele>
        <time>2018-04-28T07:56:01Z</time>
      </trkpt>
      <trkpt lat="44.97964" lon="3.6487">
        <ele>796</ele>
        <time>2018-04-28T07:56:11Z</time>
      </trkpt>
      <trkpt lat="44.9796" lon="3.64871">
        <ele>796</ele>
        <time>2018-04-28T07:56:16Z</time>
      </trkpt>
      <trkpt lat="44.9795" lon="3.6488">
        <ele>793</ele>
        <time>2018-04-28T07:56:36Z</time>
      </trkpt>
      <trkpt lat="44.97941" lon="3.64883">
        <ele>791</ele>
        <time>2018-04-28T07:56:52Z</time>
      </trkpt>
      <trkpt lat="44.97936" lon="3.64885">
        <ele>791</ele>
        <time>2018-04-28T07:56:56Z</time>
      </trkpt>
      <trkpt lat="44.97932" lon="3.64883">
        <ele>791</ele>
        <time>2018-04-28T07:57:01Z</time>
      </trkpt>
      <trkpt lat="44.97926" lon="3.64881">
        <ele>792</ele>
        <time>2018-04-28T07:57:15Z</time>
      </trkpt>
      <trkpt lat="44.97922" lon="3.64885">
        <ele>791</ele>
        <time>2018-04-28T07:57:27Z</time>
      </trkpt>
      <trkpt lat="44.97917" lon="3.64885">
        <ele>789</ele>
        <time>2018-04-28T07:57:45Z</time>
      </trkpt>
      <trkpt lat="44.97913" lon="3.64888">
        <ele>789</ele>
        <time>2018-04-28T07:58:20Z</time>
      </trkpt>
      <trkpt lat="44.979" lon="3.64901">
        <ele>784</ele>
        <time>2018-04-28T07:58:52Z</time>
      </trkpt>
      <trkpt lat="44.97892" lon="3.64899">
        <ele>781</ele>
        <time>2018-04-28T07:59:03Z</time>
      </trkpt>
      <trkpt lat="44.97881" lon="3.649">
        <ele>779</ele>
        <time>2018-04-28T07:59:15Z</time>
      </trkpt>
      <trkpt lat="44.97877" lon="3.64902">
        <ele>778</ele>
        <time>2018-04-28T07:59:29Z</time>
      </trkpt>
      <trkpt lat="44.97864" lon="3.64901">
        <ele>775</ele>
        <time>2018-04-28T07:59:45Z</time>
      </trkpt>
      <trkpt lat="44.97858" lon="3.64898">
        <ele>774</ele>
        <time>2018-04-28T07:59:53Z</time>
      </trkpt>
      <trkpt lat="44.97849" lon="3.64893">
        <ele>772</ele>
        <time>2018-04-28T08:00:29Z</time>
      </trkpt>
      <trkpt lat="44.97849" lon="3.64899">
        <ele>768</ele>
        <time>2018-04-28T08:00:53Z</time>
      </trkpt>
      <trkpt lat="44.97853" lon="3.64901">
        <ele>769</ele>
        <time>2018-04-28T08:00:58Z</time>
      </trkpt>
      <trkpt lat="44.97875" lon="3.64929">
        <ele>768</ele>
        <time>2018-04-28T08:01:25Z</time>
      </trkpt>
      <trkpt lat="44.97878" lon="3.64936">
        <ele>767</ele>
        <time>2018-04-28T08:01:30Z</time>
      </trkpt>
      <trkpt lat="44.9788" lon="3.64948">
        <ele>767</ele>
        <time>2018-04-28T08:01:52Z</time>
      </trkpt>
      <trkpt lat="44.97877" lon="3.64968">
        <ele>767</ele>
        <time>2018-04-28T08:02:10Z</time>
      </trkpt>
      <trkpt lat="44.97875" lon="3.64973">
        <ele>767</ele>
        <time>2018-04-28T08:02:14Z</time>
      </trkpt>
      <trkpt lat="44.97868" lon="3.6498">
        <ele>767</ele>
        <time>2018-04-28T08:03:06Z</time>
      </trkpt>
      <trkpt lat="44.97849" lon="3.64986">
        <ele>764</ele>
        <time>2018-04-28T08:03:21Z</time>
      </trkpt>
      <trkpt lat="44.97839" lon="3.64983">
        <ele>764</ele>
        <time>2018-04-28T08:03:30Z</time>
      </trkpt>
      <trkpt lat="44.97818" lon="3.64965">
        <ele>762</ele>
        <time>2018-04-28T08:03:51Z</time>
      </trkpt>
      <trkpt lat="44.97799" lon="3.64958">
        <ele>760</ele>
        <time>2018-04-28T08:04:07Z</time>
      </trkpt>
      <trkpt lat="44.97768" lon="3.64929">
        <ele>760</ele>
        <time>2018-04-28T08:04:42Z</time>
      </trkpt>
      <trkpt lat="44.97754" lon="3.64918">
        <ele>759</ele>
        <time>2018-04-28T08:04:55Z</time>
      </trkpt>
      <trkpt lat="44.97749" lon="3.64915">
        <ele>759</ele>
        <time>2018-04-28T08:04:59Z</time>
      </trkpt>
      <trkpt lat="44.97714" lon="3.64916">
        <ele>758</ele>
        <time>2018-04-28T08:05:29Z</time>
      </trkpt>
      <trkpt lat="44.97676" lon="3.64929">
        <ele>758</ele>
        <time>2018-04-28T08:06:03Z</time>
      </trkpt>
      <trkpt lat="44.97661" lon="3.64934">
        <ele>758</ele>
        <time>2018-04-28T08:06:16Z</time>
      </trkpt>
      <trkpt lat="44.97644" lon="3.6494">
        <ele>757</ele>
        <time>2018-04-28T08:06:58Z</time>
      </trkpt>
      <trkpt lat="44.97637" lon="3.64941">
        <ele>757</ele>
        <time>2018-04-28T08:07:06Z</time>
      </trkpt>
      <trkpt lat="44.97633" lon="3.64943">
        <ele>757</ele>
        <time>2018-04-28T08:07:42Z</time>
      </trkpt>
      <trkpt lat="44.97628" lon="3.64945">
        <ele>757</ele>
        <time>2018-04-28T08:07:46Z</time>
      </trkpt>
      <trkpt lat="44.97608" lon="3.64951">
        <ele>756</ele>
        <time>2018-04-28T08:08:02Z</time>
      </trkpt>
      <trkpt lat="44.97584" lon="3.64947">
        <ele>755</ele>
        <time>2018-04-28T08:08:23Z</time>
      </trkpt>
      <trkpt lat="44.97549" lon="3.64926">
        <ele>752</ele>
        <time>2018-04-28T08:08:55Z</time>
      </trkpt>
      <trkpt lat="44.97538" lon="3.64925">
        <ele>751</ele>
        <time>2018-04-28T08:09:32Z</time>
      </trkpt>
      <trkpt lat="44.9753" lon="3.64926">
        <ele>750</ele>
        <time>2018-04-28T08:09:42Z</time>
      </trkpt>
      <trkpt lat="44.97496" lon="3.64928">
        <ele>750</ele>
        <time>2018-04-28T08:10:12Z</time>
      </trkpt>
      <trkpt lat="44.97465" lon="3.64926">
        <ele>749</ele>
        <time>2018-04-28T08:10:40Z</time>
      </trkpt>
      <trkpt lat="44.9744" lon="3.64928">
        <ele>749</ele>
        <time>2018-04-28T08:11:02Z</time>
      </trkpt>
      <trkpt lat="44.97435" lon="3.64927">
        <ele>749</ele>
        <time>2018-04-28T08:11:06Z</time>
      </trkpt>
      <trkpt lat="44.9741" lon="3.64918">
        <ele>749</ele>
        <time>2018-04-28T08:11:29Z</time>
      </trkpt>
      <trkpt lat="44.97395" lon="3.6491">
        <ele>749</ele>
        <time>2018-04-28T08:11:43Z</time>
      </trkpt>
      <trkpt lat="44.97385" lon="3.64907">
        <ele>749</ele>
        <time>2018-04-28T08:11:52Z</time>
      </trkpt>
      <trkpt lat="44.9737" lon="3.64907">
        <ele>749</ele>
        <time>2018-04-28T08:12:04Z</time>
      </trkpt>
      <trkpt lat="44.97346" lon="3.64913">
        <ele>748</ele>
        <time>2018-04-28T08:12:24Z</time>
      </trkpt>
      <trkpt lat="44.97319" lon="3.64928">
        <ele>748</ele>
        <time>2018-04-28T08:12:50Z</time>
      </trkpt>
      <trkpt lat="44.97314" lon="3.64931">
        <ele>747</ele>
        <time>2018-04-28T08:12:55Z</time>
      </trkpt>
      <trkpt lat="44.97281" lon="3.64946">
        <ele>746</ele>
        <time>2018-04-28T08:13:26Z</time>
      </trkpt>
      <trkpt lat="44.97262" lon="3.64953">
        <ele>745</ele>
        <time>2018-04-28T08:13:44Z</time>
      </trkpt>
      <trkpt lat="44.97257" lon="3.64948">
        <ele>744</ele>
        <time>2018-04-28T08:13:49Z</time>
      </trkpt>
      <trkpt lat="44.97255" lon="3.64942">
        <ele>744</ele>
        <time>2018-04-28T08:13:53Z</time>
      </trkpt>
      <trkpt lat="44.97247" lon="3.64933">
        <ele>744</ele>
        <time>2018-04-28T08:14:02Z</time>
      </trkpt>
      <trkpt lat="44.97237" lon="3.6493">
        <ele>743</ele>
        <time>2018-04-28T08:14:11Z</time>
      </trkpt>
      <trkpt lat="44.97227" lon="3.6493">
        <ele>742</ele>
        <time>2018-04-28T08:14:20Z</time>
      </trkpt>
      <trkpt lat="44.97218" lon="3.64932">
        <ele>741</ele>
        <time>2018-04-28T08:14:29Z</time>
      </trkpt>
      <trkpt lat="44.9721" lon="3.64938">
        <ele>741</ele>
        <time>2018-04-28T08:14:37Z</time>
      </trkpt>
      <trkpt lat="44.97203" lon="3.64948">
        <ele>740</ele>
        <time>2018-04-28T08:14:45Z</time>
      </trkpt>
      <trkpt lat="44.97198" lon="3.6496">
        <ele>739</ele>
        <time>2018-04-28T08:14:53Z</time>
      </trkpt>
      <trkpt lat="44.97196" lon="3.64974">
        <ele>738</ele>
        <time>2018-04-28T08:15:03Z</time>
      </trkpt>
      <trkpt lat="44.97194" lon="3.64997">
        <ele>736</ele>
        <time>2018-04-28T08:15:20Z</time>
      </trkpt>
      <trkpt lat="44.97193" lon="3.65008">
        <ele>737</ele>
        <time>2018-04-28T08:15:48Z</time>
      </trkpt>
      <trkpt lat="44.97189" lon="3.65052">
        <ele>734</ele>
        <time>2018-04-28T08:16:12Z</time>
      </trkpt>
      <trkpt lat="44.97188" lon="3.6508">
        <ele>732</ele>
        <time>2018-04-28T08:16:28Z</time>
      </trkpt>
      <trkpt lat="44.9718" lon="3.6513">
        <ele>728</ele>
        <time>2018-04-28T08:16:59Z</time>
      </trkpt>
      <trkpt lat="44.97178" lon="3.65164">
        <ele>726</ele>
        <time>2018-04-28T08:17:19Z</time>
      </trkpt>
      <trkpt lat="44.97178" lon="3.65172">
        <ele>725</ele>
        <time>2018-04-28T08:17:24Z</time>
      </trkpt>
      <trkpt lat="44.97172" lon="3.65228">
        <ele>722</ele>
        <time>2018-04-28T08:17:59Z</time>
      </trkpt>
      <trkpt lat="44.9717" lon="3.65262">
        <ele>720</ele>
        <time>2018-04-28T08:18:20Z</time>
      </trkpt>
      <trkpt lat="44.97168" lon="3.65269">
        <ele>719</ele>
        <time>2018-04-28T08:18:25Z</time>
      </trkpt>
      <trkpt lat="44.97162" lon="3.6529">
        <ele>718</ele>
        <time>2018-04-28T08:18:40Z</time>
      </trkpt>
      <trkpt lat="44.97153" lon="3.65344">
        <ele>714</ele>
        <time>2018-04-28T08:19:14Z</time>
      </trkpt>
      <trkpt lat="44.97143" lon="3.65389">
        <ele>711</ele>
        <time>2018-04-28T08:19:45Z</time>
      </trkpt>
      <trkpt lat="44.97137" lon="3.65421">
        <ele>709</ele>
        <time>2018-04-28T08:20:05Z</time>
      </trkpt>
      <trkpt lat="44.97134" lon="3.65427">
        <ele>709</ele>
        <time>2018-04-28T08:20:09Z</time>
      </trkpt>
      <trkpt lat="44.97122" lon="3.65474">
        <ele>706</ele>
        <time>2018-04-28T08:20:40Z</time>
      </trkpt>
      <trkpt lat="44.97108" lon="3.65518">
        <ele>703</ele>
        <time>2018-04-28T08:21:17Z</time>
      </trkpt>
      <trkpt lat="44.97104" lon="3.65539">
        <ele>702</ele>
        <time>2018-04-28T08:21:31Z</time>
      </trkpt>
      <trkpt lat="44.9709" lon="3.65586">
        <ele>699</ele>
        <time>2018-04-28T08:22:03Z</time>
      </trkpt>
      <trkpt lat="44.97077" lon="3.65632">
        <ele>695</ele>
        <time>2018-04-28T08:22:34Z</time>
      </trkpt>
      <trkpt lat="44.97075" lon="3.65639">
        <ele>695</ele>
        <time>2018-04-28T08:22:39Z</time>
      </trkpt>
      <trkpt lat="44.97071" lon="3.65642">
        <ele>694</ele>
        <time>2018-04-28T08:22:44Z</time>
      </trkpt>
      <trkpt lat="44.97069" lon="3.65635">
        <ele>694</ele>
        <time>2018-04-28T08:22:48Z</time>
      </trkpt>
      <trkpt lat="44.97073" lon="3.65579">
        <ele>690</ele>
        <time>2018-04-28T08:23:22Z</time>
      </trkpt>
      <trkpt lat="44.97074" lon="3.6557">
        <ele>690</ele>
        <time>2018-04-28T08:23:39Z</time>
      </trkpt>
      <trkpt lat="44.97074" lon="3.65514">
        <ele>686</ele>
        <time>2018-04-28T08:24:13Z</time>
      </trkpt>
      <trkpt lat="44.97074" lon="3.65501">
        <ele>686</ele>
        <time>2018-04-28T08:24:21Z</time>
      </trkpt>
      <trkpt lat="44.97073" lon="3.65486">
        <ele>685</ele>
        <time>2018-04-28T08:24:30Z</time>
      </trkpt>
      <trkpt lat="44.97074" lon="3.65437">
        <ele>682</ele>
        <time>2018-04-28T08:25:01Z</time>
      </trkpt>
      <trkpt lat="44.97074" lon="3.65389">
        <ele>679</ele>
        <time>2018-04-28T08:25:32Z</time>
      </trkpt>
      <trkpt lat="44.97073" lon="3.65367">
        <ele>678</ele>
        <time>2018-04-28T08:25:46Z</time>
      </trkpt>
      <trkpt lat="44.97069" lon="3.65361">
        <ele>677</ele>
        <time>2018-04-28T08:25:51Z</time>
      </trkpt>
      <trkpt lat="44.97069" lon="3.65354">
        <ele>677</ele>
        <time>2018-04-28T08:25:56Z</time>
      </trkpt>
      <trkpt lat="44.97068" lon="3.65313">
        <ele>674</ele>
        <time>2018-04-28T08:26:30Z</time>
      </trkpt>
      <trkpt lat="44.97064" lon="3.65259">
        <ele>672</ele>
        <time>2018-04-28T08:27:02Z</time>
      </trkpt>
      <trkpt lat="44.97062" lon="3.65203">
        <ele>668</ele>
        <time>2018-04-28T08:27:34Z</time>
      </trkpt>
      <trkpt lat="44.97059" lon="3.65147">
        <ele>665</ele>
        <time>2018-04-28T08:28:07Z</time>
      </trkpt>
      <trkpt lat="44.97058" lon="3.65127">
        <ele>664</ele>
        <time>2018-04-28T08:28:19Z</time>
      </trkpt>
      <trkpt lat="44.97059" lon="3.6512">
        <ele>663</ele>
        <time>2018-04-28T08:28:23Z</time>
      </trkpt>
      <trkpt lat="44.97058" lon="3.65113">
        <ele>663</ele>
        <time>2018-04-28T08:28:28Z</time>
      </trkpt>
      <trkpt lat="44.97059" lon="3.65091">
        <ele>662</ele>
        <time>2018-04-28T08:28:43Z</time>
      </trkpt>
      <trkpt lat="44.97055" lon="3.65042">
        <ele>659</ele>
        <time>2018-04-28T08:29:13Z</time>
      </trkpt>
      <trkpt lat="44.97056" lon="3.65035">
        <ele>659</ele>
        <time>2018-04-28T08:29:18Z</time>
      </trkpt>
      <trkpt lat="44.97057" lon="3.65029">
        <ele>658</ele>
        <time>2018-04-28T08:29:23Z</time>
      </trkpt>
      <trkpt lat="44.97055" lon="3.64984">
        <ele>655</ele>
        <time>2018-04-28T08:29:53Z</time>
      </trkpt>
      <trkpt lat="44.97052" lon="3.64971">
        <ele>654</ele>
        <time>2018-04-28T08:30:03Z</time>
      </trkpt>
      <trkpt lat="44.97052" lon="3.64964">
        <ele>653</ele>
        <time>2018-04-28T08:30:08Z</time>
      </trkpt>
      <trkpt lat="44.97049" lon="3.64951">
        <ele>652</ele>
        <time>2018-04-28T08:30:17Z</time>
      </trkpt>
      <trkpt lat="44.97041" lon="3.64931">
        <ele>651</ele>
        <time>2018-04-28T08:30:29Z</time>
      </trkpt>
      <trkpt lat="44.97028" lon="3.64878">
        <ele>648</ele>
        <time>2018-04-28T08:31:04Z</time>
      </trkpt>
      <trkpt lat="44.97015" lon="3.64854">
        <ele>645</ele>
        <time>2018-04-28T08:31:24Z</time>
      </trkpt>
      <trkpt lat="44.97004" lon="3.64841">
        <ele>644</ele>
        <time>2018-04-28T08:31:38Z</time>
      </trkpt>
      <trkpt lat="44.96999" lon="3.64836">
        <ele>644</ele>
        <time>2018-04-28T08:31:51Z</time>
      </trkpt>
      <trkpt lat="44.96995" lon="3.64831">
        <ele>643</ele>
        <time>2018-04-28T08:31:55Z</time>
      </trkpt>
      <trkpt lat="44.96993" lon="3.64825">
        <ele>642</ele>
        <time>2018-04-28T08:32:00Z</time>
      </trkpt>
      <trkpt lat="44.96964" lon="3.64789">
        <ele>638</ele>
        <time>2018-04-28T08:32:33Z</time>
      </trkpt>
      <trkpt lat="44.96948" lon="3.64771">
        <ele>636</ele>
        <time>2018-04-28T08:32:52Z</time>
      </trkpt>
      <trkpt lat="44.96937" lon="3.64766">
        <ele>635</ele>
        <time>2018-04-28T08:33:01Z</time>
      </trkpt>
      <trkpt lat="44.96927" lon="3.64764">
        <ele>634</ele>
        <time>2018-04-28T08:33:10Z</time>
      </trkpt>
      <trkpt lat="44.96907" lon="3.64771">
        <ele>632</ele>
        <time>2018-04-28T08:33:38Z</time>
      </trkpt>
      <trkpt lat="44.96902" lon="3.6477">
        <ele>631</ele>
        <time>2018-04-28T08:33:43Z</time>
      </trkpt>
      <trkpt lat="44.96898" lon="3.64775">
        <ele>630</ele>
        <time>2018-04-28T08:33:47Z</time>
      </trkpt>
      <trkpt lat="44.96864" lon="3.64788">
        <ele>626</ele>
        <time>2018-04-28T08:34:19Z</time>
      </trkpt>
      <trkpt lat="44.96842" lon="3.64797">
        <ele>623</ele>
        <time>2018-04-28T08:34:40Z</time>
      </trkpt>
      <trkpt lat="44.96832" lon="3.64797">
        <ele>621</ele>
        <time>2018-04-28T08:34:50Z</time>
      </trkpt>
      <trkpt lat="44.96823" lon="3.64794">
        <ele>620</ele>
        <time>2018-04-28T08:34:59Z</time>
      </trkpt>
      <trkpt lat="44.96819" lon="3.64789">
        <ele>620</ele>
        <time>2018-04-28T08:35:04Z</time>
      </trkpt>
      <trkpt lat="44.96817" lon="3.64782">
        <ele>619</ele>
        <time>2018-04-28T08:35:08Z</time>
      </trkpt>
      <trkpt lat="44.9682" lon="3.64759">
        <ele>618</ele>
        <time>2018-04-28T08:35:21Z</time>
      </trkpt>
      <trkpt lat="44.96823" lon="3.64754">
        <ele>617</ele>
        <time>2018-04-28T08:35:26Z</time>
      </trkpt>
      <trkpt lat="44.9683" lon="3.64744">
        <ele>616</ele>
        <time>2018-04-28T08:35:50Z</time>
      </trkpt>
      <trkpt lat="44.96832" lon="3.64738">
        <ele>616</ele>
        <time>2018-04-28T08:36:07Z</time>
      </trkpt>
      <trkpt lat="44.96851" lon="3.64695">
        <ele>614</ele>
        <time>2018-04-28T08:36:38Z</time>
      </trkpt>
      <trkpt lat="44.96853" lon="3.64682">
        <ele>613</ele>
        <time>2018-04-28T08:36:47Z</time>
      </trkpt>
      <trkpt lat="44.96861" lon="3.64674">
        <ele>613</ele>
        <time>2018-04-28T08:36:57Z</time>
      </trkpt>
      <trkpt lat="44.96863" lon="3.64668">
        <ele>612</ele>
        <time>2018-04-28T08:37:02Z</time>
      </trkpt>
      <trkpt lat="44.96881" lon="3.64643">
        <ele>611</ele>
        <time>2018-04-28T08:37:25Z</time>
      </trkpt>
      <trkpt lat="44.96886" lon="3.6464">
        <ele>610</ele>
        <time>2018-04-28T08:37:30Z</time>
      </trkpt>
      <trkpt lat="44.96888" lon="3.64633">
        <ele>610</ele>
        <time>2018-04-28T08:37:35Z</time>
      </trkpt>
      <trkpt lat="44.96888" lon="3.64627">
        <ele>610</ele>
        <time>2018-04-28T08:37:39Z</time>
      </trkpt>
      <trkpt lat="44.96889" lon="3.64621">
        <ele>609</ele>
        <time>2018-04-28T08:37:49Z</time>
      </trkpt>
      <trkpt lat="44.96899" lon="3.64599">
        <ele>608</ele>
        <time>2018-04-28T08:38:09Z</time>
      </trkpt>
      <trkpt lat="44.96909" lon="3.64595">
        <ele>608</ele>
        <time>2018-04-28T08:38:17Z</time>
      </trkpt>
      <trkpt lat="44.96922" lon="3.64585">
        <ele>607</ele>
        <time>2018-04-28T08:38:48Z</time>
      </trkpt>
      <trkpt lat="44.96918" lon="3.64572">
        <ele>607</ele>
        <time>2018-04-28T08:38:54Z</time>
      </trkpt>
      <trkpt lat="44.96924" lon="3.64561">
        <ele>607</ele>
        <time>2018-04-28T08:39:02Z</time>
      </trkpt>
      <trkpt lat="44.96925" lon="3.64554">
        <ele>607</ele>
        <time>2018-04-28T08:39:17Z</time>
      </trkpt>
      <trkpt lat="44.9692" lon="3.64549">
        <ele>606</ele>
        <time>2018-04-28T08:39:23Z</time>
      </trkpt>
      <trkpt lat="44.96903" lon="3.64533">
        <ele>606</ele>
        <time>2018-04-28T08:39:41Z</time>
      </trkpt>
      <trkpt lat="44.96873" lon="3.64503">
        <ele>605</ele>
        <time>2018-04-28T08:40:15Z</time>
      </trkpt>
      <trkpt lat="44.96862" lon="3.64487">
        <ele>605</ele>
        <time>2018-04-28T08:40:27Z</time>
      </trkpt>
      <trkpt lat="44.9686" lon="3.64479">
        <ele>605</ele>
        <time>2018-04-28T08:40:32Z</time>
      </trkpt>
      <trkpt lat="44.96862" lon="3.64465">
        <ele>605</ele>
        <time>2018-04-28T08:40:42Z</time>
      </trkpt>
      <trkpt lat="44.9686" lon="3.64458">
        <ele>605</ele>
        <time>2018-04-28T08:40:50Z</time>
      </trkpt>
      <trkpt lat="44.96863" lon="3.64449">
        <ele>605</ele>
        <time>2018-04-28T08:41:14Z</time>
      </trkpt>
      <trkpt lat="44.96863" lon="3.64442">
        <ele>605</ele>
        <time>2018-04-28T08:41:30Z</time>
      </trkpt>
      <trkpt lat="44.9687" lon="3.64425">
        <ele>605</ele>
        <time>2018-04-28T08:41:46Z</time>
      </trkpt>
      <trkpt lat="44.9687" lon="3.6441">
        <ele>605</ele>
        <time>2018-04-28T08:42:02Z</time>
      </trkpt>
      <trkpt lat="44.96861" lon="3.64403">
        <ele>606</ele>
        <time>2018-04-28T08:42:26Z</time>
      </trkpt>
      <trkpt lat="44.96859" lon="3.64387">
        <ele>607</ele>
        <time>2018-04-28T08:42:44Z</time>
      </trkpt>
      <trkpt lat="44.96856" lon="3.64382">
        <ele>608</ele>
        <time>2018-04-28T08:42:50Z</time>
      </trkpt>
      <trkpt lat="44.96851" lon="3.64382">
        <ele>608</ele>
        <time>2018-04-28T08:43:08Z</time>
      </trkpt>
      <trkpt lat="44.9685" lon="3.64375">
        <ele>608</ele>
        <time>2018-04-28T08:43:44Z</time>
      </trkpt>
      <trkpt lat="44.96849" lon="3.64379">
        <ele>607</ele>
        <time>2018-04-28T08:46:32Z</time>
      </trkpt>
      <trkpt lat="44.96841" lon="3.64367">
        <ele>606</ele>
        <time>2018-04-28T08:49:33Z</time>
      </trkpt>
      <trkpt lat="44.96843" lon="3.64355">
        <ele>607</ele>
        <time>2018-04-28T08:49:57Z</time>
      </trkpt>
      <trkpt lat="44.96841" lon="3.64344">
        <ele>607</ele>
        <time>2018-04-28T08:51:52Z</time>
      </trkpt>
      <trkpt lat="44.96839" lon="3.64332">
        <ele>608</ele>
        <time>2018-04-28T08:52:02Z</time>
      </trkpt>
      <trkpt lat="44.9684" lon="3.64326">
        <ele>608</ele>
        <time>2018-04-28T08:52:14Z</time>
      </trkpt>
      <trkpt lat="44.96843" lon="3.64316">
        <ele>608</ele>
        <time>2018-04-28T08:52:56Z</time>
      </trkpt>
      <trkpt lat="44.96847" lon="3.64312">
        <ele>608</ele>
        <time>2018-04-28T08:53:00Z</time>
      </trkpt>
      <trkpt lat="44.96849" lon="3.64306">
        <ele>607</ele>
        <time>2018-04-28T08:53:05Z</time>
      </trkpt>
      <trkpt lat="44.96844" lon="3.64298">
        <ele>608</ele>
        <time>2018-04-28T08:53:12Z</time>
      </trkpt>
      <trkpt lat="44.9685" lon="3.64295">
        <ele>609</ele>
        <time>2018-04-28T08:53:19Z</time>
      </trkpt>
      <trkpt lat="44.96862" lon="3.6428">
        <ele>611</ele>
        <time>2018-04-28T08:53:34Z</time>
      </trkpt>
      <trkpt lat="44.96861" lon="3.64274">
        <ele>611</ele>
        <time>2018-04-28T08:53:39Z</time>
      </trkpt>
      <trkpt lat="44.96858" lon="3.64269">
        <ele>612</ele>
        <time>2018-04-28T08:53:53Z</time>
      </trkpt>
      <trkpt lat="44.96845" lon="3.64257">
        <ele>615</ele>
        <time>2018-04-28T08:54:13Z</time>
      </trkpt>
      <trkpt lat="44.96842" lon="3.64243">
        <ele>618</ele>
        <time>2018-04-28T08:54:31Z</time>
      </trkpt>
      <trkpt lat="44.96847" lon="3.64237">
        <ele>619</ele>
        <time>2018-04-28T08:54:43Z</time>
      </trkpt>
      <trkpt lat="44.96847" lon="3.64229">
        <ele>619</ele>
        <time>2018-04-28T08:54:55Z</time>
      </trkpt>
      <trkpt lat="44.9684" lon="3.64232">
        <ele>619</ele>
        <time>2018-04-28T08:55:31Z</time>
      </trkpt>
      <trkpt lat="44.96838" lon="3.64233">
        <ele>620</ele>
        <time>2018-04-28T08:56:43Z</time>
      </trkpt>
      <trkpt lat="44.96843" lon="3.64233">
        <ele>620</ele>
        <time>2018-04-28T08:59:33Z</time>
      </trkpt>
      <trkpt lat="44.96844" lon="3.64243">
        <ele>615</ele>
        <time>2018-04-28T09:11:54Z</time>
      </trkpt>
      <trkpt lat="44.9685" lon="3.64245">
        <ele>615</ele>
        <time>2018-04-28T09:12:01Z</time>
      </trkpt>
      <trkpt lat="44.96855" lon="3.64248">
        <ele>615</ele>
        <time>2018-04-28T09:12:06Z</time>
      </trkpt>
      <trkpt lat="44.96853" lon="3.64247">
        <ele>614</ele>
        <time>2018-04-28T09:13:26Z</time>
      </trkpt>
      <trkpt lat="44.96847" lon="3.64241">
        <ele>614</ele>
        <time>2018-04-28T09:13:36Z</time>
      </trkpt>
      <trkpt lat="44.96847" lon="3.64235">
        <ele>614</ele>
        <time>2018-04-28T09:14:15Z</time>
      </trkpt>
      <trkpt lat="44.96842" lon="3.64245">
        <ele>612</ele>
        <time>2018-04-28T09:15:33Z</time>
      </trkpt>
      <trkpt lat="44.96847" lon="3.64249">
        <ele>611</ele>
        <time>2018-04-28T09:15:38Z</time>
      </trkpt>
      <trkpt lat="44.96858" lon="3.64264">
        <ele>608</ele>
        <time>2018-04-28T09:16:18Z</time>
      </trkpt>
      <trkpt lat="44.96865" lon="3.64264">
        <ele>606</ele>
        <time>2018-04-28T09:16:30Z</time>
      </trkpt>
      <trkpt lat="44.96869" lon="3.64267">
        <ele>605</ele>
        <time>2018-04-28T09:16:36Z</time>
      </trkpt>
      <trkpt lat="44.96873" lon="3.64275">
        <ele>604</ele>
        <time>2018-04-28T09:16:44Z</time>
      </trkpt>
      <trkpt lat="44.96873" lon="3.64286">
        <ele>602</ele>
        <time>2018-04-28T09:16:56Z</time>
      </trkpt>
      <trkpt lat="44.96878" lon="3.64295">
        <ele>599</ele>
        <time>2018-04-28T09:17:07Z</time>
      </trkpt>
      <trkpt lat="44.96884" lon="3.64297">
        <ele>598</ele>
        <time>2018-04-28T09:17:15Z</time>
      </trkpt>
      <trkpt lat="44.96894" lon="3.64293">
        <ele>597</ele>
        <time>2018-04-28T09:17:25Z</time>
      </trkpt>
      <trkpt lat="44.96899" lon="3.64294">
        <ele>595</ele>
        <time>2018-04-28T09:17:34Z</time>
      </trkpt>
      <trkpt lat="44.96899" lon="3.64287">
        <ele>595</ele>
        <time>2018-04-28T09:17:46Z</time>
      </trkpt>
      <trkpt lat="44.96895" lon="3.64273">
        <ele>595</ele>
        <time>2018-04-28T09:17:57Z</time>
      </trkpt>
      <trkpt lat="44.96894" lon="3.64254">
        <ele>594</ele>
        <time>2018-04-28T09:18:10Z</time>
      </trkpt>
      <trkpt lat="44.96896" lon="3.64241">
        <ele>594</ele>
        <time>2018-04-28T09:18:19Z</time>
      </trkpt>
      <trkpt lat="44.96891" lon="3.64213">
        <ele>594</ele>
        <time>2018-04-28T09:18:42Z</time>
      </trkpt>
      <trkpt lat="44.96887" lon="3.642">
        <ele>593</ele>
        <time>2018-04-28T09:18:52Z</time>
      </trkpt>
      <trkpt lat="44.96887" lon="3.64185">
        <ele>592</ele>
        <time>2018-04-28T09:19:02Z</time>
      </trkpt>
      <trkpt lat="44.96888" lon="3.64178">
        <ele>592</ele>
        <time>2018-04-28T09:19:07Z</time>
      </trkpt>
      <trkpt lat="44.96887" lon="3.64171">
        <ele>591</ele>
        <time>2018-04-28T09:19:12Z</time>
      </trkpt>
      <trkpt lat="44.96889" lon="3.64164">
        <ele>591</ele>
        <time>2018-04-28T09:19:17Z</time>
      </trkpt>
      <trkpt lat="44.9689" lon="3.64158">
        <ele>590</ele>
        <time>2018-04-28T09:19:22Z</time>
      </trkpt>
      <trkpt lat="44.96894" lon="3.64154">
        <ele>590</ele>
        <time>2018-04-28T09:19:27Z</time>
      </trkpt>
      <trkpt lat="44.969" lon="3.64151">
        <ele>590</ele>
        <time>2018-04-28T09:19:35Z</time>
      </trkpt>
      <trkpt lat="44.96915" lon="3.64152">
        <ele>590</ele>
        <time>2018-04-28T09:19:50Z</time>
      </trkpt>
      <trkpt lat="44.96925" lon="3.64149">
        <ele>591</ele>
        <time>2018-04-28T09:20:00Z</time>
      </trkpt>
      <trkpt lat="44.96932" lon="3.64146">
        <ele>592</ele>
        <time>2018-04-28T09:20:08Z</time>
      </trkpt>
      <trkpt lat="44.96938" lon="3.64146">
        <ele>593</ele>
        <time>2018-04-28T09:20:15Z</time>
      </trkpt>
      <trkpt lat="44.96944" lon="3.64142">
        <ele>594</ele>
        <time>2018-04-28T09:20:23Z</time>
      </trkpt>
      <trkpt lat="44.96968" lon="3.64133">
        <ele>598</ele>
        <time>2018-04-28T09:20:53Z</time>
      </trkpt>
      <trkpt lat="44.96984" lon="3.64128">
        <ele>601</ele>
        <time>2018-04-28T09:21:11Z</time>
      </trkpt>
      <trkpt lat="44.97004" lon="3.64108">
        <ele>604</ele>
        <time>2018-04-28T09:21:43Z</time>
      </trkpt>
      <trkpt lat="44.97007" lon="3.64103">
        <ele>605</ele>
        <time>2018-04-28T09:21:51Z</time>
      </trkpt>
      <trkpt lat="44.97018" lon="3.64091">
        <ele>606</ele>
        <time>2018-04-28T09:22:13Z</time>
      </trkpt>
      <trkpt lat="44.97023" lon="3.64086">
        <ele>608</ele>
        <time>2018-04-28T09:22:34Z</time>
      </trkpt>
      <trkpt lat="44.97026" lon="3.64081">
        <ele>608</ele>
        <time>2018-04-28T09:22:39Z</time>
      </trkpt>
      <trkpt lat="44.97029" lon="3.64075">
        <ele>608</ele>
        <time>2018-04-28T09:22:44Z</time>
      </trkpt>
      <trkpt lat="44.97055" lon="3.6405">
        <ele>612</ele>
        <time>2018-04-28T09:23:17Z</time>
      </trkpt>
      <trkpt lat="44.97073" lon="3.64038">
        <ele>615</ele>
        <time>2018-04-28T09:23:45Z</time>
      </trkpt>
      <trkpt lat="44.97084" lon="3.64034">
        <ele>617</ele>
        <time>2018-04-28T09:24:21Z</time>
      </trkpt>
      <trkpt lat="44.97089" lon="3.64032">
        <ele>617</ele>
        <time>2018-04-28T09:24:27Z</time>
      </trkpt>
      <trkpt lat="44.97108" lon="3.64012">
        <ele>622</ele>
        <time>2018-04-28T09:25:03Z</time>
      </trkpt>
      <trkpt lat="44.97113" lon="3.64004">
        <ele>623</ele>
        <time>2018-04-28T09:25:15Z</time>
      </trkpt>
      <trkpt lat="44.9713" lon="3.63993">
        <ele>627</ele>
        <time>2018-04-28T09:25:46Z</time>
      </trkpt>
      <trkpt lat="44.97136" lon="3.63989">
        <ele>629</ele>
        <time>2018-04-28T09:25:58Z</time>
      </trkpt>
      <trkpt lat="44.9714" lon="3.63979">
        <ele>631</ele>
        <time>2018-04-28T09:26:10Z</time>
      </trkpt>
      <trkpt lat="44.97145" lon="3.63973">
        <ele>633</ele>
        <time>2018-04-28T09:26:28Z</time>
      </trkpt>
      <trkpt lat="44.97149" lon="3.63967">
        <ele>635</ele>
        <time>2018-04-28T09:26:40Z</time>
      </trkpt>
      <trkpt lat="44.9715" lon="3.63957">
        <ele>637</ele>
        <time>2018-04-28T09:26:52Z</time>
      </trkpt>
      <trkpt lat="44.97155" lon="3.63956">
        <ele>639</ele>
        <time>2018-04-28T09:27:04Z</time>
      </trkpt>
      <trkpt lat="44.97159" lon="3.6396">
        <ele>641</ele>
        <time>2018-04-28T09:27:16Z</time>
      </trkpt>
      <trkpt lat="44.97168" lon="3.63961">
        <ele>641</ele>
        <time>2018-04-28T09:27:37Z</time>
      </trkpt>
      <trkpt lat="44.97175" lon="3.6397">
        <ele>640</ele>
        <time>2018-04-28T09:27:45Z</time>
      </trkpt>
      <trkpt lat="44.97182" lon="3.63971">
        <ele>640</ele>
        <time>2018-04-28T09:28:06Z</time>
      </trkpt>
      <trkpt lat="44.97186" lon="3.63968">
        <ele>640</ele>
        <time>2018-04-28T09:28:12Z</time>
      </trkpt>
      <trkpt lat="44.97193" lon="3.63966">
        <ele>640</ele>
        <time>2018-04-28T09:28:25Z</time>
      </trkpt>
      <trkpt lat="44.97203" lon="3.63964">
        <ele>643</ele>
        <time>2018-04-28T09:28:45Z</time>
      </trkpt>
      <trkpt lat="44.97208" lon="3.63967">
        <ele>643</ele>
        <time>2018-04-28T09:28:51Z</time>
      </trkpt>
      <trkpt lat="44.97217" lon="3.63964">
        <ele>644</ele>
        <time>2018-04-28T09:29:05Z</time>
      </trkpt>
      <trkpt lat="44.97222" lon="3.63969">
        <ele>644</ele>
        <time>2018-04-28T09:29:10Z</time>
      </trkpt>
      <trkpt lat="44.97226" lon="3.6397">
        <ele>644</ele>
        <time>2018-04-28T09:29:14Z</time>
      </trkpt>
      <trkpt lat="44.9723" lon="3.63975">
        <ele>644</ele>
        <time>2018-04-28T09:29:18Z</time>
      </trkpt>
      <trkpt lat="44.97233" lon="3.63981">
        <ele>644</ele>
        <time>2018-04-28T09:29:23Z</time>
      </trkpt>
      <trkpt lat="44.97239" lon="3.63985">
        <ele>645</ele>
        <time>2018-04-28T09:29:37Z</time>
      </trkpt>
      <trkpt lat="44.97245" lon="3.63988">
        <ele>646</ele>
        <time>2018-04-28T09:29:49Z</time>
      </trkpt>
      <trkpt lat="44.97251" lon="3.63997">
        <ele>649</ele>
        <time>2018-04-28T09:30:01Z</time>
      </trkpt>
      <trkpt lat="44.97259" lon="3.64004">
        <ele>649</ele>
        <time>2018-04-28T09:30:12Z</time>
      </trkpt>
      <trkpt lat="44.97265" lon="3.64004">
        <ele>648</ele>
        <time>2018-04-28T09:30:22Z</time>
      </trkpt>
      <trkpt lat="44.97286" lon="3.64026">
        <ele>646</ele>
        <time>2018-04-28T09:30:55Z</time>
      </trkpt>
      <trkpt lat="44.97295" lon="3.64031">
        <ele>648</ele>
        <time>2018-04-28T09:31:13Z</time>
      </trkpt>
      <trkpt lat="44.973" lon="3.64032">
        <ele>649</ele>
        <time>2018-04-28T09:31:37Z</time>
      </trkpt>
      <trkpt lat="44.97305" lon="3.64035">
        <ele>648</ele>
        <time>2018-04-28T09:31:44Z</time>
      </trkpt>
      <trkpt lat="44.97309" lon="3.6404">
        <ele>647</ele>
        <time>2018-04-28T09:31:49Z</time>
      </trkpt>
      <trkpt lat="44.97315" lon="3.64053">
        <ele>645</ele>
        <time>2018-04-28T09:32:01Z</time>
      </trkpt>
      <trkpt lat="44.97319" lon="3.64057">
        <ele>644</ele>
        <time>2018-04-28T09:32:06Z</time>
      </trkpt>
      <trkpt lat="44.97324" lon="3.64057">
        <ele>643</ele>
        <time>2018-04-28T09:32:14Z</time>
      </trkpt>
      <trkpt lat="44.97324" lon="3.64043">
        <ele>644</ele>
        <time>2018-04-28T09:33:20Z</time>
      </trkpt>
      <trkpt lat="44.97323" lon="3.64036">
        <ele>645</ele>
        <time>2018-04-28T09:33:25Z</time>
      </trkpt>
      <trkpt lat="44.97309" lon="3.64003">
        <ele>650</ele>
        <time>2018-04-28T09:34:00Z</time>
      </trkpt>
      <trkpt lat="44.97296" lon="3.63982">
        <ele>654</ele>
        <time>2018-04-28T09:34:35Z</time>
      </trkpt>
      <trkpt lat="44.97285" lon="3.63968">
        <ele>657</ele>
        <time>2018-04-28T09:34:56Z</time>
      </trkpt>
      <trkpt lat="44.97278" lon="3.63957">
        <ele>659</ele>
        <time>2018-04-28T09:35:09Z</time>
      </trkpt>
      <trkpt lat="44.97251" lon="3.63937">
        <ele>662</ele>
        <time>2018-04-28T09:35:43Z</time>
      </trkpt>
      <trkpt lat="44.97244" lon="3.63932">
        <ele>663</ele>
        <time>2018-04-28T09:36:14Z</time>
      </trkpt>
      <trkpt lat="44.9724" lon="3.63928">
        <ele>663</ele>
        <time>2018-04-28T09:36:18Z</time>
      </trkpt>
      <trkpt lat="44.97221" lon="3.63915">
        <ele>666</ele>
        <time>2018-04-28T09:36:45Z</time>
      </trkpt>
      <trkpt lat="44.97219" lon="3.63909">
        <ele>667</ele>
        <time>2018-04-28T09:37:03Z</time>
      </trkpt>
      <trkpt lat="44.97243" lon="3.63904">
        <ele>670</ele>
        <time>2018-04-28T09:37:27Z</time>
      </trkpt>
      <trkpt lat="44.97275" lon="3.63908">
        <ele>673</ele>
        <time>2018-04-28T09:37:56Z</time>
      </trkpt>
      <trkpt lat="44.97293" lon="3.63917">
        <ele>677</ele>
        <time>2018-04-28T09:38:24Z</time>
      </trkpt>
      <trkpt lat="44.97298" lon="3.63921">
        <ele>678</ele>
        <time>2018-04-28T09:38:46Z</time>
      </trkpt>
      <trkpt lat="44.97312" lon="3.63931">
        <ele>679</ele>
        <time>2018-04-28T09:39:02Z</time>
      </trkpt>
      <trkpt lat="44.97317" lon="3.63941">
        <ele>682</ele>
        <time>2018-04-28T09:39:13Z</time>
      </trkpt>
      <trkpt lat="44.97317" lon="3.63948">
        <ele>683</ele>
        <time>2018-04-28T09:39:18Z</time>
      </trkpt>
      <trkpt lat="44.97319" lon="3.63956">
        <ele>684</ele>
        <time>2018-04-28T09:39:32Z</time>
      </trkpt>
      <trkpt lat="44.97323" lon="3.6396">
        <ele>684</ele>
        <time>2018-04-28T09:39:44Z</time>
      </trkpt>
      <trkpt lat="44.97329" lon="3.63961">
        <ele>684</ele>
        <time>2018-04-28T09:39:56Z</time>
      </trkpt>
      <trkpt lat="44.97334" lon="3.63962">
        <ele>685</ele>
        <time>2018-04-28T09:40:08Z</time>
      </trkpt>
      <trkpt lat="44.9733" lon="3.63939">
        <ele>688</ele>
        <time>2018-04-28T09:40:50Z</time>
      </trkpt>
      <trkpt lat="44.97328" lon="3.63919">
        <ele>693</ele>
        <time>2018-04-28T09:41:20Z</time>
      </trkpt>
      <trkpt lat="44.97328" lon="3.63912">
        <ele>694</ele>
        <time>2018-04-28T09:41:32Z</time>
      </trkpt>
      <trkpt lat="44.97327" lon="3.63904">
        <ele>694</ele>
        <time>2018-04-28T09:41:44Z</time>
      </trkpt>
      <trkpt lat="44.97322" lon="3.63898">
        <ele>696</ele>
        <time>2018-04-28T09:41:54Z</time>
      </trkpt>
      <trkpt lat="44.9732" lon="3.63892">
        <ele>697</ele>
        <time>2018-04-28T09:42:04Z</time>
      </trkpt>
      <trkpt lat="44.97317" lon="3.63887">
        <ele>699</ele>
        <time>2018-04-28T09:42:14Z</time>
      </trkpt>
      <trkpt lat="44.97315" lon="3.63877">
        <ele>700</ele>
        <time>2018-04-28T09:42:35Z</time>
      </trkpt>
      <trkpt lat="44.97304" lon="3.63868">
        <ele>700</ele>
        <time>2018-04-28T09:45:08Z</time>
      </trkpt>
      <trkpt lat="44.97293" lon="3.63857">
        <ele>706</ele>
        <time>2018-04-28T09:45:38Z</time>
      </trkpt>
      <trkpt lat="44.9729" lon="3.63851">
        <ele>709</ele>
        <time>2018-04-28T09:45:56Z</time>
      </trkpt>
      <trkpt lat="44.97285" lon="3.63846">
        <ele>711</ele>
        <time>2018-04-28T09:46:14Z</time>
      </trkpt>
      <trkpt lat="44.97278" lon="3.63827">
        <ele>717</ele>
        <time>2018-04-28T09:46:56Z</time>
      </trkpt>
      <trkpt lat="44.97267" lon="3.63817">
        <ele>721</ele>
        <time>2018-04-28T09:47:38Z</time>
      </trkpt>
      <trkpt lat="44.97265" lon="3.63811">
        <ele>722</ele>
        <time>2018-04-28T09:47:50Z</time>
      </trkpt>
      <trkpt lat="44.97258" lon="3.63807">
        <ele>725</ele>
        <time>2018-04-28T09:48:26Z</time>
      </trkpt>
      <trkpt lat="44.97239" lon="3.63788">
        <ele>729</ele>
        <time>2018-04-28T09:49:01Z</time>
      </trkpt>
      <trkpt lat="44.97227" lon="3.6378">
        <ele>732</ele>
        <time>2018-04-28T09:49:21Z</time>
      </trkpt>
      <trkpt lat="44.97219" lon="3.63779">
        <ele>733</ele>
        <time>2018-04-28T09:49:31Z</time>
      </trkpt>
      <trkpt lat="44.97215" lon="3.63782">
        <ele>733</ele>
        <time>2018-04-28T09:49:41Z</time>
      </trkpt>
      <trkpt lat="44.97207" lon="3.63784">
        <ele>734</ele>
        <time>2018-04-28T09:49:52Z</time>
      </trkpt>
      <trkpt lat="44.972" lon="3.63779">
        <ele>735</ele>
        <time>2018-04-28T09:50:04Z</time>
      </trkpt>
      <trkpt lat="44.97199" lon="3.6377">
        <ele>737</ele>
        <time>2018-04-28T09:50:12Z</time>
      </trkpt>
      <trkpt lat="44.97203" lon="3.63766">
        <ele>739</ele>
        <time>2018-04-28T09:50:20Z</time>
      </trkpt>
      <trkpt lat="44.97204" lon="3.6376">
        <ele>739</ele>
        <time>2018-04-28T09:50:26Z</time>
      </trkpt>
      <trkpt lat="44.97206" lon="3.63754">
        <ele>739</ele>
        <time>2018-04-28T09:50:32Z</time>
      </trkpt>
      <trkpt lat="44.97212" lon="3.63751">
        <ele>738</ele>
        <time>2018-04-28T09:50:41Z</time>
      </trkpt>
      <trkpt lat="44.97224" lon="3.63755">
        <ele>739</ele>
        <time>2018-04-28T09:50:54Z</time>
      </trkpt>
      <trkpt lat="44.9723" lon="3.63754">
        <ele>740</ele>
        <time>2018-04-28T09:51:04Z</time>
      </trkpt>
      <trkpt lat="44.9724" lon="3.63755">
        <ele>741</ele>
        <time>2018-04-28T09:51:15Z</time>
      </trkpt>
      <trkpt lat="44.97249" lon="3.63744">
        <ele>742</ele>
        <time>2018-04-28T09:51:27Z</time>
      </trkpt>
      <trkpt lat="44.97252" lon="3.63738">
        <ele>742</ele>
        <time>2018-04-28T09:51:32Z</time>
      </trkpt>
      <trkpt lat="44.97267" lon="3.637">
        <ele>745</ele>
        <time>2018-04-28T09:52:04Z</time>
      </trkpt>
      <trkpt lat="44.97269" lon="3.63694">
        <ele>745</ele>
        <time>2018-04-28T09:52:09Z</time>
      </trkpt>
      <trkpt lat="44.97273" lon="3.63686">
        <ele>746</ele>
        <time>2018-04-28T09:52:16Z</time>
      </trkpt>
      <trkpt lat="44.97278" lon="3.63675">
        <ele>746</ele>
        <time>2018-04-28T09:52:24Z</time>
      </trkpt>
      <trkpt lat="44.97284" lon="3.63656">
        <ele>748</ele>
        <time>2018-04-28T09:52:36Z</time>
      </trkpt>
      <trkpt lat="44.97286" lon="3.63649">
        <ele>748</ele>
        <time>2018-04-28T09:52:41Z</time>
      </trkpt>
      <trkpt lat="44.97287" lon="3.63642">
        <ele>748</ele>
        <time>2018-04-28T09:52:45Z</time>
      </trkpt>
      <trkpt lat="44.97289" lon="3.63635">
        <ele>748</ele>
        <time>2018-04-28T09:52:50Z</time>
      </trkpt>
      <trkpt lat="44.97293" lon="3.63629">
        <ele>749</ele>
        <time>2018-04-28T09:53:11Z</time>
      </trkpt>
      <trkpt lat="44.97302" lon="3.63599">
        <ele>750</ele>
        <time>2018-04-28T09:53:55Z</time>
      </trkpt>
      <trkpt lat="44.97303" lon="3.63592">
        <ele>751</ele>
        <time>2018-04-28T09:54:01Z</time>
      </trkpt>
      <trkpt lat="44.97308" lon="3.6358">
        <ele>752</ele>
        <time>2018-04-28T09:54:12Z</time>
      </trkpt>
      <trkpt lat="44.97312" lon="3.63559">
        <ele>752</ele>
        <time>2018-04-28T09:54:29Z</time>
      </trkpt>
      <trkpt lat="44.97314" lon="3.63551">
        <ele>753</ele>
        <time>2018-04-28T09:54:37Z</time>
      </trkpt>
      <trkpt lat="44.97313" lon="3.63544">
        <ele>754</ele>
        <time>2018-04-28T09:54:49Z</time>
      </trkpt>
      <trkpt lat="44.97313" lon="3.63535">
        <ele>754</ele>
        <time>2018-04-28T09:54:57Z</time>
      </trkpt>
      <trkpt lat="44.97315" lon="3.63528">
        <ele>755</ele>
        <time>2018-04-28T09:55:05Z</time>
      </trkpt>
      <trkpt lat="44.97324" lon="3.63493">
        <ele>757</ele>
        <time>2018-04-28T09:55:39Z</time>
      </trkpt>
      <trkpt lat="44.97325" lon="3.6348">
        <ele>758</ele>
        <time>2018-04-28T09:55:49Z</time>
      </trkpt>
      <trkpt lat="44.97325" lon="3.63462">
        <ele>760</ele>
        <time>2018-04-28T09:56:12Z</time>
      </trkpt>
      <trkpt lat="44.97326" lon="3.63446">
        <ele>762</ele>
        <time>2018-04-28T09:56:32Z</time>
      </trkpt>
      <trkpt lat="44.97327" lon="3.63439">
        <ele>763</ele>
        <time>2018-04-28T09:56:42Z</time>
      </trkpt>
      <trkpt lat="44.97334" lon="3.63409">
        <ele>766</ele>
        <time>2018-04-28T09:57:22Z</time>
      </trkpt>
      <trkpt lat="44.97336" lon="3.63402">
        <ele>767</ele>
        <time>2018-04-28T09:57:28Z</time>
      </trkpt>
      <trkpt lat="44.97338" lon="3.63397">
        <ele>768</ele>
        <time>2018-04-28T09:57:34Z</time>
      </trkpt>
      <trkpt lat="44.9734" lon="3.63381">
        <ele>770</ele>
        <time>2018-04-28T09:57:46Z</time>
      </trkpt>
      <trkpt lat="44.97337" lon="3.63368">
        <ele>771</ele>
        <time>2018-04-28T09:57:56Z</time>
      </trkpt>
      <trkpt lat="44.97337" lon="3.63352">
        <ele>773</ele>
        <time>2018-04-28T09:58:10Z</time>
      </trkpt>
      <trkpt lat="44.97341" lon="3.63346">
        <ele>774</ele>
        <time>2018-04-28T09:58:18Z</time>
      </trkpt>
      <trkpt lat="44.97347" lon="3.63346">
        <ele>775</ele>
        <time>2018-04-28T09:59:12Z</time>
      </trkpt>
      <trkpt lat="44.9736" lon="3.63354">
        <ele>777</ele>
        <time>2018-04-28T09:59:28Z</time>
      </trkpt>
      <trkpt lat="44.9737" lon="3.63356">
        <ele>778</ele>
        <time>2018-04-28T09:59:37Z</time>
      </trkpt>
      <trkpt lat="44.97391" lon="3.63342">
        <ele>781</ele>
        <time>2018-04-28T10:00:06Z</time>
      </trkpt>
      <trkpt lat="44.97417" lon="3.63317">
        <ele>784</ele>
        <time>2018-04-28T10:00:39Z</time>
      </trkpt>
      <trkpt lat="44.97426" lon="3.63309">
        <ele>785</ele>
        <time>2018-04-28T10:00:49Z</time>
      </trkpt>
      <trkpt lat="44.97431" lon="3.63303">
        <ele>785</ele>
        <time>2018-04-28T10:00:56Z</time>
      </trkpt>
      <trkpt lat="44.97435" lon="3.63297">
        <ele>786</ele>
        <time>2018-04-28T10:01:01Z</time>
      </trkpt>
      <trkpt lat="44.97441" lon="3.63285">
        <ele>785</ele>
        <time>2018-04-28T10:01:10Z</time>
      </trkpt>
      <trkpt lat="44.97446" lon="3.63265">
        <ele>786</ele>
        <time>2018-04-28T10:01:23Z</time>
      </trkpt>
      <trkpt lat="44.97447" lon="3.63249">
        <ele>788</ele>
        <time>2018-04-28T10:01:35Z</time>
      </trkpt>
      <trkpt lat="44.97451" lon="3.63234">
        <ele>790</ele>
        <time>2018-04-28T10:01:47Z</time>
      </trkpt>
      <trkpt lat="44.97451" lon="3.63228">
        <ele>791</ele>
        <time>2018-04-28T10:01:58Z</time>
      </trkpt>
      <trkpt lat="44.97454" lon="3.63218">
        <ele>791</ele>
        <time>2018-04-28T10:02:19Z</time>
      </trkpt>
      <trkpt lat="44.97457" lon="3.63207">
        <ele>792</ele>
        <time>2018-04-28T10:02:29Z</time>
      </trkpt>
      <trkpt lat="44.97459" lon="3.63202">
        <ele>793</ele>
        <time>2018-04-28T10:02:38Z</time>
      </trkpt>
      <trkpt lat="44.97461" lon="3.63179">
        <ele>795</ele>
        <time>2018-04-28T10:02:56Z</time>
      </trkpt>
      <trkpt lat="44.9746" lon="3.63172">
        <ele>796</ele>
        <time>2018-04-28T10:03:09Z</time>
      </trkpt>
      <trkpt lat="44.97465" lon="3.63156">
        <ele>798</ele>
        <time>2018-04-28T10:03:27Z</time>
      </trkpt>
      <trkpt lat="44.97468" lon="3.63146">
        <ele>799</ele>
        <time>2018-04-28T10:03:38Z</time>
      </trkpt>
      <trkpt lat="44.97468" lon="3.63134">
        <ele>800</ele>
        <time>2018-04-28T10:03:55Z</time>
      </trkpt>
      <trkpt lat="44.97476" lon="3.63109">
        <ele>802</ele>
        <time>2018-04-28T10:04:19Z</time>
      </trkpt>
      <trkpt lat="44.97476" lon="3.63093">
        <ele>803</ele>
        <time>2018-04-28T10:04:34Z</time>
      </trkpt>
      <trkpt lat="44.97474" lon="3.63087">
        <ele>804</ele>
        <time>2018-04-28T10:05:16Z</time>
      </trkpt>
      <trkpt lat="44.97469" lon="3.63097">
        <ele>805</ele>
        <time>2018-04-28T10:05:28Z</time>
      </trkpt>
      <trkpt lat="44.9747" lon="3.63103">
        <ele>805</ele>
        <time>2018-04-28T10:05:33Z</time>
      </trkpt>
      <trkpt lat="44.97471" lon="3.63111">
        <ele>806</ele>
        <time>2018-04-28T10:05:38Z</time>
      </trkpt>
      <trkpt lat="44.97471" lon="3.63118">
        <ele>806</ele>
        <time>2018-04-28T10:05:43Z</time>
      </trkpt>
      <trkpt lat="44.97464" lon="3.63136">
        <ele>807</ele>
        <time>2018-04-28T10:05:57Z</time>
      </trkpt>
      <trkpt lat="44.97453" lon="3.63151">
        <ele>809</ele>
        <time>2018-04-28T10:06:13Z</time>
      </trkpt>
      <trkpt lat="44.97449" lon="3.63154">
        <ele>810</ele>
        <time>2018-04-28T10:06:21Z</time>
      </trkpt>
      <trkpt lat="44.97445" lon="3.63159">
        <ele>811</ele>
        <time>2018-04-28T10:06:27Z</time>
      </trkpt>
      <trkpt lat="44.97426" lon="3.63171">
        <ele>813</ele>
        <time>2018-04-28T10:06:47Z</time>
      </trkpt>
      <trkpt lat="44.97416" lon="3.6317">
        <ele>814</ele>
        <time>2018-04-28T10:07:00Z</time>
      </trkpt>
      <trkpt lat="44.9741" lon="3.6317">
        <ele>814</ele>
        <time>2018-04-28T10:07:05Z</time>
      </trkpt>
      <trkpt lat="44.97406" lon="3.63163">
        <ele>815</ele>
        <time>2018-04-28T10:07:15Z</time>
      </trkpt>
      <trkpt lat="44.97408" lon="3.63156">
        <ele>815</ele>
        <time>2018-04-28T10:07:21Z</time>
      </trkpt>
      <trkpt lat="44.97416" lon="3.63143">
        <ele>818</ele>
        <time>2018-04-28T10:07:41Z</time>
      </trkpt>
      <trkpt lat="44.9742" lon="3.63133">
        <ele>818</ele>
        <time>2018-04-28T10:07:59Z</time>
      </trkpt>
      <trkpt lat="44.97424" lon="3.63113">
        <ele>818</ele>
        <time>2018-04-28T10:08:14Z</time>
      </trkpt>
      <trkpt lat="44.97423" lon="3.63102">
        <ele>820</ele>
        <time>2018-04-28T10:08:40Z</time>
      </trkpt>
      <trkpt lat="44.97422" lon="3.63094">
        <ele>820</ele>
        <time>2018-04-28T10:08:50Z</time>
      </trkpt>
      <trkpt lat="44.97419" lon="3.63087">
        <ele>822</ele>
        <time>2018-04-28T10:09:02Z</time>
      </trkpt>
      <trkpt lat="44.97419" lon="3.63078">
        <ele>823</ele>
        <time>2018-04-28T10:09:14Z</time>
      </trkpt>
      <trkpt lat="44.97421" lon="3.63072">
        <ele>825</ele>
        <time>2018-04-28T10:09:32Z</time>
      </trkpt>
      <trkpt lat="44.9742" lon="3.63064">
        <ele>826</ele>
        <time>2018-04-28T10:09:43Z</time>
      </trkpt>
      <trkpt lat="44.97418" lon="3.63058">
        <ele>826</ele>
        <time>2018-04-28T10:09:48Z</time>
      </trkpt>
      <trkpt lat="44.97416" lon="3.63048">
        <ele>826</ele>
        <time>2018-04-28T10:09:55Z</time>
      </trkpt>
      <trkpt lat="44.97417" lon="3.63041">
        <ele>826</ele>
        <time>2018-04-28T10:10:00Z</time>
      </trkpt>
      <trkpt lat="44.97419" lon="3.63027">
        <ele>828</ele>
        <time>2018-04-28T10:10:13Z</time>
      </trkpt>
      <trkpt lat="44.97421" lon="3.63016">
        <ele>828</ele>
        <time>2018-04-28T10:10:30Z</time>
      </trkpt>
      <trkpt lat="44.97423" lon="3.63007">
        <ele>829</ele>
        <time>2018-04-28T10:10:40Z</time>
      </trkpt>
      <trkpt lat="44.97425" lon="3.63">
        <ele>830</ele>
        <time>2018-04-28T10:11:05Z</time>
      </trkpt>
      <trkpt lat="44.97429" lon="3.62981">
        <ele>831</ele>
        <time>2018-04-28T10:16:03Z</time>
      </trkpt>
      <trkpt lat="44.97433" lon="3.62959">
        <ele>834</ele>
        <time>2018-04-28T10:16:24Z</time>
      </trkpt>
      <trkpt lat="44.97431" lon="3.62947">
        <ele>835</ele>
        <time>2018-04-28T10:16:42Z</time>
      </trkpt>
      <trkpt lat="44.97426" lon="3.62956">
        <ele>837</ele>
        <time>2018-04-28T10:16:53Z</time>
      </trkpt>
      <trkpt lat="44.97422" lon="3.62971">
        <ele>838</ele>
        <time>2018-04-28T10:17:06Z</time>
      </trkpt>
      <trkpt lat="44.97419" lon="3.62977">
        <ele>838</ele>
        <time>2018-04-28T10:17:12Z</time>
      </trkpt>
      <trkpt lat="44.97415" lon="3.62981">
        <ele>838</ele>
        <time>2018-04-28T10:17:17Z</time>
      </trkpt>
      <trkpt lat="44.974" lon="3.62986">
        <ele>840</ele>
        <time>2018-04-28T10:17:32Z</time>
      </trkpt>
      <trkpt lat="44.97392" lon="3.62983">
        <ele>841</ele>
        <time>2018-04-28T10:17:43Z</time>
      </trkpt>
      <trkpt lat="44.97385" lon="3.62984">
        <ele>842</ele>
        <time>2018-04-28T10:17:50Z</time>
      </trkpt>
      <trkpt lat="44.97365" lon="3.62981">
        <ele>844</ele>
        <time>2018-04-28T10:18:09Z</time>
      </trkpt>
      <trkpt lat="44.9736" lon="3.6298">
        <ele>844</ele>
        <time>2018-04-28T10:18:14Z</time>
      </trkpt>
      <trkpt lat="44.97348" lon="3.62979">
        <ele>845</ele>
        <time>2018-04-28T10:18:27Z</time>
      </trkpt>
      <trkpt lat="44.97341" lon="3.62979">
        <ele>845</ele>
        <time>2018-04-28T10:18:37Z</time>
      </trkpt>
      <trkpt lat="44.9733" lon="3.62977">
        <ele>847</ele>
        <time>2018-04-28T10:18:49Z</time>
      </trkpt>
      <trkpt lat="44.97323" lon="3.62973">
        <ele>847</ele>
        <time>2018-04-28T10:18:57Z</time>
      </trkpt>
      <trkpt lat="44.9732" lon="3.62967">
        <ele>847</ele>
        <time>2018-04-28T10:19:02Z</time>
      </trkpt>
      <trkpt lat="44.97316" lon="3.62955">
        <ele>849</ele>
        <time>2018-04-28T10:19:11Z</time>
      </trkpt>
      <trkpt lat="44.97311" lon="3.62941">
        <ele>849</ele>
        <time>2018-04-28T10:19:23Z</time>
      </trkpt>
      <trkpt lat="44.97315" lon="3.62934">
        <ele>850</ele>
        <time>2018-04-28T10:19:31Z</time>
      </trkpt>
      <trkpt lat="44.9732" lon="3.62941">
        <ele>853</ele>
        <time>2018-04-28T10:19:44Z</time>
      </trkpt>
      <trkpt lat="44.97325" lon="3.62942">
        <ele>854</ele>
        <time>2018-04-28T10:19:50Z</time>
      </trkpt>
      <trkpt lat="44.9733" lon="3.62944">
        <ele>854</ele>
        <time>2018-04-28T10:19:55Z</time>
      </trkpt>
      <trkpt lat="44.97338" lon="3.62945">
        <ele>854</ele>
        <time>2018-04-28T10:20:07Z</time>
      </trkpt>
      <trkpt lat="44.97345" lon="3.62941">
        <ele>855</ele>
        <time>2018-04-28T10:20:33Z</time>
      </trkpt>
      <trkpt lat="44.97348" lon="3.62936">
        <ele>856</ele>
        <time>2018-04-28T10:20:39Z</time>
      </trkpt>
      <trkpt lat="44.97369" lon="3.62917">
        <ele>858</ele>
        <time>2018-04-28T10:21:09Z</time>
      </trkpt>
      <trkpt lat="44.97377" lon="3.62907">
        <ele>859</ele>
        <time>2018-04-28T10:21:18Z</time>
      </trkpt>
      <trkpt lat="44.9738" lon="3.62898">
        <ele>861</ele>
        <time>2018-04-28T10:21:29Z</time>
      </trkpt>
      <trkpt lat="44.97381" lon="3.62891">
        <ele>861</ele>
        <time>2018-04-28T10:21:47Z</time>
      </trkpt>
      <trkpt lat="44.97385" lon="3.62881">
        <ele>862</ele>
        <time>2018-04-28T10:21:59Z</time>
      </trkpt>
      <trkpt lat="44.97398" lon="3.62845">
        <ele>866</ele>
        <time>2018-04-28T10:22:42Z</time>
      </trkpt>
      <trkpt lat="44.97405" lon="3.62825">
        <ele>868</ele>
        <time>2018-04-28T10:23:05Z</time>
      </trkpt>
      <trkpt lat="44.97404" lon="3.6281">
        <ele>869</ele>
        <time>2018-04-28T10:23:29Z</time>
      </trkpt>
      <trkpt lat="44.97409" lon="3.62798">
        <ele>870</ele>
        <time>2018-04-28T10:23:39Z</time>
      </trkpt>
      <trkpt lat="44.97406" lon="3.62796">
        <ele>875</ele>
        <time>2018-04-28T10:25:10Z</time>
      </trkpt>
      <trkpt lat="44.97397" lon="3.62811">
        <ele>876</ele>
        <time>2018-04-28T10:25:26Z</time>
      </trkpt>
      <trkpt lat="44.97384" lon="3.62823">
        <ele>877</ele>
        <time>2018-04-28T10:26:01Z</time>
      </trkpt>
      <trkpt lat="44.97378" lon="3.62829">
        <ele>879</ele>
        <time>2018-04-28T10:26:10Z</time>
      </trkpt>
      <trkpt lat="44.97366" lon="3.62842">
        <ele>880</ele>
        <time>2018-04-28T10:26:23Z</time>
      </trkpt>
      <trkpt lat="44.97357" lon="3.62847">
        <ele>881</ele>
        <time>2018-04-28T10:26:33Z</time>
      </trkpt>
      <trkpt lat="44.97341" lon="3.62848">
        <ele>883</ele>
        <time>2018-04-28T10:26:48Z</time>
      </trkpt>
      <trkpt lat="44.97338" lon="3.62843">
        <ele>883</ele>
        <time>2018-04-28T10:26:53Z</time>
      </trkpt>
      <trkpt lat="44.97336" lon="3.62837">
        <ele>883</ele>
        <time>2018-04-28T10:26:58Z</time>
      </trkpt>
      <trkpt lat="44.97348" lon="3.62831">
        <ele>886</ele>
        <time>2018-04-28T10:27:19Z</time>
      </trkpt>
      <trkpt lat="44.97352" lon="3.62824">
        <ele>886</ele>
        <time>2018-04-28T10:27:26Z</time>
      </trkpt>
      <trkpt lat="44.97357" lon="3.6282">
        <ele>886</ele>
        <time>2018-04-28T10:27:34Z</time>
      </trkpt>
      <trkpt lat="44.9736" lon="3.62813">
        <ele>888</ele>
        <time>2018-04-28T10:28:04Z</time>
      </trkpt>
      <trkpt lat="44.97366" lon="3.628">
        <ele>889</ele>
        <time>2018-04-28T10:28:17Z</time>
      </trkpt>
      <trkpt lat="44.97369" lon="3.62793">
        <ele>889</ele>
        <time>2018-04-28T10:28:33Z</time>
      </trkpt>
      <trkpt lat="44.97371" lon="3.62786">
        <ele>890</ele>
        <time>2018-04-28T10:28:50Z</time>
      </trkpt>
      <trkpt lat="44.97376" lon="3.62767">
        <ele>891</ele>
        <time>2018-04-28T10:29:05Z</time>
      </trkpt>
      <trkpt lat="44.97378" lon="3.62758">
        <ele>891</ele>
        <time>2018-04-28T10:29:10Z</time>
      </trkpt>
      <trkpt lat="44.97381" lon="3.62752">
        <ele>891</ele>
        <time>2018-04-28T10:29:13Z</time>
      </trkpt>
      <trkpt lat="44.97383" lon="3.62746">
        <ele>891</ele>
        <time>2018-04-28T10:29:17Z</time>
      </trkpt>
      <trkpt lat="44.97385" lon="3.6274">
        <ele>891</ele>
        <time>2018-04-28T10:29:22Z</time>
      </trkpt>
      <trkpt lat="44.97386" lon="3.62733">
        <ele>891</ele>
        <time>2018-04-28T10:29:53Z</time>
      </trkpt>
      <trkpt lat="44.97392" lon="3.62712">
        <ele>892</ele>
        <time>2018-04-28T10:30:07Z</time>
      </trkpt>
      <trkpt lat="44.97398" lon="3.62703">
        <ele>893</ele>
        <time>2018-04-28T10:30:17Z</time>
      </trkpt>
      <trkpt lat="44.974" lon="3.62689">
        <ele>894</ele>
        <time>2018-04-28T10:30:25Z</time>
      </trkpt>
      <trkpt lat="44.97396" lon="3.62693">
        <ele>896</ele>
        <time>2018-04-28T10:30:41Z</time>
      </trkpt>
      <trkpt lat="44.97387" lon="3.62721">
        <ele>898</ele>
        <time>2018-04-28T10:31:05Z</time>
      </trkpt>
      <trkpt lat="44.97378" lon="3.62735">
        <ele>899</ele>
        <time>2018-04-28T10:31:18Z</time>
      </trkpt>
      <trkpt lat="44.97375" lon="3.6274">
        <ele>898</ele>
        <time>2018-04-28T10:31:22Z</time>
      </trkpt>
      <trkpt lat="44.97363" lon="3.62757">
        <ele>900</ele>
        <time>2018-04-28T10:31:40Z</time>
      </trkpt>
      <trkpt lat="44.97358" lon="3.62762">
        <ele>901</ele>
        <time>2018-04-28T10:31:54Z</time>
      </trkpt>
      <trkpt lat="44.97354" lon="3.62767">
        <ele>901</ele>
        <time>2018-04-28T10:31:59Z</time>
      </trkpt>
      <trkpt lat="44.9735" lon="3.6277">
        <ele>902</ele>
        <time>2018-04-28T10:32:03Z</time>
      </trkpt>
      <trkpt lat="44.9734" lon="3.62772">
        <ele>902</ele>
        <time>2018-04-28T10:32:12Z</time>
      </trkpt>
      <trkpt lat="44.97335" lon="3.62776">
        <ele>903</ele>
        <time>2018-04-28T10:32:17Z</time>
      </trkpt>
      <trkpt lat="44.9732" lon="3.62781">
        <ele>904</ele>
        <time>2018-04-28T10:32:35Z</time>
      </trkpt>
      <trkpt lat="44.97314" lon="3.62781">
        <ele>905</ele>
        <time>2018-04-28T10:32:45Z</time>
      </trkpt>
      <trkpt lat="44.97308" lon="3.62777">
        <ele>906</ele>
        <time>2018-04-28T10:33:04Z</time>
      </trkpt>
      <trkpt lat="44.97305" lon="3.62773">
        <ele>906</ele>
        <time>2018-04-28T10:33:08Z</time>
      </trkpt>
      <trkpt lat="44.973" lon="3.62768">
        <ele>906</ele>
        <time>2018-04-28T10:33:13Z</time>
      </trkpt>
      <trkpt lat="44.97295" lon="3.62758">
        <ele>906</ele>
        <time>2018-04-28T10:33:22Z</time>
      </trkpt>
      <trkpt lat="44.97294" lon="3.62751">
        <ele>906</ele>
        <time>2018-04-28T10:33:27Z</time>
      </trkpt>
      <trkpt lat="44.97293" lon="3.62742">
        <ele>907</ele>
        <time>2018-04-28T10:33:34Z</time>
      </trkpt>
      <trkpt lat="44.97291" lon="3.62734">
        <ele>909</ele>
        <time>2018-04-28T10:34:01Z</time>
      </trkpt>
      <trkpt lat="44.97285" lon="3.62686">
        <ele>913</ele>
        <time>2018-04-28T10:35:02Z</time>
      </trkpt>
      <trkpt lat="44.97281" lon="3.62672">
        <ele>913</ele>
        <time>2018-04-28T10:35:11Z</time>
      </trkpt>
      <trkpt lat="44.9728" lon="3.62659">
        <ele>914</ele>
        <time>2018-04-28T10:35:20Z</time>
      </trkpt>
      <trkpt lat="44.97274" lon="3.62647">
        <ele>914</ele>
        <time>2018-04-28T10:35:39Z</time>
      </trkpt>
      <trkpt lat="44.97269" lon="3.62642">
        <ele>915</ele>
        <time>2018-04-28T10:35:46Z</time>
      </trkpt>
      <trkpt lat="44.97259" lon="3.62632">
        <ele>916</ele>
        <time>2018-04-28T10:36:00Z</time>
      </trkpt>
      <trkpt lat="44.97256" lon="3.62626">
        <ele>917</ele>
        <time>2018-04-28T10:36:05Z</time>
      </trkpt>
      <trkpt lat="44.9726" lon="3.62621">
        <ele>917</ele>
        <time>2018-04-28T10:36:10Z</time>
      </trkpt>
      <trkpt lat="44.97271" lon="3.62623">
        <ele>919</ele>
        <time>2018-04-28T10:36:34Z</time>
      </trkpt>
      <trkpt lat="44.97279" lon="3.62627">
        <ele>920</ele>
        <time>2018-04-28T10:37:04Z</time>
      </trkpt>
      <trkpt lat="44.97285" lon="3.62632">
        <ele>921</ele>
        <time>2018-04-28T10:37:11Z</time>
      </trkpt>
      <trkpt lat="44.97289" lon="3.62635">
        <ele>922</ele>
        <time>2018-04-28T10:37:15Z</time>
      </trkpt>
      <trkpt lat="44.97293" lon="3.62639">
        <ele>922</ele>
        <time>2018-04-28T10:37:19Z</time>
      </trkpt>
      <trkpt lat="44.97314" lon="3.62652">
        <ele>924</ele>
        <time>2018-04-28T10:37:43Z</time>
      </trkpt>
      <trkpt lat="44.97321" lon="3.62645">
        <ele>924</ele>
        <time>2018-04-28T10:48:29Z</time>
      </trkpt>
      <trkpt lat="44.97319" lon="3.62671">
        <ele>925</ele>
        <time>2018-04-28T10:48:48Z</time>
      </trkpt>
      <trkpt lat="44.97318" lon="3.62656">
        <ele>924</ele>
        <time>2018-04-28T10:49:44Z</time>
      </trkpt>
      <trkpt lat="44.97319" lon="3.62656">
        <ele>925</ele>
        <time>2018-04-28T10:50:07Z</time>
      </trkpt>
      <trkpt lat="44.97318" lon="3.62665">
        <ele>925</ele>
        <time>2018-04-28T10:56:38Z</time>
      </trkpt>
      <trkpt lat="44.97315" lon="3.62661">
        <ele>927</ele>
        <time>2018-04-28T10:58:34Z</time>
      </trkpt>
      <trkpt lat="44.97315" lon="3.62654">
        <ele>927</ele>
        <time>2018-04-28T10:59:52Z</time>
      </trkpt>
      <trkpt lat="44.97318" lon="3.62645">
        <ele>929</ele>
        <time>2018-04-28T11:00:46Z</time>
      </trkpt>
      <trkpt lat="44.97322" lon="3.62639">
        <ele>930</ele>
        <time>2018-04-28T11:00:56Z</time>
      </trkpt>
      <trkpt lat="44.97326" lon="3.62614">
        <ele>932</ele>
        <time>2018-04-28T11:01:17Z</time>
      </trkpt>
      <trkpt lat="44.97335" lon="3.62572">
        <ele>936</ele>
        <time>2018-04-28T11:01:51Z</time>
      </trkpt>
      <trkpt lat="44.97335" lon="3.62564">
        <ele>936</ele>
        <time>2018-04-28T11:01:56Z</time>
      </trkpt>
      <trkpt lat="44.97337" lon="3.62551">
        <ele>937</ele>
        <time>2018-04-28T11:02:06Z</time>
      </trkpt>
      <trkpt lat="44.97345" lon="3.62526">
        <ele>940</ele>
        <time>2018-04-28T11:02:38Z</time>
      </trkpt>
      <trkpt lat="44.97346" lon="3.6252">
        <ele>940</ele>
        <time>2018-04-28T11:02:42Z</time>
      </trkpt>
      <trkpt lat="44.97354" lon="3.62507">
        <ele>941</ele>
        <time>2018-04-28T11:02:55Z</time>
      </trkpt>
      <trkpt lat="44.97357" lon="3.62496">
        <ele>942</ele>
        <time>2018-04-28T11:03:06Z</time>
      </trkpt>
      <trkpt lat="44.97359" lon="3.62489">
        <ele>942</ele>
        <time>2018-04-28T11:03:11Z</time>
      </trkpt>
      <trkpt lat="44.97363" lon="3.62484">
        <ele>943</ele>
        <time>2018-04-28T11:03:19Z</time>
      </trkpt>
      <trkpt lat="44.97365" lon="3.62478">
        <ele>943</ele>
        <time>2018-04-28T11:03:24Z</time>
      </trkpt>
      <trkpt lat="44.97373" lon="3.62444">
        <ele>948</ele>
        <time>2018-04-28T11:03:57Z</time>
      </trkpt>
      <trkpt lat="44.97373" lon="3.62438">
        <ele>948</ele>
        <time>2018-04-28T11:04:01Z</time>
      </trkpt>
      <trkpt lat="44.97378" lon="3.62435">
        <ele>949</ele>
        <time>2018-04-28T11:04:08Z</time>
      </trkpt>
      <trkpt lat="44.97384" lon="3.62438">
        <ele>949</ele>
        <time>2018-04-28T11:04:30Z</time>
      </trkpt>
      <trkpt lat="44.97387" lon="3.62425">
        <ele>950</ele>
        <time>2018-04-28T11:04:40Z</time>
      </trkpt>
      <trkpt lat="44.974" lon="3.62388">
        <ele>954</ele>
        <time>2018-04-28T11:05:10Z</time>
      </trkpt>
      <trkpt lat="44.974" lon="3.62382">
        <ele>954</ele>
        <time>2018-04-28T11:05:15Z</time>
      </trkpt>
      <trkpt lat="44.97407" lon="3.62361">
        <ele>956</ele>
        <time>2018-04-28T11:05:32Z</time>
      </trkpt>
      <trkpt lat="44.97411" lon="3.62346">
        <ele>956</ele>
        <time>2018-04-28T11:05:46Z</time>
      </trkpt>
      <trkpt lat="44.97409" lon="3.62335">
        <ele>958</ele>
        <time>2018-04-28T11:05:58Z</time>
      </trkpt>
      <trkpt lat="44.97405" lon="3.62334">
        <ele>959</ele>
        <time>2018-04-28T11:06:04Z</time>
      </trkpt>
      <trkpt lat="44.97394" lon="3.62356">
        <ele>962</ele>
        <time>2018-04-28T11:06:24Z</time>
      </trkpt>
      <trkpt lat="44.97391" lon="3.62361">
        <ele>962</ele>
        <time>2018-04-28T11:06:29Z</time>
      </trkpt>
      <trkpt lat="44.9738" lon="3.62369">
        <ele>963</ele>
        <time>2018-04-28T11:06:44Z</time>
      </trkpt>
      <trkpt lat="44.97377" lon="3.62374">
        <ele>964</ele>
        <time>2018-04-28T11:06:49Z</time>
      </trkpt>
      <trkpt lat="44.97373" lon="3.6238">
        <ele>964</ele>
        <time>2018-04-28T11:06:54Z</time>
      </trkpt>
      <trkpt lat="44.97369" lon="3.62383">
        <ele>964</ele>
        <time>2018-04-28T11:06:59Z</time>
      </trkpt>
      <trkpt lat="44.97346" lon="3.62408">
        <ele>966</ele>
        <time>2018-04-28T11:07:26Z</time>
      </trkpt>
      <trkpt lat="44.9734" lon="3.62412">
        <ele>967</ele>
        <time>2018-04-28T11:07:33Z</time>
      </trkpt>
      <trkpt lat="44.97331" lon="3.62419">
        <ele>968</ele>
        <time>2018-04-28T11:07:43Z</time>
      </trkpt>
      <trkpt lat="44.97326" lon="3.62422">
        <ele>968</ele>
        <time>2018-04-28T11:07:47Z</time>
      </trkpt>
      <trkpt lat="44.97321" lon="3.62423">
        <ele>968</ele>
        <time>2018-04-28T11:07:52Z</time>
      </trkpt>
      <trkpt lat="44.97317" lon="3.62422">
        <ele>970</ele>
        <time>2018-04-28T11:08:02Z</time>
      </trkpt>
      <trkpt lat="44.97311" lon="3.62421">
        <ele>969</ele>
        <time>2018-04-28T11:08:07Z</time>
      </trkpt>
      <trkpt lat="44.97306" lon="3.62419">
        <ele>970</ele>
        <time>2018-04-28T11:08:12Z</time>
      </trkpt>
      <trkpt lat="44.97303" lon="3.62415">
        <ele>970</ele>
        <time>2018-04-28T11:08:16Z</time>
      </trkpt>
      <trkpt lat="44.973" lon="3.62411">
        <ele>971</ele>
        <time>2018-04-28T11:08:20Z</time>
      </trkpt>
      <trkpt lat="44.97297" lon="3.62403">
        <ele>971</ele>
        <time>2018-04-28T11:08:27Z</time>
      </trkpt>
      <trkpt lat="44.97295" lon="3.62396">
        <ele>972</ele>
        <time>2018-04-28T11:08:32Z</time>
      </trkpt>
      <trkpt lat="44.97293" lon="3.62391">
        <ele>973</ele>
        <time>2018-04-28T11:08:42Z</time>
      </trkpt>
      <trkpt lat="44.97293" lon="3.62383">
        <ele>974</ele>
        <time>2018-04-28T11:09:08Z</time>
      </trkpt>
      <trkpt lat="44.973" lon="3.62343">
        <ele>976</ele>
        <time>2018-04-28T11:09:36Z</time>
      </trkpt>
      <trkpt lat="44.97303" lon="3.62333">
        <ele>978</ele>
        <time>2018-04-28T11:09:49Z</time>
      </trkpt>
      <trkpt lat="44.97311" lon="3.62324">
        <ele>978</ele>
        <time>2018-04-28T11:09:59Z</time>
      </trkpt>
      <trkpt lat="44.9732" lon="3.62314">
        <ele>979</ele>
        <time>2018-04-28T11:10:12Z</time>
      </trkpt>
      <trkpt lat="44.97324" lon="3.62308">
        <ele>980</ele>
        <time>2018-04-28T11:10:18Z</time>
      </trkpt>
      <trkpt lat="44.97327" lon="3.62298">
        <ele>981</ele>
        <time>2018-04-28T11:10:30Z</time>
      </trkpt>
      <trkpt lat="44.9733" lon="3.62291">
        <ele>981</ele>
        <time>2018-04-28T11:10:36Z</time>
      </trkpt>
      <trkpt lat="44.97333" lon="3.62283">
        <ele>982</ele>
        <time>2018-04-28T11:10:47Z</time>
      </trkpt>
      <trkpt lat="44.97337" lon="3.62249">
        <ele>984</ele>
        <time>2018-04-28T11:11:18Z</time>
      </trkpt>
      <trkpt lat="44.97337" lon="3.62239">
        <ele>985</ele>
        <time>2018-04-28T11:11:30Z</time>
      </trkpt>
      <trkpt lat="44.97337" lon="3.62233">
        <ele>986</ele>
        <time>2018-04-28T11:11:36Z</time>
      </trkpt>
      <trkpt lat="44.97338" lon="3.62227">
        <ele>987</ele>
        <time>2018-04-28T11:11:48Z</time>
      </trkpt>
      <trkpt lat="44.97338" lon="3.62219">
        <ele>987</ele>
        <time>2018-04-28T11:12:06Z</time>
      </trkpt>
      <trkpt lat="44.9734" lon="3.62208">
        <ele>988</ele>
        <time>2018-04-28T11:12:18Z</time>
      </trkpt>
      <trkpt lat="44.97343" lon="3.62173">
        <ele>992</ele>
        <time>2018-04-28T11:12:50Z</time>
      </trkpt>
      <trkpt lat="44.97346" lon="3.6216">
        <ele>994</ele>
        <time>2018-04-28T11:13:02Z</time>
      </trkpt>
      <trkpt lat="44.97348" lon="3.62153">
        <ele>994</ele>
        <time>2018-04-28T11:13:08Z</time>
      </trkpt>
      <trkpt lat="44.9735" lon="3.62141">
        <ele>996</ele>
        <time>2018-04-28T11:13:20Z</time>
      </trkpt>
      <trkpt lat="44.97353" lon="3.62127">
        <ele>996</ele>
        <time>2018-04-28T11:13:32Z</time>
      </trkpt>
      <trkpt lat="44.97355" lon="3.62121">
        <ele>997</ele>
        <time>2018-04-28T11:13:38Z</time>
      </trkpt>
      <trkpt lat="44.97359" lon="3.62104">
        <ele>999</ele>
        <time>2018-04-28T11:14:02Z</time>
      </trkpt>
      <trkpt lat="44.97359" lon="3.62095">
        <ele>999</ele>
        <time>2018-04-28T11:14:14Z</time>
      </trkpt>
      <trkpt lat="44.9736" lon="3.62082">
        <ele>1000</ele>
        <time>2018-04-28T11:14:50Z</time>
      </trkpt>
      <trkpt lat="44.97362" lon="3.62076">
        <ele>1001</ele>
        <time>2018-04-28T11:14:54Z</time>
      </trkpt>
      <trkpt lat="44.97364" lon="3.6207">
        <ele>1001</ele>
        <time>2018-04-28T11:14:59Z</time>
      </trkpt>
      <trkpt lat="44.97367" lon="3.62064">
        <ele>1001</ele>
        <time>2018-04-28T11:15:04Z</time>
      </trkpt>
      <trkpt lat="44.9738" lon="3.62028">
        <ele>1005</ele>
        <time>2018-04-28T11:15:38Z</time>
      </trkpt>
      <trkpt lat="44.97381" lon="3.62017">
        <ele>1006</ele>
        <time>2018-04-28T11:16:06Z</time>
      </trkpt>
      <trkpt lat="44.97381" lon="3.6201">
        <ele>1006</ele>
        <time>2018-04-28T11:16:11Z</time>
      </trkpt>
      <trkpt lat="44.97382" lon="3.6197">
        <ele>1011</ele>
        <time>2018-04-28T11:16:45Z</time>
      </trkpt>
      <trkpt lat="44.97384" lon="3.61958">
        <ele>1012</ele>
        <time>2018-04-28T11:16:57Z</time>
      </trkpt>
      <trkpt lat="44.97386" lon="3.6195">
        <ele>1014</ele>
        <time>2018-04-28T11:17:09Z</time>
      </trkpt>
      <trkpt lat="44.97387" lon="3.61937">
        <ele>1016</ele>
        <time>2018-04-28T11:21:57Z</time>
      </trkpt>
      <trkpt lat="44.97387" lon="3.6193">
        <ele>1016</ele>
        <time>2018-04-28T11:22:03Z</time>
      </trkpt>
      <trkpt lat="44.97387" lon="3.61924">
        <ele>1017</ele>
        <time>2018-04-28T11:22:08Z</time>
      </trkpt>
      <trkpt lat="44.97385" lon="3.61917">
        <ele>1017</ele>
        <time>2018-04-28T11:22:13Z</time>
      </trkpt>
      <trkpt lat="44.97369" lon="3.61879">
        <ele>1020</ele>
        <time>2018-04-28T11:22:47Z</time>
      </trkpt>
      <trkpt lat="44.97361" lon="3.61868">
        <ele>1021</ele>
        <time>2018-04-28T11:22:57Z</time>
      </trkpt>
      <trkpt lat="44.97359" lon="3.61862">
        <ele>1021</ele>
        <time>2018-04-28T11:23:02Z</time>
      </trkpt>
      <trkpt lat="44.97356" lon="3.61838">
        <ele>1021</ele>
        <time>2018-04-28T11:23:19Z</time>
      </trkpt>
      <trkpt lat="44.97353" lon="3.61829">
        <ele>1020</ele>
        <time>2018-04-28T11:24:28Z</time>
      </trkpt>
      <trkpt lat="44.97353" lon="3.61823">
        <ele>1020</ele>
        <time>2018-04-28T11:24:32Z</time>
      </trkpt>
      <trkpt lat="44.9735" lon="3.61809">
        <ele>1020</ele>
        <time>2018-04-28T11:24:41Z</time>
      </trkpt>
      <trkpt lat="44.97349" lon="3.61801">
        <ele>1020</ele>
        <time>2018-04-28T11:24:46Z</time>
      </trkpt>
      <trkpt lat="44.97346" lon="3.61788">
        <ele>1021</ele>
        <time>2018-04-28T11:24:55Z</time>
      </trkpt>
      <trkpt lat="44.97339" lon="3.61769">
        <ele>1022</ele>
        <time>2018-04-28T11:25:09Z</time>
      </trkpt>
      <trkpt lat="44.97333" lon="3.61757">
        <ele>1022</ele>
        <time>2018-04-28T11:25:19Z</time>
      </trkpt>
      <trkpt lat="44.97327" lon="3.61745">
        <ele>1023</ele>
        <time>2018-04-28T11:25:28Z</time>
      </trkpt>
      <trkpt lat="44.97323" lon="3.61739">
        <ele>1023</ele>
        <time>2018-04-28T11:25:33Z</time>
      </trkpt>
      <trkpt lat="44.97317" lon="3.61729">
        <ele>1023</ele>
        <time>2018-04-28T11:25:42Z</time>
      </trkpt>
      <trkpt lat="44.97313" lon="3.61724">
        <ele>1024</ele>
        <time>2018-04-28T11:25:47Z</time>
      </trkpt>
      <trkpt lat="44.97309" lon="3.61719">
        <ele>1024</ele>
        <time>2018-04-28T11:25:52Z</time>
      </trkpt>
      <trkpt lat="44.97305" lon="3.61714">
        <ele>1025</ele>
        <time>2018-04-28T11:25:57Z</time>
      </trkpt>
      <trkpt lat="44.97296" lon="3.61698">
        <ele>1025</ele>
        <time>2018-04-28T11:26:10Z</time>
      </trkpt>
      <trkpt lat="44.97291" lon="3.61693">
        <ele>1026</ele>
        <time>2018-04-28T11:26:33Z</time>
      </trkpt>
      <trkpt lat="44.9729" lon="3.61685">
        <ele>1026</ele>
        <time>2018-04-28T11:26:38Z</time>
      </trkpt>
      <trkpt lat="44.97283" lon="3.61652">
        <ele>1023</ele>
        <time>2018-04-28T11:26:59Z</time>
      </trkpt>
      <trkpt lat="44.97278" lon="3.61641">
        <ele>1023</ele>
        <time>2018-04-28T11:27:07Z</time>
      </trkpt>
      <trkpt lat="44.97259" lon="3.61618">
        <ele>1021</ele>
        <time>2018-04-28T11:27:30Z</time>
      </trkpt>
      <trkpt lat="44.97255" lon="3.61613">
        <ele>1021</ele>
        <time>2018-04-28T11:27:35Z</time>
      </trkpt>
      <trkpt lat="44.9725" lon="3.6161">
        <ele>1021</ele>
        <time>2018-04-28T11:27:40Z</time>
      </trkpt>
      <trkpt lat="44.97245" lon="3.61609">
        <ele>1021</ele>
        <time>2018-04-28T11:27:45Z</time>
      </trkpt>
      <trkpt lat="44.97234" lon="3.61611">
        <ele>1022</ele>
        <time>2018-04-28T11:27:55Z</time>
      </trkpt>
      <trkpt lat="44.97229" lon="3.61609">
        <ele>1022</ele>
        <time>2018-04-28T11:27:59Z</time>
      </trkpt>
      <trkpt lat="44.97225" lon="3.61606">
        <ele>1021</ele>
        <time>2018-04-28T11:28:03Z</time>
      </trkpt>
      <trkpt lat="44.97211" lon="3.61598">
        <ele>1021</ele>
        <time>2018-04-28T11:28:16Z</time>
      </trkpt>
      <trkpt lat="44.97206" lon="3.61595">
        <ele>1021</ele>
        <time>2018-04-28T11:28:21Z</time>
      </trkpt>
      <trkpt lat="44.97195" lon="3.61592">
        <ele>1021</ele>
        <time>2018-04-28T11:28:31Z</time>
      </trkpt>
      <trkpt lat="44.9719" lon="3.61592">
        <ele>1021</ele>
        <time>2018-04-28T11:28:36Z</time>
      </trkpt>
      <trkpt lat="44.97185" lon="3.61591">
        <ele>1020</ele>
        <time>2018-04-28T11:28:41Z</time>
      </trkpt>
      <trkpt lat="44.97175" lon="3.6159">
        <ele>1020</ele>
        <time>2018-04-28T11:28:49Z</time>
      </trkpt>
      <trkpt lat="44.97138" lon="3.61575">
        <ele>1019</ele>
        <time>2018-04-28T11:29:22Z</time>
      </trkpt>
      <trkpt lat="44.97133" lon="3.61573">
        <ele>1018</ele>
        <time>2018-04-28T11:29:26Z</time>
      </trkpt>
      <trkpt lat="44.97118" lon="3.6157">
        <ele>1018</ele>
        <time>2018-04-28T11:29:39Z</time>
      </trkpt>
      <trkpt lat="44.97103" lon="3.61566">
        <ele>1018</ele>
        <time>2018-04-28T11:29:53Z</time>
      </trkpt>
      <trkpt lat="44.97087" lon="3.61564">
        <ele>1019</ele>
        <time>2018-04-28T11:30:08Z</time>
      </trkpt>
      <trkpt lat="44.97077" lon="3.61564">
        <ele>1019</ele>
        <time>2018-04-28T11:30:18Z</time>
      </trkpt>
      <trkpt lat="44.97073" lon="3.61565">
        <ele>1019</ele>
        <time>2018-04-28T11:30:22Z</time>
      </trkpt>
      <trkpt lat="44.97068" lon="3.61568">
        <ele>1019</ele>
        <time>2018-04-28T11:30:27Z</time>
      </trkpt>
      <trkpt lat="44.97063" lon="3.61573">
        <ele>1020</ele>
        <time>2018-04-28T11:30:32Z</time>
      </trkpt>
      <trkpt lat="44.97046" lon="3.61594">
        <ele>1021</ele>
        <time>2018-04-28T11:31:06Z</time>
      </trkpt>
      <trkpt lat="44.97042" lon="3.61598">
        <ele>1022</ele>
        <time>2018-04-28T11:31:11Z</time>
      </trkpt>
      <trkpt lat="44.97027" lon="3.61604">
        <ele>1024</ele>
        <time>2018-04-28T11:31:38Z</time>
      </trkpt>
      <trkpt lat="44.97023" lon="3.61605">
        <ele>1024</ele>
        <time>2018-04-28T11:31:43Z</time>
      </trkpt>
      <trkpt lat="44.97012" lon="3.61602">
        <ele>1026</ele>
        <time>2018-04-28T11:31:53Z</time>
      </trkpt>
      <trkpt lat="44.96979" lon="3.61603">
        <ele>1029</ele>
        <time>2018-04-28T11:32:27Z</time>
      </trkpt>
      <trkpt lat="44.96943" lon="3.61607">
        <ele>1031</ele>
        <time>2018-04-28T11:33:01Z</time>
      </trkpt>
      <trkpt lat="44.96938" lon="3.61607">
        <ele>1030</ele>
        <time>2018-04-28T11:33:06Z</time>
      </trkpt>
      <trkpt lat="44.96934" lon="3.6161">
        <ele>1030</ele>
        <time>2018-04-28T11:33:15Z</time>
      </trkpt>
      <trkpt lat="44.96928" lon="3.6161">
        <ele>1029</ele>
        <time>2018-04-28T11:35:27Z</time>
      </trkpt>
      <trkpt lat="44.96918" lon="3.61607">
        <ele>1029</ele>
        <time>2018-04-28T11:35:37Z</time>
      </trkpt>
      <trkpt lat="44.96907" lon="3.61608">
        <ele>1028</ele>
        <time>2018-04-28T11:35:45Z</time>
      </trkpt>
      <trkpt lat="44.96902" lon="3.61608">
        <ele>1028</ele>
        <time>2018-04-28T11:35:49Z</time>
      </trkpt>
      <trkpt lat="44.96897" lon="3.61608">
        <ele>1028</ele>
        <time>2018-04-28T11:35:53Z</time>
      </trkpt>
      <trkpt lat="44.96858" lon="3.61606">
        <ele>1029</ele>
        <time>2018-04-28T11:36:27Z</time>
      </trkpt>
      <trkpt lat="44.96819" lon="3.61601">
        <ele>1030</ele>
        <time>2018-04-28T11:37:01Z</time>
      </trkpt>
      <trkpt lat="44.96784" lon="3.61611">
        <ele>1031</ele>
        <time>2018-04-28T11:37:34Z</time>
      </trkpt>
      <trkpt lat="44.96764" lon="3.61616">
        <ele>1031</ele>
        <time>2018-04-28T11:37:52Z</time>
      </trkpt>
      <trkpt lat="44.96759" lon="3.61617">
        <ele>1031</ele>
        <time>2018-04-28T11:37:56Z</time>
      </trkpt>
      <trkpt lat="44.9674" lon="3.61622">
        <ele>1031</ele>
        <time>2018-04-28T11:38:13Z</time>
      </trkpt>
      <trkpt lat="44.9673" lon="3.6162">
        <ele>1031</ele>
        <time>2018-04-28T11:38:22Z</time>
      </trkpt>
      <trkpt lat="44.96697" lon="3.61596">
        <ele>1034</ele>
        <time>2018-04-28T11:39:58Z</time>
      </trkpt>
      <trkpt lat="44.96682" lon="3.61589">
        <ele>1035</ele>
        <time>2018-04-28T11:40:12Z</time>
      </trkpt>
      <trkpt lat="44.96677" lon="3.61587">
        <ele>1036</ele>
        <time>2018-04-28T11:40:17Z</time>
      </trkpt>
      <trkpt lat="44.96644" lon="3.61576">
        <ele>1039</ele>
        <time>2018-04-28T11:40:48Z</time>
      </trkpt>
      <trkpt lat="44.9664" lon="3.61573">
        <ele>1039</ele>
        <time>2018-04-28T11:41:32Z</time>
      </trkpt>
      <trkpt lat="44.96614" lon="3.61567">
        <ele>1042</ele>
        <time>2018-04-28T11:41:58Z</time>
      </trkpt>
      <trkpt lat="44.9661" lon="3.61565">
        <ele>1042</ele>
        <time>2018-04-28T11:42:03Z</time>
      </trkpt>
      <trkpt lat="44.96596" lon="3.61561">
        <ele>1043</ele>
        <time>2018-04-28T11:42:17Z</time>
      </trkpt>
      <trkpt lat="44.96562" lon="3.61546">
        <ele>1045</ele>
        <time>2018-04-28T11:42:48Z</time>
      </trkpt>
      <trkpt lat="44.96541" lon="3.61528">
        <ele>1046</ele>
        <time>2018-04-28T11:43:09Z</time>
      </trkpt>
      <trkpt lat="44.96508" lon="3.61511">
        <ele>1048</ele>
        <time>2018-04-28T11:43:41Z</time>
      </trkpt>
      <trkpt lat="44.96503" lon="3.61508">
        <ele>1048</ele>
        <time>2018-04-28T11:43:46Z</time>
      </trkpt>
      <trkpt lat="44.96497" lon="3.61506">
        <ele>1048</ele>
        <time>2018-04-28T11:43:51Z</time>
      </trkpt>
      <trkpt lat="44.96493" lon="3.61504">
        <ele>1048</ele>
        <time>2018-04-28T11:43:55Z</time>
      </trkpt>
      <trkpt lat="44.96489" lon="3.61502">
        <ele>1048</ele>
        <time>2018-04-28T11:43:59Z</time>
      </trkpt>
      <trkpt lat="44.96459" lon="3.61493">
        <ele>1047</ele>
        <time>2018-04-28T11:44:24Z</time>
      </trkpt>
      <trkpt lat="44.96432" lon="3.61477">
        <ele>1048</ele>
        <time>2018-04-28T11:44:51Z</time>
      </trkpt>
      <trkpt lat="44.96426" lon="3.61475">
        <ele>1047</ele>
        <time>2018-04-28T11:44:56Z</time>
      </trkpt>
      <trkpt lat="44.96422" lon="3.61471">
        <ele>1048</ele>
        <time>2018-04-28T11:45:01Z</time>
      </trkpt>
      <trkpt lat="44.96417" lon="3.61468">
        <ele>1048</ele>
        <time>2018-04-28T11:45:06Z</time>
      </trkpt>
      <trkpt lat="44.96412" lon="3.61464">
        <ele>1049</ele>
        <time>2018-04-28T11:45:11Z</time>
      </trkpt>
      <trkpt lat="44.96403" lon="3.61458">
        <ele>1050</ele>
        <time>2018-04-28T11:45:19Z</time>
      </trkpt>
      <trkpt lat="44.96399" lon="3.61455">
        <ele>1050</ele>
        <time>2018-04-28T11:45:24Z</time>
      </trkpt>
      <trkpt lat="44.96375" lon="3.61441">
        <ele>1053</ele>
        <time>2018-04-28T11:45:47Z</time>
      </trkpt>
      <trkpt lat="44.9637" lon="3.61439">
        <ele>1054</ele>
        <time>2018-04-28T11:45:52Z</time>
      </trkpt>
      <trkpt lat="44.96364" lon="3.61438">
        <ele>1054</ele>
        <time>2018-04-28T11:45:59Z</time>
      </trkpt>
      <trkpt lat="44.96349" lon="3.61437">
        <ele>1055</ele>
        <time>2018-04-28T11:46:14Z</time>
      </trkpt>
      <trkpt lat="44.96344" lon="3.61437">
        <ele>1055</ele>
        <time>2018-04-28T11:46:19Z</time>
      </trkpt>
      <trkpt lat="44.96334" lon="3.61437">
        <ele>1056</ele>
        <time>2018-04-28T11:46:29Z</time>
      </trkpt>
      <trkpt lat="44.96323" lon="3.61437">
        <ele>1056</ele>
        <time>2018-04-28T11:46:39Z</time>
      </trkpt>
      <trkpt lat="44.96299" lon="3.61435">
        <ele>1058</ele>
        <time>2018-04-28T11:46:59Z</time>
      </trkpt>
      <trkpt lat="44.96294" lon="3.61434">
        <ele>1057</ele>
        <time>2018-04-28T11:47:03Z</time>
      </trkpt>
      <trkpt lat="44.96284" lon="3.61435">
        <ele>1058</ele>
        <time>2018-04-28T11:47:11Z</time>
      </trkpt>
      <trkpt lat="44.9628" lon="3.61436">
        <ele>1058</ele>
        <time>2018-04-28T11:47:15Z</time>
      </trkpt>
      <trkpt lat="44.96274" lon="3.61436">
        <ele>1058</ele>
        <time>2018-04-28T11:47:20Z</time>
      </trkpt>
      <trkpt lat="44.9627" lon="3.61436">
        <ele>1058</ele>
        <time>2018-04-28T11:47:24Z</time>
      </trkpt>
      <trkpt lat="44.96265" lon="3.61436">
        <ele>1058</ele>
        <time>2018-04-28T11:47:28Z</time>
      </trkpt>
      <trkpt lat="44.96255" lon="3.61434">
        <ele>1057</ele>
        <time>2018-04-28T11:47:37Z</time>
      </trkpt>
      <trkpt lat="44.96241" lon="3.61428">
        <ele>1056</ele>
        <time>2018-04-28T11:47:49Z</time>
      </trkpt>
      <trkpt lat="44.96228" lon="3.61417">
        <ele>1055</ele>
        <time>2018-04-28T11:48:01Z</time>
      </trkpt>
      <trkpt lat="44.96219" lon="3.61409">
        <ele>1056</ele>
        <time>2018-04-28T11:48:10Z</time>
      </trkpt>
      <trkpt lat="44.96211" lon="3.61402">
        <ele>1056</ele>
        <time>2018-04-28T11:48:18Z</time>
      </trkpt>
      <trkpt lat="44.96203" lon="3.61396">
        <ele>1056</ele>
        <time>2018-04-28T11:48:27Z</time>
      </trkpt>
      <trkpt lat="44.96194" lon="3.61391">
        <ele>1057</ele>
        <time>2018-04-28T11:49:15Z</time>
      </trkpt>
      <trkpt lat="44.96166" lon="3.6137">
        <ele>1056</ele>
        <time>2018-04-28T11:49:48Z</time>
      </trkpt>
      <trkpt lat="44.96154" lon="3.6136">
        <ele>1056</ele>
        <time>2018-04-28T11:50:00Z</time>
      </trkpt>
      <trkpt lat="44.96146" lon="3.61352">
        <ele>1056</ele>
        <time>2018-04-28T11:50:08Z</time>
      </trkpt>
      <trkpt lat="44.96138" lon="3.61344">
        <ele>1056</ele>
        <time>2018-04-28T11:50:17Z</time>
      </trkpt>
      <trkpt lat="44.96133" lon="3.61339">
        <ele>1056</ele>
        <time>2018-04-28T11:50:22Z</time>
      </trkpt>
      <trkpt lat="44.96117" lon="3.61323">
        <ele>1054</ele>
        <time>2018-04-28T11:50:38Z</time>
      </trkpt>
      <trkpt lat="44.96108" lon="3.61318">
        <ele>1054</ele>
        <time>2018-04-28T11:50:47Z</time>
      </trkpt>
      <trkpt lat="44.96079" lon="3.61302">
        <ele>1051</ele>
        <time>2018-04-28T11:51:19Z</time>
      </trkpt>
      <trkpt lat="44.96075" lon="3.61299">
        <ele>1050</ele>
        <time>2018-04-28T11:51:23Z</time>
      </trkpt>
      <trkpt lat="44.96071" lon="3.61296">
        <ele>1050</ele>
        <time>2018-04-28T11:51:27Z</time>
      </trkpt>
      <trkpt lat="44.96052" lon="3.61293">
        <ele>1053</ele>
        <time>2018-04-28T11:51:51Z</time>
      </trkpt>
      <trkpt lat="44.96038" lon="3.61287">
        <ele>1053</ele>
        <time>2018-04-28T11:52:06Z</time>
      </trkpt>
      <trkpt lat="44.96033" lon="3.61291">
        <ele>1053</ele>
        <time>2018-04-28T11:52:43Z</time>
      </trkpt>
      <trkpt lat="44.96028" lon="3.61282">
        <ele>1054</ele>
        <time>2018-04-28T11:53:19Z</time>
      </trkpt>
      <trkpt lat="44.96025" lon="3.61269">
        <ele>1054</ele>
        <time>2018-04-28T11:53:28Z</time>
      </trkpt>
      <trkpt lat="44.96023" lon="3.61256">
        <ele>1055</ele>
        <time>2018-04-28T11:54:00Z</time>
      </trkpt>
      <trkpt lat="44.96023" lon="3.61249">
        <ele>1056</ele>
        <time>2018-04-28T11:54:05Z</time>
      </trkpt>
      <trkpt lat="44.96022" lon="3.61243">
        <ele>1056</ele>
        <time>2018-04-28T11:54:10Z</time>
      </trkpt>
      <trkpt lat="44.96017" lon="3.61235">
        <ele>1057</ele>
        <time>2018-04-28T11:54:17Z</time>
      </trkpt>
      <trkpt lat="44.96012" lon="3.61223">
        <ele>1057</ele>
        <time>2018-04-28T11:54:26Z</time>
      </trkpt>
      <trkpt lat="44.95999" lon="3.61188">
        <ele>1061</ele>
        <time>2018-04-28T11:55:00Z</time>
      </trkpt>
      <trkpt lat="44.95991" lon="3.61181">
        <ele>1062</ele>
        <time>2018-04-28T11:55:09Z</time>
      </trkpt>
      <trkpt lat="44.95977" lon="3.61173">
        <ele>1062</ele>
        <time>2018-04-28T11:55:21Z</time>
      </trkpt>
      <trkpt lat="44.95969" lon="3.61167">
        <ele>1060</ele>
        <time>2018-04-28T11:55:30Z</time>
      </trkpt>
      <trkpt lat="44.95962" lon="3.61163">
        <ele>1060</ele>
        <time>2018-04-28T11:55:38Z</time>
      </trkpt>
      <trkpt lat="44.95931" lon="3.61145">
        <ele>1059</ele>
        <time>2018-04-28T11:56:09Z</time>
      </trkpt>
      <trkpt lat="44.95923" lon="3.61139">
        <ele>1059</ele>
        <time>2018-04-28T11:56:17Z</time>
      </trkpt>
      <trkpt lat="44.95918" lon="3.61137">
        <ele>1059</ele>
        <time>2018-04-28T11:56:21Z</time>
      </trkpt>
      <trkpt lat="44.95913" lon="3.61134">
        <ele>1059</ele>
        <time>2018-04-28T11:56:25Z</time>
      </trkpt>
      <trkpt lat="44.95909" lon="3.61131">
        <ele>1059</ele>
        <time>2018-04-28T11:56:29Z</time>
      </trkpt>
      <trkpt lat="44.95896" lon="3.6112">
        <ele>1059</ele>
        <time>2018-04-28T11:56:41Z</time>
      </trkpt>
      <trkpt lat="44.95893" lon="3.61116">
        <ele>1059</ele>
        <time>2018-04-28T11:56:45Z</time>
      </trkpt>
      <trkpt lat="44.95884" lon="3.61105">
        <ele>1059</ele>
        <time>2018-04-28T11:56:55Z</time>
      </trkpt>
      <trkpt lat="44.95872" lon="3.61079">
        <ele>1060</ele>
        <time>2018-04-28T11:57:15Z</time>
      </trkpt>
      <trkpt lat="44.95862" lon="3.6105">
        <ele>1061</ele>
        <time>2018-04-28T11:57:37Z</time>
      </trkpt>
      <trkpt lat="44.95862" lon="3.61043">
        <ele>1061</ele>
        <time>2018-04-28T11:57:41Z</time>
      </trkpt>
      <trkpt lat="44.9586" lon="3.61036">
        <ele>1061</ele>
        <time>2018-04-28T11:57:46Z</time>
      </trkpt>
      <trkpt lat="44.95858" lon="3.61029">
        <ele>1061</ele>
        <time>2018-04-28T11:57:50Z</time>
      </trkpt>
      <trkpt lat="44.95857" lon="3.61023">
        <ele>1061</ele>
        <time>2018-04-28T11:57:54Z</time>
      </trkpt>
      <trkpt lat="44.95851" lon="3.61004">
        <ele>1062</ele>
        <time>2018-04-28T11:58:07Z</time>
      </trkpt>
      <trkpt lat="44.95848" lon="3.60997">
        <ele>1061</ele>
        <time>2018-04-28T11:58:12Z</time>
      </trkpt>
      <trkpt lat="44.95845" lon="3.6099">
        <ele>1061</ele>
        <time>2018-04-28T11:58:16Z</time>
      </trkpt>
      <trkpt lat="44.9583" lon="3.60962">
        <ele>1062</ele>
        <time>2018-04-28T11:58:36Z</time>
      </trkpt>
      <trkpt lat="44.9582" lon="3.60948">
        <ele>1063</ele>
        <time>2018-04-28T11:58:48Z</time>
      </trkpt>
      <trkpt lat="44.95813" lon="3.60939">
        <ele>1062</ele>
        <time>2018-04-28T11:58:56Z</time>
      </trkpt>
      <trkpt lat="44.95794" lon="3.60915">
        <ele>1064</ele>
        <time>2018-04-28T11:59:16Z</time>
      </trkpt>
      <trkpt lat="44.9579" lon="3.60909">
        <ele>1063</ele>
        <time>2018-04-28T11:59:20Z</time>
      </trkpt>
      <trkpt lat="44.95787" lon="3.60905">
        <ele>1064</ele>
        <time>2018-04-28T11:59:24Z</time>
      </trkpt>
      <trkpt lat="44.9576" lon="3.60866">
        <ele>1065</ele>
        <time>2018-04-28T11:59:56Z</time>
      </trkpt>
      <trkpt lat="44.9573" lon="3.6083">
        <ele>1067</ele>
        <time>2018-04-28T12:00:29Z</time>
      </trkpt>
      <trkpt lat="44.95706" lon="3.60804">
        <ele>1068</ele>
        <time>2018-04-28T12:00:54Z</time>
      </trkpt>
      <trkpt lat="44.95675" lon="3.60774">
        <ele>1070</ele>
        <time>2018-04-28T12:01:26Z</time>
      </trkpt>
      <trkpt lat="44.9567" lon="3.6077">
        <ele>1070</ele>
        <time>2018-04-28T12:01:31Z</time>
      </trkpt>
      <trkpt lat="44.95667" lon="3.60765">
        <ele>1070</ele>
        <time>2018-04-28T12:01:36Z</time>
      </trkpt>
      <trkpt lat="44.95666" lon="3.60756">
        <ele>1069</ele>
        <time>2018-04-28T12:02:33Z</time>
      </trkpt>
      <trkpt lat="44.9566" lon="3.60735">
        <ele>1068</ele>
        <time>2018-04-28T12:02:46Z</time>
      </trkpt>
      <trkpt lat="44.95651" lon="3.60686">
        <ele>1064</ele>
        <time>2018-04-28T12:03:14Z</time>
      </trkpt>
      <trkpt lat="44.95645" lon="3.60665">
        <ele>1063</ele>
        <time>2018-04-28T12:03:26Z</time>
      </trkpt>
      <trkpt lat="44.95624" lon="3.60615">
        <ele>1061</ele>
        <time>2018-04-28T12:03:59Z</time>
      </trkpt>
      <trkpt lat="44.95617" lon="3.60594">
        <ele>1060</ele>
        <time>2018-04-28T12:04:11Z</time>
      </trkpt>
      <trkpt lat="44.95616" lon="3.60588">
        <ele>1060</ele>
        <time>2018-04-28T12:04:15Z</time>
      </trkpt>
      <trkpt lat="44.95615" lon="3.60581">
        <ele>1060</ele>
        <time>2018-04-28T12:04:19Z</time>
      </trkpt>
      <trkpt lat="44.95614" lon="3.60575">
        <ele>1060</ele>
        <time>2018-04-28T12:04:23Z</time>
      </trkpt>
      <trkpt lat="44.95612" lon="3.60563">
        <ele>1060</ele>
        <time>2018-04-28T12:04:31Z</time>
      </trkpt>
      <trkpt lat="44.95602" lon="3.6051">
        <ele>1058</ele>
        <time>2018-04-28T12:05:03Z</time>
      </trkpt>
      <trkpt lat="44.95597" lon="3.60454">
        <ele>1054</ele>
        <time>2018-04-28T12:05:36Z</time>
      </trkpt>
      <trkpt lat="44.95596" lon="3.60448">
        <ele>1053</ele>
        <time>2018-04-28T12:05:40Z</time>
      </trkpt>
      <trkpt lat="44.95595" lon="3.60441">
        <ele>1053</ele>
        <time>2018-04-28T12:05:44Z</time>
      </trkpt>
      <trkpt lat="44.95593" lon="3.60434">
        <ele>1053</ele>
        <time>2018-04-28T12:05:48Z</time>
      </trkpt>
      <trkpt lat="44.95593" lon="3.60427">
        <ele>1052</ele>
        <time>2018-04-28T12:05:52Z</time>
      </trkpt>
      <trkpt lat="44.95594" lon="3.6042">
        <ele>1052</ele>
        <time>2018-04-28T12:05:56Z</time>
      </trkpt>
      <trkpt lat="44.9559" lon="3.60399">
        <ele>1051</ele>
        <time>2018-04-28T12:06:09Z</time>
      </trkpt>
      <trkpt lat="44.95586" lon="3.60386">
        <ele>1051</ele>
        <time>2018-04-28T12:06:18Z</time>
      </trkpt>
      <trkpt lat="44.95585" lon="3.60379">
        <ele>1051</ele>
        <time>2018-04-28T12:06:22Z</time>
      </trkpt>
      <trkpt lat="44.95584" lon="3.60372">
        <ele>1050</ele>
        <time>2018-04-28T12:06:26Z</time>
      </trkpt>
      <trkpt lat="44.9557" lon="3.6032">
        <ele>1047</ele>
        <time>2018-04-28T12:06:59Z</time>
      </trkpt>
      <trkpt lat="44.9556" lon="3.60274">
        <ele>1044</ele>
        <time>2018-04-28T12:07:31Z</time>
      </trkpt>
      <trkpt lat="44.95558" lon="3.60226">
        <ele>1040</ele>
        <time>2018-04-28T12:08:00Z</time>
      </trkpt>
      <trkpt lat="44.95566" lon="3.60192">
        <ele>1039</ele>
        <time>2018-04-28T12:08:22Z</time>
      </trkpt>
      <trkpt lat="44.95571" lon="3.60173">
        <ele>1040</ele>
        <time>2018-04-28T12:08:35Z</time>
      </trkpt>
      <trkpt lat="44.95575" lon="3.60144">
        <ele>1041</ele>
        <time>2018-04-28T12:08:56Z</time>
      </trkpt>
      <trkpt lat="44.95577" lon="3.60138">
        <ele>1041</ele>
        <time>2018-04-28T12:09:01Z</time>
      </trkpt>
      <trkpt lat="44.95578" lon="3.60131">
        <ele>1041</ele>
        <time>2018-04-28T12:09:05Z</time>
      </trkpt>
      <trkpt lat="44.95596" lon="3.60095">
        <ele>1044</ele>
        <time>2018-04-28T12:09:35Z</time>
      </trkpt>
      <trkpt lat="44.95599" lon="3.60089">
        <ele>1045</ele>
        <time>2018-04-28T12:09:40Z</time>
      </trkpt>
      <trkpt lat="44.95607" lon="3.60083">
        <ele>1046</ele>
        <time>2018-04-28T12:09:52Z</time>
      </trkpt>
      <trkpt lat="44.95617" lon="3.60067">
        <ele>1048</ele>
        <time>2018-04-28T12:10:07Z</time>
      </trkpt>
      <trkpt lat="44.95622" lon="3.60047">
        <ele>1049</ele>
        <time>2018-04-28T12:10:22Z</time>
      </trkpt>
      <trkpt lat="44.95623" lon="3.6004">
        <ele>1050</ele>
        <time>2018-04-28T12:10:27Z</time>
      </trkpt>
      <trkpt lat="44.95628" lon="3.6002">
        <ele>1051</ele>
        <time>2018-04-28T12:10:42Z</time>
      </trkpt>
      <trkpt lat="44.95627" lon="3.59978">
        <ele>1052</ele>
        <time>2018-04-28T12:11:09Z</time>
      </trkpt>
      <trkpt lat="44.95624" lon="3.59948">
        <ele>1052</ele>
        <time>2018-04-28T12:11:28Z</time>
      </trkpt>
      <trkpt lat="44.95623" lon="3.59939">
        <ele>1052</ele>
        <time>2018-04-28T12:11:35Z</time>
      </trkpt>
      <trkpt lat="44.95622" lon="3.59932">
        <ele>1052</ele>
        <time>2018-04-28T12:11:40Z</time>
      </trkpt>
      <trkpt lat="44.95618" lon="3.59897">
        <ele>1052</ele>
        <time>2018-04-28T12:12:01Z</time>
      </trkpt>
      <trkpt lat="44.95618" lon="3.59869">
        <ele>1051</ele>
        <time>2018-04-28T12:12:19Z</time>
      </trkpt>
      <trkpt lat="44.95614" lon="3.59818">
        <ele>1052</ele>
        <time>2018-04-28T12:12:54Z</time>
      </trkpt>
      <trkpt lat="44.95612" lon="3.59773">
        <ele>1052</ele>
        <time>2018-04-28T12:13:28Z</time>
      </trkpt>
      <trkpt lat="44.9561" lon="3.59738">
        <ele>1052</ele>
        <time>2018-04-28T12:13:50Z</time>
      </trkpt>
      <trkpt lat="44.95606" lon="3.59687">
        <ele>1054</ele>
        <time>2018-04-28T12:14:22Z</time>
      </trkpt>
      <trkpt lat="44.95603" lon="3.59666">
        <ele>1054</ele>
        <time>2018-04-28T12:14:36Z</time>
      </trkpt>
      <trkpt lat="44.95604" lon="3.59645">
        <ele>1054</ele>
        <time>2018-04-28T12:14:51Z</time>
      </trkpt>
      <trkpt lat="44.95604" lon="3.59633">
        <ele>1055</ele>
        <time>2018-04-28T12:15:05Z</time>
      </trkpt>
      <trkpt lat="44.95605" lon="3.59603">
        <ele>1054</ele>
        <time>2018-04-28T12:15:23Z</time>
      </trkpt>
      <trkpt lat="44.95614" lon="3.59549">
        <ele>1052</ele>
        <time>2018-04-28T12:15:55Z</time>
      </trkpt>
      <trkpt lat="44.95616" lon="3.59537">
        <ele>1051</ele>
        <time>2018-04-28T12:16:03Z</time>
      </trkpt>
      <trkpt lat="44.95619" lon="3.59531">
        <ele>1050</ele>
        <time>2018-04-28T12:16:08Z</time>
      </trkpt>
      <trkpt lat="44.95632" lon="3.59519">
        <ele>1049</ele>
        <time>2018-04-28T12:16:21Z</time>
      </trkpt>
      <trkpt lat="44.95637" lon="3.59516">
        <ele>1048</ele>
        <time>2018-04-28T12:16:25Z</time>
      </trkpt>
      <trkpt lat="44.95651" lon="3.59513">
        <ele>1047</ele>
        <time>2018-04-28T12:16:37Z</time>
      </trkpt>
      <trkpt lat="44.95685" lon="3.59498">
        <ele>1045</ele>
        <time>2018-04-28T12:17:09Z</time>
      </trkpt>
      <trkpt lat="44.9569" lon="3.59497">
        <ele>1045</ele>
        <time>2018-04-28T12:17:13Z</time>
      </trkpt>
      <trkpt lat="44.95698" lon="3.59489">
        <ele>1045</ele>
        <time>2018-04-28T12:17:23Z</time>
      </trkpt>
      <trkpt lat="44.95702" lon="3.59484">
        <ele>1044</ele>
        <time>2018-04-28T12:17:28Z</time>
      </trkpt>
      <trkpt lat="44.95706" lon="3.59481">
        <ele>1044</ele>
        <time>2018-04-28T12:17:33Z</time>
      </trkpt>
      <trkpt lat="44.95709" lon="3.59478">
        <ele>1044</ele>
        <time>2018-04-28T12:17:43Z</time>
      </trkpt>
      <trkpt lat="44.95714" lon="3.59479">
        <ele>1043</ele>
        <time>2018-04-28T12:20:05Z</time>
      </trkpt>
      <trkpt lat="44.95718" lon="3.59476">
        <ele>1043</ele>
        <time>2018-04-28T12:20:10Z</time>
      </trkpt>
      <trkpt lat="44.95724" lon="3.59476">
        <ele>1041</ele>
        <time>2018-04-28T12:25:25Z</time>
      </trkpt>
      <trkpt lat="44.95743" lon="3.59474">
        <ele>1042</ele>
        <time>2018-04-28T12:25:43Z</time>
      </trkpt>
      <trkpt lat="44.95753" lon="3.59478">
        <ele>1042</ele>
        <time>2018-04-28T12:25:53Z</time>
      </trkpt>
      <trkpt lat="44.95757" lon="3.59481">
        <ele>1043</ele>
        <time>2018-04-28T12:25:58Z</time>
      </trkpt>
      <trkpt lat="44.95763" lon="3.59486">
        <ele>1043</ele>
        <time>2018-04-28T12:26:05Z</time>
      </trkpt>
      <trkpt lat="44.95771" lon="3.59496">
        <ele>1044</ele>
        <time>2018-04-28T12:26:19Z</time>
      </trkpt>
      <trkpt lat="44.95777" lon="3.595">
        <ele>1045</ele>
        <time>2018-04-28T12:26:30Z</time>
      </trkpt>
      <trkpt lat="44.95782" lon="3.59498">
        <ele>1046</ele>
        <time>2018-04-28T12:26:35Z</time>
      </trkpt>
      <trkpt lat="44.95784" lon="3.59491">
        <ele>1046</ele>
        <time>2018-04-28T12:26:40Z</time>
      </trkpt>
      <trkpt lat="44.95784" lon="3.59483">
        <ele>1047</ele>
        <time>2018-04-28T12:26:45Z</time>
      </trkpt>
      <trkpt lat="44.95783" lon="3.59477">
        <ele>1048</ele>
        <time>2018-04-28T12:26:50Z</time>
      </trkpt>
      <trkpt lat="44.95782" lon="3.5947">
        <ele>1049</ele>
        <time>2018-04-28T12:26:57Z</time>
      </trkpt>
      <trkpt lat="44.95784" lon="3.59446">
        <ele>1051</ele>
        <time>2018-04-28T12:27:18Z</time>
      </trkpt>
      <trkpt lat="44.95791" lon="3.59433">
        <ele>1051</ele>
        <time>2018-04-28T12:27:29Z</time>
      </trkpt>
      <trkpt lat="44.95801" lon="3.59417">
        <ele>1052</ele>
        <time>2018-04-28T12:27:44Z</time>
      </trkpt>
      <trkpt lat="44.95806" lon="3.59405">
        <ele>1053</ele>
        <time>2018-04-28T12:27:54Z</time>
      </trkpt>
      <trkpt lat="44.95809" lon="3.59386">
        <ele>1055</ele>
        <time>2018-04-28T12:28:09Z</time>
      </trkpt>
      <trkpt lat="44.95809" lon="3.59379">
        <ele>1055</ele>
        <time>2018-04-28T12:28:14Z</time>
      </trkpt>
      <trkpt lat="44.95807" lon="3.59373">
        <ele>1056</ele>
        <time>2018-04-28T12:28:19Z</time>
      </trkpt>
      <trkpt lat="44.95807" lon="3.59364">
        <ele>1056</ele>
        <time>2018-04-28T12:28:27Z</time>
      </trkpt>
      <trkpt lat="44.95809" lon="3.59358">
        <ele>1057</ele>
        <time>2018-04-28T12:28:31Z</time>
      </trkpt>
      <trkpt lat="44.95813" lon="3.59354">
        <ele>1057</ele>
        <time>2018-04-28T12:28:36Z</time>
      </trkpt>
      <trkpt lat="44.95817" lon="3.59349">
        <ele>1058</ele>
        <time>2018-04-28T12:28:41Z</time>
      </trkpt>
      <trkpt lat="44.95818" lon="3.59342">
        <ele>1058</ele>
        <time>2018-04-28T12:28:46Z</time>
      </trkpt>
      <trkpt lat="44.95818" lon="3.59335">
        <ele>1059</ele>
        <time>2018-04-28T12:28:51Z</time>
      </trkpt>
      <trkpt lat="44.95814" lon="3.59318">
        <ele>1059</ele>
        <time>2018-04-28T12:29:04Z</time>
      </trkpt>
      <trkpt lat="44.95813" lon="3.59311">
        <ele>1058</ele>
        <time>2018-04-28T12:29:09Z</time>
      </trkpt>
      <trkpt lat="44.95794" lon="3.59275">
        <ele>1057</ele>
        <time>2018-04-28T12:29:40Z</time>
      </trkpt>
      <trkpt lat="44.95775" lon="3.59249">
        <ele>1057</ele>
        <time>2018-04-28T12:30:04Z</time>
      </trkpt>
      <trkpt lat="44.95771" lon="3.59246">
        <ele>1057</ele>
        <time>2018-04-28T12:30:09Z</time>
      </trkpt>
      <trkpt lat="44.95767" lon="3.59244">
        <ele>1057</ele>
        <time>2018-04-28T12:30:14Z</time>
      </trkpt>
      <trkpt lat="44.95762" lon="3.59238">
        <ele>1056</ele>
        <time>2018-04-28T12:31:10Z</time>
      </trkpt>
      <trkpt lat="44.95756" lon="3.59229">
        <ele>1056</ele>
        <time>2018-04-28T12:32:02Z</time>
      </trkpt>
      <trkpt lat="44.95751" lon="3.59224">
        <ele>1056</ele>
        <time>2018-04-28T12:32:07Z</time>
      </trkpt>
      <trkpt lat="44.95722" lon="3.59195">
        <ele>1056</ele>
        <time>2018-04-28T12:32:40Z</time>
      </trkpt>
      <trkpt lat="44.95692" lon="3.59166">
        <ele>1057</ele>
        <time>2018-04-28T12:33:12Z</time>
      </trkpt>
      <trkpt lat="44.95676" lon="3.5915">
        <ele>1059</ele>
        <time>2018-04-28T12:33:30Z</time>
      </trkpt>
      <trkpt lat="44.95656" lon="3.59143">
        <ele>1061</ele>
        <time>2018-04-28T12:33:50Z</time>
      </trkpt>
      <trkpt lat="44.95636" lon="3.59137">
        <ele>1062</ele>
        <time>2018-04-28T12:34:08Z</time>
      </trkpt>
      <trkpt lat="44.95613" lon="3.59126">
        <ele>1062</ele>
        <time>2018-04-28T12:34:29Z</time>
      </trkpt>
      <trkpt lat="44.956" lon="3.59116">
        <ele>1063</ele>
        <time>2018-04-28T12:34:42Z</time>
      </trkpt>
      <trkpt lat="44.95589" lon="3.591">
        <ele>1063</ele>
        <time>2018-04-28T12:34:56Z</time>
      </trkpt>
      <trkpt lat="44.95586" lon="3.59095">
        <ele>1063</ele>
        <time>2018-04-28T12:35:00Z</time>
      </trkpt>
      <trkpt lat="44.95584" lon="3.59089">
        <ele>1063</ele>
        <time>2018-04-28T12:35:04Z</time>
      </trkpt>
      <trkpt lat="44.95581" lon="3.59084">
        <ele>1063</ele>
        <time>2018-04-28T12:35:08Z</time>
      </trkpt>
      <trkpt lat="44.95576" lon="3.59071">
        <ele>1063</ele>
        <time>2018-04-28T12:35:16Z</time>
      </trkpt>
      <trkpt lat="44.95573" lon="3.59065">
        <ele>1062</ele>
        <time>2018-04-28T12:35:20Z</time>
      </trkpt>
      <trkpt lat="44.95562" lon="3.59051">
        <ele>1062</ele>
        <time>2018-04-28T12:35:32Z</time>
      </trkpt>
      <trkpt lat="44.95558" lon="3.59047">
        <ele>1062</ele>
        <time>2018-04-28T12:35:36Z</time>
      </trkpt>
      <trkpt lat="44.95538" lon="3.59026">
        <ele>1062</ele>
        <time>2018-04-28T12:35:57Z</time>
      </trkpt>
      <trkpt lat="44.95507" lon="3.59002">
        <ele>1065</ele>
        <time>2018-04-28T12:36:30Z</time>
      </trkpt>
      <trkpt lat="44.95503" lon="3.58999">
        <ele>1066</ele>
        <time>2018-04-28T12:36:34Z</time>
      </trkpt>
      <trkpt lat="44.95485" lon="3.58986">
        <ele>1065</ele>
        <time>2018-04-28T12:36:51Z</time>
      </trkpt>
      <trkpt lat="44.95477" lon="3.5898">
        <ele>1066</ele>
        <time>2018-04-28T12:36:59Z</time>
      </trkpt>
      <trkpt lat="44.95447" lon="3.58949">
        <ele>1066</ele>
        <time>2018-04-28T12:37:33Z</time>
      </trkpt>
      <trkpt lat="44.95415" lon="3.58919">
        <ele>1069</ele>
        <time>2018-04-28T12:38:08Z</time>
      </trkpt>
      <trkpt lat="44.95405" lon="3.5891">
        <ele>1070</ele>
        <time>2018-04-28T12:38:39Z</time>
      </trkpt>
      <trkpt lat="44.95392" lon="3.58895">
        <ele>1071</ele>
        <time>2018-04-28T12:39:12Z</time>
      </trkpt>
      <trkpt lat="44.95385" lon="3.58886">
        <ele>1072</ele>
        <time>2018-04-28T12:39:19Z</time>
      </trkpt>
      <trkpt lat="44.95381" lon="3.58881">
        <ele>1072</ele>
        <time>2018-04-28T12:39:23Z</time>
      </trkpt>
      <trkpt lat="44.95377" lon="3.58876">
        <ele>1071</ele>
        <time>2018-04-28T12:39:27Z</time>
      </trkpt>
      <trkpt lat="44.95376" lon="3.5887">
        <ele>1071</ele>
        <time>2018-04-28T12:39:31Z</time>
      </trkpt>
      <trkpt lat="44.95374" lon="3.58863">
        <ele>1071</ele>
        <time>2018-04-28T12:39:36Z</time>
      </trkpt>
      <trkpt lat="44.95371" lon="3.58856">
        <ele>1071</ele>
        <time>2018-04-28T12:39:40Z</time>
      </trkpt>
      <trkpt lat="44.95349" lon="3.58809">
        <ele>1072</ele>
        <time>2018-04-28T12:40:14Z</time>
      </trkpt>
      <trkpt lat="44.95342" lon="3.58798">
        <ele>1072</ele>
        <time>2018-04-28T12:40:23Z</time>
      </trkpt>
      <trkpt lat="44.95333" lon="3.58774">
        <ele>1072</ele>
        <time>2018-04-28T12:40:39Z</time>
      </trkpt>
      <trkpt lat="44.95326" lon="3.58763">
        <ele>1072</ele>
        <time>2018-04-28T12:40:47Z</time>
      </trkpt>
      <trkpt lat="44.95307" lon="3.58739">
        <ele>1072</ele>
        <time>2018-04-28T12:41:07Z</time>
      </trkpt>
      <trkpt lat="44.95299" lon="3.58733">
        <ele>1072</ele>
        <time>2018-04-28T12:41:15Z</time>
      </trkpt>
      <trkpt lat="44.9528" lon="3.58723">
        <ele>1072</ele>
        <time>2018-04-28T12:41:31Z</time>
      </trkpt>
      <trkpt lat="44.95265" lon="3.5872">
        <ele>1071</ele>
        <time>2018-04-28T12:41:43Z</time>
      </trkpt>
      <trkpt lat="44.95255" lon="3.58721">
        <ele>1072</ele>
        <time>2018-04-28T12:41:52Z</time>
      </trkpt>
      <trkpt lat="44.95245" lon="3.58719">
        <ele>1071</ele>
        <time>2018-04-28T12:42:00Z</time>
      </trkpt>
      <trkpt lat="44.95235" lon="3.58714">
        <ele>1071</ele>
        <time>2018-04-28T12:42:09Z</time>
      </trkpt>
      <trkpt lat="44.95202" lon="3.58686">
        <ele>1071</ele>
        <time>2018-04-28T12:42:42Z</time>
      </trkpt>
      <trkpt lat="44.95197" lon="3.58683">
        <ele>1071</ele>
        <time>2018-04-28T12:42:46Z</time>
      </trkpt>
      <trkpt lat="44.95193" lon="3.58681">
        <ele>1070</ele>
        <time>2018-04-28T12:42:50Z</time>
      </trkpt>
      <trkpt lat="44.95188" lon="3.58678">
        <ele>1070</ele>
        <time>2018-04-28T12:42:54Z</time>
      </trkpt>
      <trkpt lat="44.95174" lon="3.58672">
        <ele>1070</ele>
        <time>2018-04-28T12:43:06Z</time>
      </trkpt>
      <trkpt lat="44.95139" lon="3.58649">
        <ele>1069</ele>
        <time>2018-04-28T12:43:39Z</time>
      </trkpt>
      <trkpt lat="44.95125" lon="3.58639">
        <ele>1069</ele>
        <time>2018-04-28T12:43:52Z</time>
      </trkpt>
      <trkpt lat="44.95121" lon="3.58636">
        <ele>1069</ele>
        <time>2018-04-28T12:43:56Z</time>
      </trkpt>
      <trkpt lat="44.95117" lon="3.58632">
        <ele>1069</ele>
        <time>2018-04-28T12:44:00Z</time>
      </trkpt>
      <trkpt lat="44.95113" lon="3.58629">
        <ele>1069</ele>
        <time>2018-04-28T12:44:04Z</time>
      </trkpt>
      <trkpt lat="44.95092" lon="3.58612">
        <ele>1068</ele>
        <time>2018-04-28T12:44:25Z</time>
      </trkpt>
      <trkpt lat="44.95087" lon="3.58609">
        <ele>1069</ele>
        <time>2018-04-28T12:44:30Z</time>
      </trkpt>
      <trkpt lat="44.95082" lon="3.58606">
        <ele>1068</ele>
        <time>2018-04-28T12:44:34Z</time>
      </trkpt>
      <trkpt lat="44.95055" lon="3.5859">
        <ele>1068</ele>
        <time>2018-04-28T12:45:00Z</time>
      </trkpt>
      <trkpt lat="44.9504" lon="3.58585">
        <ele>1068</ele>
        <time>2018-04-28T12:45:13Z</time>
      </trkpt>
      <trkpt lat="44.95033" lon="3.58577">
        <ele>1068</ele>
        <time>2018-04-28T12:45:21Z</time>
      </trkpt>
      <trkpt lat="44.95029" lon="3.58572">
        <ele>1068</ele>
        <time>2018-04-28T12:45:25Z</time>
      </trkpt>
      <trkpt lat="44.95027" lon="3.58566">
        <ele>1069</ele>
        <time>2018-04-28T12:45:30Z</time>
      </trkpt>
      <trkpt lat="44.95025" lon="3.58559">
        <ele>1070</ele>
        <time>2018-04-28T12:45:35Z</time>
      </trkpt>
      <trkpt lat="44.95023" lon="3.58545">
        <ele>1070</ele>
        <time>2018-04-28T12:45:45Z</time>
      </trkpt>
      <trkpt lat="44.95021" lon="3.58531">
        <ele>1071</ele>
        <time>2018-04-28T12:45:55Z</time>
      </trkpt>
      <trkpt lat="44.95018" lon="3.58512">
        <ele>1071</ele>
        <time>2018-04-28T12:46:11Z</time>
      </trkpt>
      <trkpt lat="44.95016" lon="3.58503">
        <ele>1071</ele>
        <time>2018-04-28T12:46:19Z</time>
      </trkpt>
      <trkpt lat="44.95015" lon="3.58497">
        <ele>1072</ele>
        <time>2018-04-28T12:46:27Z</time>
      </trkpt>
      <trkpt lat="44.95012" lon="3.58482">
        <ele>1074</ele>
        <time>2018-04-28T12:46:50Z</time>
      </trkpt>
      <trkpt lat="44.95011" lon="3.58475">
        <ele>1074</ele>
        <time>2018-04-28T12:46:55Z</time>
      </trkpt>
      <trkpt lat="44.95008" lon="3.58461">
        <ele>1075</ele>
        <time>2018-04-28T12:47:06Z</time>
      </trkpt>
      <trkpt lat="44.95002" lon="3.5844">
        <ele>1076</ele>
        <time>2018-04-28T12:47:21Z</time>
      </trkpt>
      <trkpt lat="44.94995" lon="3.58429">
        <ele>1076</ele>
        <time>2018-04-28T12:47:31Z</time>
      </trkpt>
      <trkpt lat="44.94993" lon="3.58423">
        <ele>1076</ele>
        <time>2018-04-28T12:47:36Z</time>
      </trkpt>
      <trkpt lat="44.94988" lon="3.58395">
        <ele>1078</ele>
        <time>2018-04-28T12:48:00Z</time>
      </trkpt>
      <trkpt lat="44.94987" lon="3.58389">
        <ele>1078</ele>
        <time>2018-04-28T12:48:04Z</time>
      </trkpt>
      <trkpt lat="44.94983" lon="3.58369">
        <ele>1079</ele>
        <time>2018-04-28T12:48:20Z</time>
      </trkpt>
      <trkpt lat="44.94977" lon="3.58345">
        <ele>1079</ele>
        <time>2018-04-28T12:48:40Z</time>
      </trkpt>
      <trkpt lat="44.94962" lon="3.58305">
        <ele>1081</ele>
        <time>2018-04-28T12:49:12Z</time>
      </trkpt>
      <trkpt lat="44.94952" lon="3.58289">
        <ele>1079</ele>
        <time>2018-04-28T12:49:26Z</time>
      </trkpt>
      <trkpt lat="44.94932" lon="3.58259">
        <ele>1077</ele>
        <time>2018-04-28T12:49:52Z</time>
      </trkpt>
      <trkpt lat="44.94919" lon="3.58227">
        <ele>1077</ele>
        <time>2018-04-28T12:50:15Z</time>
      </trkpt>
      <trkpt lat="44.94908" lon="3.5818">
        <ele>1078</ele>
        <time>2018-04-28T12:50:47Z</time>
      </trkpt>
      <trkpt lat="44.94905" lon="3.58149">
        <ele>1081</ele>
        <time>2018-04-28T12:51:12Z</time>
      </trkpt>
      <trkpt lat="44.94898" lon="3.58107">
        <ele>1081</ele>
        <time>2018-04-28T12:51:40Z</time>
      </trkpt>
      <trkpt lat="44.94896" lon="3.581">
        <ele>1081</ele>
        <time>2018-04-28T12:51:45Z</time>
      </trkpt>
      <trkpt lat="44.94895" lon="3.58093">
        <ele>1081</ele>
        <time>2018-04-28T12:51:49Z</time>
      </trkpt>
      <trkpt lat="44.94892" lon="3.58064">
        <ele>1082</ele>
        <time>2018-04-28T12:52:08Z</time>
      </trkpt>
      <trkpt lat="44.94887" lon="3.58044">
        <ele>1081</ele>
        <time>2018-04-28T12:52:20Z</time>
      </trkpt>
      <trkpt lat="44.9489" lon="3.5803">
        <ele>1080</ele>
        <time>2018-04-28T12:52:34Z</time>
      </trkpt>
      <trkpt lat="44.94892" lon="3.57977">
        <ele>1080</ele>
        <time>2018-04-28T12:53:06Z</time>
      </trkpt>
      <trkpt lat="44.94892" lon="3.5797">
        <ele>1080</ele>
        <time>2018-04-28T12:53:11Z</time>
      </trkpt>
      <trkpt lat="44.94892" lon="3.57947">
        <ele>1080</ele>
        <time>2018-04-28T12:53:26Z</time>
      </trkpt>
      <trkpt lat="44.94892" lon="3.57916">
        <ele>1080</ele>
        <time>2018-04-28T12:53:46Z</time>
      </trkpt>
      <trkpt lat="44.94895" lon="3.57895">
        <ele>1080</ele>
        <time>2018-04-28T12:54:00Z</time>
      </trkpt>
      <trkpt lat="44.94898" lon="3.57888">
        <ele>1080</ele>
        <time>2018-04-28T12:54:05Z</time>
      </trkpt>
      <trkpt lat="44.94919" lon="3.57856">
        <ele>1080</ele>
        <time>2018-04-28T12:54:33Z</time>
      </trkpt>
      <trkpt lat="44.94934" lon="3.57831">
        <ele>1082</ele>
        <time>2018-04-28T12:55:08Z</time>
      </trkpt>
      <trkpt lat="44.9494" lon="3.5782">
        <ele>1082</ele>
        <time>2018-04-28T12:55:16Z</time>
      </trkpt>
      <trkpt lat="44.9495" lon="3.57803">
        <ele>1084</ele>
        <time>2018-04-28T12:55:31Z</time>
      </trkpt>
      <trkpt lat="44.94953" lon="3.57797">
        <ele>1084</ele>
        <time>2018-04-28T12:55:35Z</time>
      </trkpt>
      <trkpt lat="44.94956" lon="3.57792">
        <ele>1084</ele>
        <time>2018-04-28T12:55:40Z</time>
      </trkpt>
      <trkpt lat="44.94964" lon="3.57781">
        <ele>1085</ele>
        <time>2018-04-28T12:55:49Z</time>
      </trkpt>
      <trkpt lat="44.94986" lon="3.57755">
        <ele>1087</ele>
        <time>2018-04-28T12:56:17Z</time>
      </trkpt>
      <trkpt lat="44.94991" lon="3.5775">
        <ele>1087</ele>
        <time>2018-04-28T12:56:24Z</time>
      </trkpt>
      <trkpt lat="44.94995" lon="3.57745">
        <ele>1087</ele>
        <time>2018-04-28T12:56:29Z</time>
      </trkpt>
      <trkpt lat="44.94998" lon="3.5774">
        <ele>1087</ele>
        <time>2018-04-28T12:56:33Z</time>
      </trkpt>
      <trkpt lat="44.95" lon="3.57732">
        <ele>1088</ele>
        <time>2018-04-28T12:56:38Z</time>
      </trkpt>
      <trkpt lat="44.95" lon="3.57726">
        <ele>1088</ele>
        <time>2018-04-28T12:56:43Z</time>
      </trkpt>
      <trkpt lat="44.95001" lon="3.57719">
        <ele>1088</ele>
        <time>2018-04-28T12:56:54Z</time>
      </trkpt>
      <trkpt lat="44.95002" lon="3.5769">
        <ele>1089</ele>
        <time>2018-04-28T12:57:10Z</time>
      </trkpt>
      <trkpt lat="44.94999" lon="3.57633">
        <ele>1091</ele>
        <time>2018-04-28T12:57:45Z</time>
      </trkpt>
      <trkpt lat="44.95001" lon="3.57624">
        <ele>1092</ele>
        <time>2018-04-28T12:57:58Z</time>
      </trkpt>
      <trkpt lat="44.95" lon="3.5761">
        <ele>1092</ele>
        <time>2018-04-28T12:58:06Z</time>
      </trkpt>
      <trkpt lat="44.95001" lon="3.57603">
        <ele>1092</ele>
        <time>2018-04-28T12:58:11Z</time>
      </trkpt>
      <trkpt lat="44.95002" lon="3.57597">
        <ele>1092</ele>
        <time>2018-04-28T12:58:15Z</time>
      </trkpt>
      <trkpt lat="44.95001" lon="3.57591">
        <ele>1093</ele>
        <time>2018-04-28T12:58:20Z</time>
      </trkpt>
      <trkpt lat="44.95003" lon="3.57581">
        <ele>1093</ele>
        <time>2018-04-28T12:58:33Z</time>
      </trkpt>
      <trkpt lat="44.95003" lon="3.57574">
        <ele>1093</ele>
        <time>2018-04-28T12:58:38Z</time>
      </trkpt>
      <trkpt lat="44.95007" lon="3.57548">
        <ele>1095</ele>
        <time>2018-04-28T12:58:56Z</time>
      </trkpt>
      <trkpt lat="44.95007" lon="3.57541">
        <ele>1095</ele>
        <time>2018-04-28T12:59:01Z</time>
      </trkpt>
      <trkpt lat="44.95008" lon="3.57535">
        <ele>1095</ele>
        <time>2018-04-28T12:59:06Z</time>
      </trkpt>
      <trkpt lat="44.95009" lon="3.57528">
        <ele>1095</ele>
        <time>2018-04-28T12:59:10Z</time>
      </trkpt>
      <trkpt lat="44.95012" lon="3.57493">
        <ele>1095</ele>
        <time>2018-04-28T12:59:45Z</time>
      </trkpt>
      <trkpt lat="44.95014" lon="3.57464">
        <ele>1096</ele>
        <time>2018-04-28T13:00:03Z</time>
      </trkpt>
      <trkpt lat="44.95015" lon="3.57458">
        <ele>1096</ele>
        <time>2018-04-28T13:00:07Z</time>
      </trkpt>
      <trkpt lat="44.95017" lon="3.57451">
        <ele>1096</ele>
        <time>2018-04-28T13:00:12Z</time>
      </trkpt>
      <trkpt lat="44.95026" lon="3.57401">
        <ele>1097</ele>
        <time>2018-04-28T13:00:44Z</time>
      </trkpt>
      <trkpt lat="44.9503" lon="3.57387">
        <ele>1097</ele>
        <time>2018-04-28T13:00:53Z</time>
      </trkpt>
      <trkpt lat="44.95034" lon="3.57367">
        <ele>1097</ele>
        <time>2018-04-28T13:01:06Z</time>
      </trkpt>
      <trkpt lat="44.95039" lon="3.57345">
        <ele>1098</ele>
        <time>2018-04-28T13:01:21Z</time>
      </trkpt>
      <trkpt lat="44.95053" lon="3.57296">
        <ele>1098</ele>
        <time>2018-04-28T13:01:54Z</time>
      </trkpt>
      <trkpt lat="44.95071" lon="3.57247">
        <ele>1099</ele>
        <time>2018-04-28T13:02:28Z</time>
      </trkpt>
      <trkpt lat="44.95074" lon="3.5724">
        <ele>1099</ele>
        <time>2018-04-28T13:02:33Z</time>
      </trkpt>
      <trkpt lat="44.95089" lon="3.57194">
        <ele>1096</ele>
        <time>2018-04-28T13:03:04Z</time>
      </trkpt>
      <trkpt lat="44.95101" lon="3.57147">
        <ele>1094</ele>
        <time>2018-04-28T13:03:34Z</time>
      </trkpt>
      <trkpt lat="44.95112" lon="3.571">
        <ele>1091</ele>
        <time>2018-04-28T13:04:05Z</time>
      </trkpt>
      <trkpt lat="44.9512" lon="3.57073">
        <ele>1090</ele>
        <time>2018-04-28T13:04:24Z</time>
      </trkpt>
      <trkpt lat="44.95124" lon="3.57061">
        <ele>1090</ele>
        <time>2018-04-28T13:04:32Z</time>
      </trkpt>
      <trkpt lat="44.9513" lon="3.57038">
        <ele>1090</ele>
        <time>2018-04-28T13:05:05Z</time>
      </trkpt>
      <trkpt lat="44.95144" lon="3.56989">
        <ele>1091</ele>
        <time>2018-04-28T13:05:36Z</time>
      </trkpt>
      <trkpt lat="44.95146" lon="3.56982">
        <ele>1091</ele>
        <time>2018-04-28T13:05:40Z</time>
      </trkpt>
      <trkpt lat="44.95151" lon="3.5697">
        <ele>1091</ele>
        <time>2018-04-28T13:05:48Z</time>
      </trkpt>
      <trkpt lat="44.95159" lon="3.56953">
        <ele>1092</ele>
        <time>2018-04-28T13:06:01Z</time>
      </trkpt>
      <trkpt lat="44.95162" lon="3.56946">
        <ele>1091</ele>
        <time>2018-04-28T13:06:06Z</time>
      </trkpt>
      <trkpt lat="44.95165" lon="3.5694">
        <ele>1092</ele>
        <time>2018-04-28T13:06:11Z</time>
      </trkpt>
      <trkpt lat="44.95169" lon="3.56934">
        <ele>1092</ele>
        <time>2018-04-28T13:06:16Z</time>
      </trkpt>
      <trkpt lat="44.95171" lon="3.56929">
        <ele>1092</ele>
        <time>2018-04-28T13:06:20Z</time>
      </trkpt>
      <trkpt lat="44.9518" lon="3.56911">
        <ele>1091</ele>
        <time>2018-04-28T13:06:32Z</time>
      </trkpt>
      <trkpt lat="44.95183" lon="3.56902">
        <ele>1092</ele>
        <time>2018-04-28T13:06:53Z</time>
      </trkpt>
      <trkpt lat="44.95195" lon="3.56863">
        <ele>1092</ele>
        <time>2018-04-28T13:07:18Z</time>
      </trkpt>
      <trkpt lat="44.95199" lon="3.56835">
        <ele>1093</ele>
        <time>2018-04-28T13:07:34Z</time>
      </trkpt>
      <trkpt lat="44.95202" lon="3.56823">
        <ele>1093</ele>
        <time>2018-04-28T13:07:42Z</time>
      </trkpt>
      <trkpt lat="44.95207" lon="3.56811">
        <ele>1093</ele>
        <time>2018-04-28T13:07:50Z</time>
      </trkpt>
      <trkpt lat="44.9521" lon="3.56806">
        <ele>1093</ele>
        <time>2018-04-28T13:07:55Z</time>
      </trkpt>
      <trkpt lat="44.95215" lon="3.56795">
        <ele>1093</ele>
        <time>2018-04-28T13:08:03Z</time>
      </trkpt>
      <trkpt lat="44.95225" lon="3.56779">
        <ele>1093</ele>
        <time>2018-04-28T13:08:15Z</time>
      </trkpt>
      <trkpt lat="44.95232" lon="3.56771">
        <ele>1093</ele>
        <time>2018-04-28T13:08:23Z</time>
      </trkpt>
      <trkpt lat="44.95235" lon="3.56766">
        <ele>1093</ele>
        <time>2018-04-28T13:08:27Z</time>
      </trkpt>
      <trkpt lat="44.95242" lon="3.56755">
        <ele>1093</ele>
        <time>2018-04-28T13:08:37Z</time>
      </trkpt>
      <trkpt lat="44.95252" lon="3.56742">
        <ele>1092</ele>
        <time>2018-04-28T13:08:52Z</time>
      </trkpt>
      <trkpt lat="44.95257" lon="3.5673">
        <ele>1091</ele>
        <time>2018-04-28T13:10:04Z</time>
      </trkpt>
      <trkpt lat="44.95258" lon="3.56722">
        <ele>1091</ele>
        <time>2018-04-28T13:10:14Z</time>
      </trkpt>
      <trkpt lat="44.9527" lon="3.56711">
        <ele>1088</ele>
        <time>2018-04-28T13:10:34Z</time>
      </trkpt>
      <trkpt lat="44.95275" lon="3.56702">
        <ele>1087</ele>
        <time>2018-04-28T13:10:44Z</time>
      </trkpt>
      <trkpt lat="44.95284" lon="3.56694">
        <ele>1085</ele>
        <time>2018-04-28T13:11:07Z</time>
      </trkpt>
      <trkpt lat="44.95286" lon="3.56687">
        <ele>1083</ele>
        <time>2018-04-28T13:11:31Z</time>
      </trkpt>
      <trkpt lat="44.95292" lon="3.56675">
        <ele>1082</ele>
        <time>2018-04-28T13:12:03Z</time>
      </trkpt>
      <trkpt lat="44.95298" lon="3.56665">
        <ele>1080</ele>
        <time>2018-04-28T13:12:17Z</time>
      </trkpt>
      <trkpt lat="44.95305" lon="3.56659">
        <ele>1079</ele>
        <time>2018-04-28T13:12:35Z</time>
      </trkpt>
      <trkpt lat="44.95325" lon="3.56629">
        <ele>1075</ele>
        <time>2018-04-28T13:13:07Z</time>
      </trkpt>
      <trkpt lat="44.95329" lon="3.56624">
        <ele>1075</ele>
        <time>2018-04-28T13:13:12Z</time>
      </trkpt>
      <trkpt lat="44.95331" lon="3.56619">
        <ele>1074</ele>
        <time>2018-04-28T13:13:23Z</time>
      </trkpt>
      <trkpt lat="44.95355" lon="3.56585">
        <ele>1070</ele>
        <time>2018-04-28T13:13:56Z</time>
      </trkpt>
      <trkpt lat="44.95375" lon="3.56543">
        <ele>1068</ele>
        <time>2018-04-28T13:14:28Z</time>
      </trkpt>
      <trkpt lat="44.95386" lon="3.5652">
        <ele>1067</ele>
        <time>2018-04-28T13:14:46Z</time>
      </trkpt>
      <trkpt lat="44.95388" lon="3.56505">
        <ele>1067</ele>
        <time>2018-04-28T13:14:56Z</time>
      </trkpt>
      <trkpt lat="44.95396" lon="3.56488">
        <ele>1066</ele>
        <time>2018-04-28T13:15:08Z</time>
      </trkpt>
      <trkpt lat="44.95398" lon="3.56481">
        <ele>1066</ele>
        <time>2018-04-28T13:15:12Z</time>
      </trkpt>
      <trkpt lat="44.95399" lon="3.56473">
        <ele>1066</ele>
        <time>2018-04-28T13:15:17Z</time>
      </trkpt>
      <trkpt lat="44.954" lon="3.56418">
        <ele>1064</ele>
        <time>2018-04-28T13:15:50Z</time>
      </trkpt>
      <trkpt lat="44.95405" lon="3.56377">
        <ele>1061</ele>
        <time>2018-04-28T13:16:16Z</time>
      </trkpt>
      <trkpt lat="44.95425" lon="3.56328">
        <ele>1058</ele>
        <time>2018-04-28T13:16:50Z</time>
      </trkpt>
      <trkpt lat="44.95438" lon="3.56281">
        <ele>1056</ele>
        <time>2018-04-28T13:17:22Z</time>
      </trkpt>
      <trkpt lat="44.95459" lon="3.56238">
        <ele>1055</ele>
        <time>2018-04-28T13:17:56Z</time>
      </trkpt>
      <trkpt lat="44.95469" lon="3.56214">
        <ele>1053</ele>
        <time>2018-04-28T13:18:14Z</time>
      </trkpt>
      <trkpt lat="44.95473" lon="3.56201">
        <ele>1052</ele>
        <time>2018-04-28T13:18:23Z</time>
      </trkpt>
      <trkpt lat="44.95481" lon="3.56184">
        <ele>1051</ele>
        <time>2018-04-28T13:18:36Z</time>
      </trkpt>
      <trkpt lat="44.95483" lon="3.56177">
        <ele>1051</ele>
        <time>2018-04-28T13:18:41Z</time>
      </trkpt>
      <trkpt lat="44.95489" lon="3.56151">
        <ele>1050</ele>
        <time>2018-04-28T13:18:59Z</time>
      </trkpt>
      <trkpt lat="44.95489" lon="3.56144">
        <ele>1050</ele>
        <time>2018-04-28T13:19:04Z</time>
      </trkpt>
      <trkpt lat="44.95489" lon="3.5613">
        <ele>1051</ele>
        <time>2018-04-28T13:19:13Z</time>
      </trkpt>
      <trkpt lat="44.95489" lon="3.56123">
        <ele>1051</ele>
        <time>2018-04-28T13:19:18Z</time>
      </trkpt>
      <trkpt lat="44.95492" lon="3.56109">
        <ele>1051</ele>
        <time>2018-04-28T13:19:28Z</time>
      </trkpt>
      <trkpt lat="44.95493" lon="3.561">
        <ele>1051</ele>
        <time>2018-04-28T13:19:35Z</time>
      </trkpt>
      <trkpt lat="44.95495" lon="3.56087">
        <ele>1050</ele>
        <time>2018-04-28T13:19:43Z</time>
      </trkpt>
      <trkpt lat="44.955" lon="3.56073">
        <ele>1049</ele>
        <time>2018-04-28T13:19:53Z</time>
      </trkpt>
      <trkpt lat="44.95502" lon="3.56067">
        <ele>1049</ele>
        <time>2018-04-28T13:19:58Z</time>
      </trkpt>
      <trkpt lat="44.95511" lon="3.56049">
        <ele>1049</ele>
        <time>2018-04-28T13:20:12Z</time>
      </trkpt>
      <trkpt lat="44.95529" lon="3.56004">
        <ele>1046</ele>
        <time>2018-04-28T13:20:58Z</time>
      </trkpt>
      <trkpt lat="44.95536" lon="3.55991">
        <ele>1045</ele>
        <time>2018-04-28T13:21:13Z</time>
      </trkpt>
      <trkpt lat="44.95542" lon="3.55972">
        <ele>1043</ele>
        <time>2018-04-28T13:21:38Z</time>
      </trkpt>
      <trkpt lat="44.95561" lon="3.55939">
        <ele>1040</ele>
        <time>2018-04-28T13:22:10Z</time>
      </trkpt>
      <trkpt lat="44.95583" lon="3.55899">
        <ele>1038</ele>
        <time>2018-04-28T13:22:46Z</time>
      </trkpt>
      <trkpt lat="44.95588" lon="3.55886">
        <ele>1038</ele>
        <time>2018-04-28T13:22:58Z</time>
      </trkpt>
      <trkpt lat="44.95594" lon="3.55876">
        <ele>1036</ele>
        <time>2018-04-28T13:23:08Z</time>
      </trkpt>
      <trkpt lat="44.95596" lon="3.5587">
        <ele>1036</ele>
        <time>2018-04-28T13:23:17Z</time>
      </trkpt>
      <trkpt lat="44.95613" lon="3.55848">
        <ele>1033</ele>
        <time>2018-04-28T13:23:51Z</time>
      </trkpt>
      <trkpt lat="44.95616" lon="3.55843">
        <ele>1033</ele>
        <time>2018-04-28T13:23:56Z</time>
      </trkpt>
      <trkpt lat="44.95622" lon="3.55823">
        <ele>1031</ele>
        <time>2018-04-28T13:24:27Z</time>
      </trkpt>
      <trkpt lat="44.95624" lon="3.55815">
        <ele>1030</ele>
        <time>2018-04-28T13:24:33Z</time>
      </trkpt>
      <trkpt lat="44.95634" lon="3.55795">
        <ele>1029</ele>
        <time>2018-04-28T13:25:00Z</time>
      </trkpt>
      <trkpt lat="44.95638" lon="3.55792">
        <ele>1028</ele>
        <time>2018-04-28T13:25:05Z</time>
      </trkpt>
      <trkpt lat="44.95642" lon="3.55786">
        <ele>1028</ele>
        <time>2018-04-28T13:25:36Z</time>
      </trkpt>
      <trkpt lat="44.95645" lon="3.55781">
        <ele>1027</ele>
        <time>2018-04-28T13:25:41Z</time>
      </trkpt>
      <trkpt lat="44.9565" lon="3.55777">
        <ele>1027</ele>
        <time>2018-04-28T13:25:49Z</time>
      </trkpt>
      <trkpt lat="44.95666" lon="3.55751">
        <ele>1022</ele>
        <time>2018-04-28T13:26:22Z</time>
      </trkpt>
      <trkpt lat="44.9567" lon="3.55747">
        <ele>1022</ele>
        <time>2018-04-28T13:26:27Z</time>
      </trkpt>
      <trkpt lat="44.95677" lon="3.55735">
        <ele>1020</ele>
        <time>2018-04-28T13:26:37Z</time>
      </trkpt>
      <trkpt lat="44.95679" lon="3.55729">
        <ele>1020</ele>
        <time>2018-04-28T13:26:42Z</time>
      </trkpt>
      <trkpt lat="44.95682" lon="3.55722">
        <ele>1020</ele>
        <time>2018-04-28T13:26:53Z</time>
      </trkpt>
      <trkpt lat="44.95684" lon="3.55716">
        <ele>1019</ele>
        <time>2018-04-28T13:27:47Z</time>
      </trkpt>
      <trkpt lat="44.95687" lon="3.55711">
        <ele>1019</ele>
        <time>2018-04-28T13:27:52Z</time>
      </trkpt>
      <trkpt lat="44.95691" lon="3.55705">
        <ele>1018</ele>
        <time>2018-04-28T13:28:03Z</time>
      </trkpt>
      <trkpt lat="44.95694" lon="3.55699">
        <ele>1017</ele>
        <time>2018-04-28T13:28:09Z</time>
      </trkpt>
      <trkpt lat="44.95702" lon="3.55686">
        <ele>1015</ele>
        <time>2018-04-28T13:28:24Z</time>
      </trkpt>
      <trkpt lat="44.95703" lon="3.55679">
        <ele>1014</ele>
        <time>2018-04-28T13:28:29Z</time>
      </trkpt>
      <trkpt lat="44.95705" lon="3.55674">
        <ele>1013</ele>
        <time>2018-04-28T13:28:40Z</time>
      </trkpt>
      <trkpt lat="44.9572" lon="3.55629">
        <ele>1007</ele>
        <time>2018-04-28T13:29:13Z</time>
      </trkpt>
      <trkpt lat="44.95736" lon="3.55595">
        <ele>1002</ele>
        <time>2018-04-28T13:29:41Z</time>
      </trkpt>
      <trkpt lat="44.95741" lon="3.55587">
        <ele>1002</ele>
        <time>2018-04-28T13:29:53Z</time>
      </trkpt>
      <trkpt lat="44.95749" lon="3.55569">
        <ele>1000</ele>
        <time>2018-04-28T13:30:07Z</time>
      </trkpt>
      <trkpt lat="44.95754" lon="3.55536">
        <ele>996</ele>
        <time>2018-04-28T13:30:47Z</time>
      </trkpt>
      <trkpt lat="44.95757" lon="3.55492">
        <ele>991</ele>
        <time>2018-04-28T13:31:18Z</time>
      </trkpt>
      <trkpt lat="44.95758" lon="3.5545">
        <ele>987</ele>
        <time>2018-04-28T13:31:44Z</time>
      </trkpt>
      <trkpt lat="44.9576" lon="3.55443">
        <ele>986</ele>
        <time>2018-04-28T13:31:49Z</time>
      </trkpt>
      <trkpt lat="44.9578" lon="3.55394">
        <ele>979</ele>
        <time>2018-04-28T13:32:22Z</time>
      </trkpt>
      <trkpt lat="44.95784" lon="3.55381">
        <ele>979</ele>
        <time>2018-04-28T13:32:30Z</time>
      </trkpt>
      <trkpt lat="44.95793" lon="3.55358">
        <ele>977</ele>
        <time>2018-04-28T13:32:46Z</time>
      </trkpt>
      <trkpt lat="44.95796" lon="3.55347">
        <ele>977</ele>
        <time>2018-04-28T13:33:02Z</time>
      </trkpt>
      <trkpt lat="44.95797" lon="3.55341">
        <ele>977</ele>
        <time>2018-04-28T13:33:06Z</time>
      </trkpt>
      <trkpt lat="44.95809" lon="3.55299">
        <ele>973</ele>
        <time>2018-04-28T13:33:37Z</time>
      </trkpt>
      <trkpt lat="44.95823" lon="3.55262">
        <ele>969</ele>
        <time>2018-04-28T13:34:02Z</time>
      </trkpt>
      <trkpt lat="44.95824" lon="3.55256">
        <ele>968</ele>
        <time>2018-04-28T13:34:06Z</time>
      </trkpt>
      <trkpt lat="44.9584" lon="3.55232">
        <ele>965</ele>
        <time>2018-04-28T13:34:30Z</time>
      </trkpt>
      <trkpt lat="44.95848" lon="3.55229">
        <ele>964</ele>
        <time>2018-04-28T13:34:42Z</time>
      </trkpt>
      <trkpt lat="44.95864" lon="3.55212">
        <ele>960</ele>
        <time>2018-04-28T13:35:00Z</time>
      </trkpt>
      <trkpt lat="44.95874" lon="3.55188">
        <ele>956</ele>
        <time>2018-04-28T13:35:24Z</time>
      </trkpt>
      <trkpt lat="44.95874" lon="3.55164">
        <ele>954</ele>
        <time>2018-04-28T13:35:39Z</time>
      </trkpt>
      <trkpt lat="44.95872" lon="3.55158">
        <ele>954</ele>
        <time>2018-04-28T13:35:43Z</time>
      </trkpt>
      <trkpt lat="44.95856" lon="3.55114">
        <ele>952</ele>
        <time>2018-04-28T13:36:15Z</time>
      </trkpt>
      <trkpt lat="44.95852" lon="3.55102">
        <ele>953</ele>
        <time>2018-04-28T13:36:23Z</time>
      </trkpt>
      <trkpt lat="44.9585" lon="3.55096">
        <ele>952</ele>
        <time>2018-04-28T13:36:27Z</time>
      </trkpt>
      <trkpt lat="44.95843" lon="3.55062">
        <ele>953</ele>
        <time>2018-04-28T13:36:49Z</time>
      </trkpt>
      <trkpt lat="44.95843" lon="3.55056">
        <ele>953</ele>
        <time>2018-04-28T13:36:53Z</time>
      </trkpt>
      <trkpt lat="44.95842" lon="3.55049">
        <ele>953</ele>
        <time>2018-04-28T13:36:58Z</time>
      </trkpt>
      <trkpt lat="44.95843" lon="3.55041">
        <ele>953</ele>
        <time>2018-04-28T13:37:03Z</time>
      </trkpt>
      <trkpt lat="44.95846" lon="3.55034">
        <ele>953</ele>
        <time>2018-04-28T13:37:08Z</time>
      </trkpt>
      <trkpt lat="44.95849" lon="3.5503">
        <ele>954</ele>
        <time>2018-04-28T13:37:13Z</time>
      </trkpt>
      <trkpt lat="44.95854" lon="3.55019">
        <ele>955</ele>
        <time>2018-04-28T13:37:37Z</time>
      </trkpt>
      <trkpt lat="44.95862" lon="3.55002">
        <ele>955</ele>
        <time>2018-04-28T13:37:50Z</time>
      </trkpt>
      <trkpt lat="44.9588" lon="3.54971">
        <ele>956</ele>
        <time>2018-04-28T13:38:14Z</time>
      </trkpt>
      <trkpt lat="44.95882" lon="3.54966">
        <ele>956</ele>
        <time>2018-04-28T13:38:18Z</time>
      </trkpt>
      <trkpt lat="44.95888" lon="3.54955">
        <ele>957</ele>
        <time>2018-04-28T13:38:26Z</time>
      </trkpt>
      <trkpt lat="44.95904" lon="3.54929">
        <ele>958</ele>
        <time>2018-04-28T13:38:58Z</time>
      </trkpt>
      <trkpt lat="44.95907" lon="3.54923">
        <ele>958</ele>
        <time>2018-04-28T13:39:02Z</time>
      </trkpt>
      <trkpt lat="44.9591" lon="3.54918">
        <ele>958</ele>
        <time>2018-04-28T13:39:06Z</time>
      </trkpt>
      <trkpt lat="44.95917" lon="3.54907">
        <ele>959</ele>
        <time>2018-04-28T13:39:16Z</time>
      </trkpt>
      <trkpt lat="44.95922" lon="3.54903">
        <ele>959</ele>
        <time>2018-04-28T13:39:21Z</time>
      </trkpt>
      <trkpt lat="44.95927" lon="3.54902">
        <ele>959</ele>
        <time>2018-04-28T13:39:26Z</time>
      </trkpt>
      <trkpt lat="44.95924" lon="3.54895">
        <ele>959</ele>
        <time>2018-04-28T13:40:04Z</time>
      </trkpt>
      <trkpt lat="44.95935" lon="3.54876">
        <ele>960</ele>
        <time>2018-04-28T13:40:19Z</time>
      </trkpt>
      <trkpt lat="44.95938" lon="3.5487">
        <ele>960</ele>
        <time>2018-04-28T13:40:24Z</time>
      </trkpt>
      <trkpt lat="44.95945" lon="3.54856">
        <ele>961</ele>
        <time>2018-04-28T13:40:37Z</time>
      </trkpt>
      <trkpt lat="44.95952" lon="3.54834">
        <ele>962</ele>
        <time>2018-04-28T13:40:55Z</time>
      </trkpt>
      <trkpt lat="44.95955" lon="3.54819">
        <ele>962</ele>
        <time>2018-04-28T13:41:05Z</time>
      </trkpt>
      <trkpt lat="44.95955" lon="3.54798">
        <ele>964</ele>
        <time>2018-04-28T13:41:19Z</time>
      </trkpt>
      <trkpt lat="44.95957" lon="3.54788">
        <ele>964</ele>
        <time>2018-04-28T13:41:28Z</time>
      </trkpt>
      <trkpt lat="44.95967" lon="3.54792">
        <ele>964</ele>
        <time>2018-04-28T13:41:36Z</time>
      </trkpt>
      <trkpt lat="44.95971" lon="3.54796">
        <ele>964</ele>
        <time>2018-04-28T13:41:40Z</time>
      </trkpt>
      <trkpt lat="44.95975" lon="3.54799">
        <ele>964</ele>
        <time>2018-04-28T13:41:44Z</time>
      </trkpt>
      <trkpt lat="44.95985" lon="3.54805">
        <ele>964</ele>
        <time>2018-04-28T13:41:53Z</time>
      </trkpt>
      <trkpt lat="44.95989" lon="3.5481">
        <ele>963</ele>
        <time>2018-04-28T13:41:58Z</time>
      </trkpt>
      <trkpt lat="44.95995" lon="3.54811">
        <ele>963</ele>
        <time>2018-04-28T13:42:03Z</time>
      </trkpt>
      <trkpt lat="44.95999" lon="3.54816">
        <ele>963</ele>
        <time>2018-04-28T13:42:07Z</time>
      </trkpt>
      <trkpt lat="44.96004" lon="3.54818">
        <ele>963</ele>
        <time>2018-04-28T13:42:11Z</time>
      </trkpt>
      <trkpt lat="44.96013" lon="3.54824">
        <ele>963</ele>
        <time>2018-04-28T13:42:19Z</time>
      </trkpt>
      <trkpt lat="44.96029" lon="3.54841">
        <ele>964</ele>
        <time>2018-04-28T13:42:37Z</time>
      </trkpt>
      <trkpt lat="44.96039" lon="3.54843">
        <ele>964</ele>
        <time>2018-04-28T13:42:45Z</time>
      </trkpt>
      <trkpt lat="44.96044" lon="3.54842">
        <ele>964</ele>
        <time>2018-04-28T13:42:49Z</time>
      </trkpt>
      <trkpt lat="44.96048" lon="3.54844">
        <ele>964</ele>
        <time>2018-04-28T13:42:54Z</time>
      </trkpt>
      <trkpt lat="44.96055" lon="3.54843">
        <ele>964</ele>
        <time>2018-04-28T13:43:01Z</time>
      </trkpt>
      <trkpt lat="44.96061" lon="3.54841">
        <ele>964</ele>
        <time>2018-04-28T13:43:08Z</time>
      </trkpt>
      <trkpt lat="44.96066" lon="3.54836">
        <ele>963</ele>
        <time>2018-04-28T13:43:16Z</time>
      </trkpt>
      <trkpt lat="44.96072" lon="3.54834">
        <ele>963</ele>
        <time>2018-04-28T13:43:21Z</time>
      </trkpt>
      <trkpt lat="44.96082" lon="3.54828">
        <ele>964</ele>
        <time>2018-04-28T13:43:31Z</time>
      </trkpt>
      <trkpt lat="44.96081" lon="3.54828">
        <ele>964</ele>
        <time>2018-04-28T13:43:54Z</time>
      </trkpt>
    </trkseg>
  </trk>
</gpx>